<?xml version="1.0" encoding="UTF-8" standalone="no" ?>
<gpx xmlns="http://www.topografix.com/GPX/1/1" xmlns:xsi="http://www.w3.org/2001/XMLSchema-instance" xsi:schemaLocation="http://www.topografix.com/GPX/1/1 http://www.topografix.com/GPX/1/1/gpx.xsd" version="1.1" creator="VisuGPX - https://www.visugpx.com">
  <metadata>
    <name>La petite cloche par Ainac-Lambert</name>
  </metadata>
  <trk>
    <name><![CDATA[la petite cloche par Ainac-Lambert]]></name>
    <extensions>
      <line xmlns="http://www.topografix.com/GPX/gpx_style/0/2">
        <color>0000FF</color>
        <width>4</width>
      </line>
    </extensions>
    <trkseg>
      <trkpt lat="44.21251" lon="6.21282">
        <ele>1064.32</ele>
        <time>2017-04-09T07:35:26Z</time>
      </trkpt>
      <trkpt lat="44.21251" lon="6.21281">
        <ele>1064.32</ele>
        <time>2017-04-09T07:35:27Z</time>
      </trkpt>
      <trkpt lat="44.21251" lon="6.21277">
        <ele>1064.8</ele>
        <time>2017-04-09T07:35:47Z</time>
      </trkpt>
      <trkpt lat="44.21264" lon="6.21276">
        <ele>1064.8</ele>
        <time>2017-04-09T07:36:18Z</time>
      </trkpt>
      <trkpt lat="44.21267" lon="6.21282">
        <ele>1065.28</ele>
        <time>2017-04-09T07:36:52Z</time>
      </trkpt>
      <trkpt lat="44.21267" lon="6.21283">
        <ele>1061.43</ele>
        <time>2017-04-09T07:36:55Z</time>
      </trkpt>
      <trkpt lat="44.21267" lon="6.21283">
        <ele>1065.76</ele>
        <time>2017-04-09T07:36:56Z</time>
      </trkpt>
      <trkpt lat="44.21267" lon="6.21283">
        <ele>1065.76</ele>
        <time>2017-04-09T07:36:57Z</time>
      </trkpt>
      <trkpt lat="44.21261" lon="6.21285">
        <ele>1065.28</ele>
        <time>2017-04-09T07:37:24Z</time>
      </trkpt>
      <trkpt lat="44.2126" lon="6.21287">
        <ele>1065.76</ele>
        <time>2017-04-09T07:37:53Z</time>
      </trkpt>
      <trkpt lat="44.21264" lon="6.21289">
        <ele>1066.24</ele>
        <time>2017-04-09T07:38:26Z</time>
      </trkpt>
      <trkpt lat="44.21262" lon="6.21291">
        <ele>1066.72</ele>
        <time>2017-04-09T07:39:04Z</time>
      </trkpt>
      <trkpt lat="44.21259" lon="6.21291">
        <ele>1067.2</ele>
        <time>2017-04-09T07:39:46Z</time>
      </trkpt>
      <trkpt lat="44.2126" lon="6.21287">
        <ele>1066.24</ele>
        <time>2017-04-09T07:40:11Z</time>
      </trkpt>
      <trkpt lat="44.2126" lon="6.21287">
        <ele>1068.64</ele>
        <time>2017-04-09T07:40:13Z</time>
      </trkpt>
      <trkpt lat="44.2126" lon="6.21287">
        <ele>1067.68</ele>
        <time>2017-04-09T07:40:39Z</time>
      </trkpt>
      <trkpt lat="44.21262" lon="6.21288">
        <ele>1068.16</ele>
        <time>2017-04-09T07:41:03Z</time>
      </trkpt>
      <trkpt lat="44.21265" lon="6.21285">
        <ele>1068.16</ele>
        <time>2017-04-09T07:41:20Z</time>
      </trkpt>
      <trkpt lat="44.21266" lon="6.21281">
        <ele>1068.64</ele>
        <time>2017-04-09T07:41:41Z</time>
      </trkpt>
      <trkpt lat="44.21266" lon="6.21272">
        <ele>1070.08</ele>
        <time>2017-04-09T07:41:55Z</time>
      </trkpt>
      <trkpt lat="44.21263" lon="6.21268">
        <ele>1070.57</ele>
        <time>2017-04-09T07:42:11Z</time>
      </trkpt>
      <trkpt lat="44.21265" lon="6.21269">
        <ele>1069.6</ele>
        <time>2017-04-09T07:42:20Z</time>
      </trkpt>
      <trkpt lat="44.2127" lon="6.21282">
        <ele>1071.05</ele>
        <time>2017-04-09T07:42:41Z</time>
      </trkpt>
      <trkpt lat="44.21262" lon="6.21271">
        <ele>1071.53</ele>
        <time>2017-04-09T07:42:55Z</time>
      </trkpt>
      <trkpt lat="44.21263" lon="6.2128">
        <ele>1072.01</ele>
        <time>2017-04-09T07:43:07Z</time>
      </trkpt>
      <trkpt lat="44.21262" lon="6.21282">
        <ele>1070.57</ele>
        <time>2017-04-09T07:43:09Z</time>
      </trkpt>
      <trkpt lat="44.21263" lon="6.21282">
        <ele>1071.53</ele>
        <time>2017-04-09T07:43:18Z</time>
      </trkpt>
      <trkpt lat="44.21264" lon="6.21281">
        <ele>1070.08</ele>
        <time>2017-04-09T07:43:24Z</time>
      </trkpt>
      <trkpt lat="44.21267" lon="6.21285">
        <ele>1070.57</ele>
        <time>2017-04-09T07:43:45Z</time>
      </trkpt>
      <trkpt lat="44.21281" lon="6.21291">
        <ele>1072.01</ele>
        <time>2017-04-09T07:44:03Z</time>
      </trkpt>
      <trkpt lat="44.21288" lon="6.21292">
        <ele>1072.49</ele>
        <time>2017-04-09T07:44:10Z</time>
      </trkpt>
      <trkpt lat="44.21307" lon="6.21294">
        <ele>1074.89</ele>
        <time>2017-04-09T07:44:26Z</time>
      </trkpt>
      <trkpt lat="44.21324" lon="6.21297">
        <ele>1077.78</ele>
        <time>2017-04-09T07:44:43Z</time>
      </trkpt>
      <trkpt lat="44.21339" lon="6.21309">
        <ele>1078.26</ele>
        <time>2017-04-09T07:44:59Z</time>
      </trkpt>
      <trkpt lat="44.21342" lon="6.21314">
        <ele>1079.22</ele>
        <time>2017-04-09T07:45:03Z</time>
      </trkpt>
      <trkpt lat="44.21355" lon="6.2133">
        <ele>1080.66</ele>
        <time>2017-04-09T07:45:18Z</time>
      </trkpt>
      <trkpt lat="44.21365" lon="6.2135">
        <ele>1082.1</ele>
        <time>2017-04-09T07:45:33Z</time>
      </trkpt>
      <trkpt lat="44.21368" lon="6.21359">
        <ele>1082.58</ele>
        <time>2017-04-09T07:45:39Z</time>
      </trkpt>
      <trkpt lat="44.21381" lon="6.21381">
        <ele>1084.02</ele>
        <time>2017-04-09T07:45:56Z</time>
      </trkpt>
      <trkpt lat="44.21397" lon="6.21387">
        <ele>1085.47</ele>
        <time>2017-04-09T07:46:13Z</time>
      </trkpt>
      <trkpt lat="44.21417" lon="6.21386">
        <ele>1087.39</ele>
        <time>2017-04-09T07:46:31Z</time>
      </trkpt>
      <trkpt lat="44.21438" lon="6.21383">
        <ele>1087.87</ele>
        <time>2017-04-09T07:46:49Z</time>
      </trkpt>
      <trkpt lat="44.21458" lon="6.21381">
        <ele>1089.79</ele>
        <time>2017-04-09T07:47:05Z</time>
      </trkpt>
      <trkpt lat="44.21478" lon="6.21384">
        <ele>1090.75</ele>
        <time>2017-04-09T07:47:21Z</time>
      </trkpt>
      <trkpt lat="44.21494" lon="6.21393">
        <ele>1092.68</ele>
        <time>2017-04-09T07:47:37Z</time>
      </trkpt>
      <trkpt lat="44.21516" lon="6.2139">
        <ele>1095.08</ele>
        <time>2017-04-09T07:47:56Z</time>
      </trkpt>
      <trkpt lat="44.21528" lon="6.21385">
        <ele>1096.52</ele>
        <time>2017-04-09T07:48:10Z</time>
      </trkpt>
      <trkpt lat="44.21547" lon="6.21387">
        <ele>1097.96</ele>
        <time>2017-04-09T07:48:27Z</time>
      </trkpt>
      <trkpt lat="44.21554" lon="6.21391">
        <ele>1098.44</ele>
        <time>2017-04-09T07:48:34Z</time>
      </trkpt>
      <trkpt lat="44.21573" lon="6.21401">
        <ele>1101.33</ele>
        <time>2017-04-09T07:48:52Z</time>
      </trkpt>
      <trkpt lat="44.21592" lon="6.21398">
        <ele>1101.33</ele>
        <time>2017-04-09T07:49:09Z</time>
      </trkpt>
      <trkpt lat="44.21598" lon="6.21396">
        <ele>1101.81</ele>
        <time>2017-04-09T07:49:15Z</time>
      </trkpt>
      <trkpt lat="44.21607" lon="6.214">
        <ele>1101.81</ele>
        <time>2017-04-09T07:49:32Z</time>
      </trkpt>
      <trkpt lat="44.21607" lon="6.214">
        <ele>1101.81</ele>
        <time>2017-04-09T07:49:43Z</time>
      </trkpt>
      <trkpt lat="44.21608" lon="6.21403">
        <ele>1102.29</ele>
        <time>2017-04-09T07:49:50Z</time>
      </trkpt>
      <trkpt lat="44.21614" lon="6.21429">
        <ele>1100.85</ele>
        <time>2017-04-09T07:50:10Z</time>
      </trkpt>
      <trkpt lat="44.21614" lon="6.2143">
        <ele>1100.85</ele>
        <time>2017-04-09T07:50:11Z</time>
      </trkpt>
      <trkpt lat="44.21609" lon="6.21439">
        <ele>1100.85</ele>
        <time>2017-04-09T07:50:25Z</time>
      </trkpt>
      <trkpt lat="44.21599" lon="6.21453">
        <ele>1100.37</ele>
        <time>2017-04-09T07:50:38Z</time>
      </trkpt>
      <trkpt lat="44.21592" lon="6.21482">
        <ele>1098.92</ele>
        <time>2017-04-09T07:50:57Z</time>
      </trkpt>
      <trkpt lat="44.21587" lon="6.21509">
        <ele>1097.48</ele>
        <time>2017-04-09T07:51:14Z</time>
      </trkpt>
      <trkpt lat="44.21577" lon="6.21536">
        <ele>1096.04</ele>
        <time>2017-04-09T07:51:33Z</time>
      </trkpt>
      <trkpt lat="44.21563" lon="6.21559">
        <ele>1095.56</ele>
        <time>2017-04-09T07:51:49Z</time>
      </trkpt>
      <trkpt lat="44.2155" lon="6.2158">
        <ele>1095.08</ele>
        <time>2017-04-09T07:52:04Z</time>
      </trkpt>
      <trkpt lat="44.21541" lon="6.21597">
        <ele>1094.6</ele>
        <time>2017-04-09T07:52:20Z</time>
      </trkpt>
      <trkpt lat="44.21538" lon="6.21607">
        <ele>1095.08</ele>
        <time>2017-04-09T07:52:26Z</time>
      </trkpt>
      <trkpt lat="44.21532" lon="6.21622">
        <ele>1094.12</ele>
        <time>2017-04-09T07:52:35Z</time>
      </trkpt>
      <trkpt lat="44.21534" lon="6.21643">
        <ele>1093.64</ele>
        <time>2017-04-09T07:52:48Z</time>
      </trkpt>
      <trkpt lat="44.21541" lon="6.21668">
        <ele>1092.68</ele>
        <time>2017-04-09T07:53:04Z</time>
      </trkpt>
      <trkpt lat="44.2154" lon="6.21686">
        <ele>1091.71</ele>
        <time>2017-04-09T07:53:16Z</time>
      </trkpt>
      <trkpt lat="44.21537" lon="6.21695">
        <ele>1091.71</ele>
        <time>2017-04-09T07:53:22Z</time>
      </trkpt>
      <trkpt lat="44.21531" lon="6.21717">
        <ele>1091.71</ele>
        <time>2017-04-09T07:53:41Z</time>
      </trkpt>
      <trkpt lat="44.21523" lon="6.21737">
        <ele>1090.75</ele>
        <time>2017-04-09T07:53:59Z</time>
      </trkpt>
      <trkpt lat="44.2152" lon="6.21764">
        <ele>1090.27</ele>
        <time>2017-04-09T07:54:18Z</time>
      </trkpt>
      <trkpt lat="44.21517" lon="6.21789">
        <ele>1089.31</ele>
        <time>2017-04-09T07:54:34Z</time>
      </trkpt>
      <trkpt lat="44.21515" lon="6.21816">
        <ele>1089.31</ele>
        <time>2017-04-09T07:54:50Z</time>
      </trkpt>
      <trkpt lat="44.21515" lon="6.21849">
        <ele>1088.83</ele>
        <time>2017-04-09T07:55:09Z</time>
      </trkpt>
      <trkpt lat="44.21518" lon="6.2188">
        <ele>1087.87</ele>
        <time>2017-04-09T07:55:28Z</time>
      </trkpt>
      <trkpt lat="44.21519" lon="6.21882">
        <ele>1087.87</ele>
        <time>2017-04-09T07:55:29Z</time>
      </trkpt>
      <trkpt lat="44.21522" lon="6.219">
        <ele>1088.35</ele>
        <time>2017-04-09T07:55:43Z</time>
      </trkpt>
      <trkpt lat="44.21522" lon="6.21921">
        <ele>1088.35</ele>
        <time>2017-04-09T07:55:58Z</time>
      </trkpt>
      <trkpt lat="44.21507" lon="6.21937">
        <ele>1090.27</ele>
        <time>2017-04-09T07:56:14Z</time>
      </trkpt>
      <trkpt lat="44.21501" lon="6.21955">
        <ele>1090.27</ele>
        <time>2017-04-09T07:56:28Z</time>
      </trkpt>
      <trkpt lat="44.21493" lon="6.2197">
        <ele>1090.27</ele>
        <time>2017-04-09T07:56:40Z</time>
      </trkpt>
      <trkpt lat="44.21481" lon="6.21993">
        <ele>1092.68</ele>
        <time>2017-04-09T07:56:57Z</time>
      </trkpt>
      <trkpt lat="44.21471" lon="6.22014">
        <ele>1093.16</ele>
        <time>2017-04-09T07:57:13Z</time>
      </trkpt>
      <trkpt lat="44.21461" lon="6.22038">
        <ele>1095.56</ele>
        <time>2017-04-09T07:57:30Z</time>
      </trkpt>
      <trkpt lat="44.21459" lon="6.22056">
        <ele>1097.96</ele>
        <time>2017-04-09T07:57:44Z</time>
      </trkpt>
      <trkpt lat="44.21472" lon="6.22066">
        <ele>1099.4</ele>
        <time>2017-04-09T07:57:59Z</time>
      </trkpt>
      <trkpt lat="44.21487" lon="6.2207">
        <ele>1101.81</ele>
        <time>2017-04-09T07:58:16Z</time>
      </trkpt>
      <trkpt lat="44.21501" lon="6.22079">
        <ele>1104.21</ele>
        <time>2017-04-09T07:58:31Z</time>
      </trkpt>
      <trkpt lat="44.21506" lon="6.22077">
        <ele>1106.13</ele>
        <time>2017-04-09T07:58:45Z</time>
      </trkpt>
      <trkpt lat="44.21504" lon="6.22077">
        <ele>1107.1</ele>
        <time>2017-04-09T07:59:13Z</time>
      </trkpt>
      <trkpt lat="44.21504" lon="6.22077">
        <ele>1107.1</ele>
        <time>2017-04-09T07:59:28Z</time>
      </trkpt>
      <trkpt lat="44.21504" lon="6.22071">
        <ele>1107.1</ele>
        <time>2017-04-09T07:59:47Z</time>
      </trkpt>
      <trkpt lat="44.21501" lon="6.22053">
        <ele>1109.98</ele>
        <time>2017-04-09T08:00:04Z</time>
      </trkpt>
      <trkpt lat="44.21505" lon="6.22052">
        <ele>1110.94</ele>
        <time>2017-04-09T08:00:20Z</time>
      </trkpt>
      <trkpt lat="44.2151" lon="6.2206">
        <ele>1112.86</ele>
        <time>2017-04-09T08:00:35Z</time>
      </trkpt>
      <trkpt lat="44.21511" lon="6.22048">
        <ele>1115.27</ele>
        <time>2017-04-09T08:00:49Z</time>
      </trkpt>
      <trkpt lat="44.21516" lon="6.22033">
        <ele>1118.15</ele>
        <time>2017-04-09T08:01:06Z</time>
      </trkpt>
      <trkpt lat="44.21525" lon="6.22027">
        <ele>1121.03</ele>
        <time>2017-04-09T08:01:23Z</time>
      </trkpt>
      <trkpt lat="44.21532" lon="6.22024">
        <ele>1122.96</ele>
        <time>2017-04-09T08:01:35Z</time>
      </trkpt>
      <trkpt lat="44.21545" lon="6.2201">
        <ele>1124.4</ele>
        <time>2017-04-09T08:01:53Z</time>
      </trkpt>
      <trkpt lat="44.21555" lon="6.22005">
        <ele>1125.36</ele>
        <time>2017-04-09T08:02:04Z</time>
      </trkpt>
      <trkpt lat="44.21569" lon="6.21994">
        <ele>1125.84</ele>
        <time>2017-04-09T08:02:20Z</time>
      </trkpt>
      <trkpt lat="44.21579" lon="6.21983">
        <ele>1126.8</ele>
        <time>2017-04-09T08:02:33Z</time>
      </trkpt>
      <trkpt lat="44.21585" lon="6.21969">
        <ele>1126.8</ele>
        <time>2017-04-09T08:02:45Z</time>
      </trkpt>
      <trkpt lat="44.21587" lon="6.21939">
        <ele>1126.8</ele>
        <time>2017-04-09T08:03:03Z</time>
      </trkpt>
      <trkpt lat="44.21587" lon="6.21914">
        <ele>1128.73</ele>
        <time>2017-04-09T08:03:20Z</time>
      </trkpt>
      <trkpt lat="44.21584" lon="6.2189">
        <ele>1129.21</ele>
        <time>2017-04-09T08:03:36Z</time>
      </trkpt>
      <trkpt lat="44.21584" lon="6.2188">
        <ele>1129.69</ele>
        <time>2017-04-09T08:03:52Z</time>
      </trkpt>
      <trkpt lat="44.21584" lon="6.2188">
        <ele>1130.17</ele>
        <time>2017-04-09T08:04:33Z</time>
      </trkpt>
      <trkpt lat="44.21586" lon="6.21867">
        <ele>1130.65</ele>
        <time>2017-04-09T08:04:51Z</time>
      </trkpt>
      <trkpt lat="44.21589" lon="6.21844">
        <ele>1131.13</ele>
        <time>2017-04-09T08:05:06Z</time>
      </trkpt>
      <trkpt lat="44.2159" lon="6.21822">
        <ele>1131.61</ele>
        <time>2017-04-09T08:05:20Z</time>
      </trkpt>
      <trkpt lat="44.21592" lon="6.21795">
        <ele>1133.53</ele>
        <time>2017-04-09T08:05:38Z</time>
      </trkpt>
      <trkpt lat="44.21593" lon="6.2179">
        <ele>1134.01</ele>
        <time>2017-04-09T08:05:41Z</time>
      </trkpt>
      <trkpt lat="44.21608" lon="6.21773">
        <ele>1134.49</ele>
        <time>2017-04-09T08:05:59Z</time>
      </trkpt>
      <trkpt lat="44.21618" lon="6.21757">
        <ele>1134.97</ele>
        <time>2017-04-09T08:06:12Z</time>
      </trkpt>
      <trkpt lat="44.21622" lon="6.21738">
        <ele>1135.94</ele>
        <time>2017-04-09T08:06:26Z</time>
      </trkpt>
      <trkpt lat="44.21615" lon="6.21715">
        <ele>1136.42</ele>
        <time>2017-04-09T08:06:42Z</time>
      </trkpt>
      <trkpt lat="44.21611" lon="6.21697">
        <ele>1136.42</ele>
        <time>2017-04-09T08:06:55Z</time>
      </trkpt>
      <trkpt lat="44.21612" lon="6.21667">
        <ele>1136.9</ele>
        <time>2017-04-09T08:07:14Z</time>
      </trkpt>
      <trkpt lat="44.21613" lon="6.21666">
        <ele>1136.9</ele>
        <time>2017-04-09T08:07:15Z</time>
      </trkpt>
      <trkpt lat="44.21623" lon="6.21646">
        <ele>1137.38</ele>
        <time>2017-04-09T08:07:30Z</time>
      </trkpt>
      <trkpt lat="44.2164" lon="6.21632">
        <ele>1138.82</ele>
        <time>2017-04-09T08:07:49Z</time>
      </trkpt>
      <trkpt lat="44.21647" lon="6.21618">
        <ele>1140.74</ele>
        <time>2017-04-09T08:08:02Z</time>
      </trkpt>
      <trkpt lat="44.21653" lon="6.21604">
        <ele>1142.18</ele>
        <time>2017-04-09T08:08:16Z</time>
      </trkpt>
      <trkpt lat="44.21661" lon="6.2159">
        <ele>1144.59</ele>
        <time>2017-04-09T08:08:33Z</time>
      </trkpt>
      <trkpt lat="44.21676" lon="6.21581">
        <ele>1145.55</ele>
        <time>2017-04-09T08:08:49Z</time>
      </trkpt>
      <trkpt lat="44.2168" lon="6.21576">
        <ele>1146.51</ele>
        <time>2017-04-09T08:08:55Z</time>
      </trkpt>
      <trkpt lat="44.21687" lon="6.21562">
        <ele>1146.99</ele>
        <time>2017-04-09T08:09:07Z</time>
      </trkpt>
      <trkpt lat="44.21695" lon="6.21542">
        <ele>1147.95</ele>
        <time>2017-04-09T08:09:24Z</time>
      </trkpt>
      <trkpt lat="44.21697" lon="6.21524">
        <ele>1149.87</ele>
        <time>2017-04-09T08:09:40Z</time>
      </trkpt>
      <trkpt lat="44.21703" lon="6.21506">
        <ele>1149.87</ele>
        <time>2017-04-09T08:09:54Z</time>
      </trkpt>
      <trkpt lat="44.2171" lon="6.21484">
        <ele>1150.35</ele>
        <time>2017-04-09T08:10:09Z</time>
      </trkpt>
      <trkpt lat="44.21719" lon="6.21458">
        <ele>1150.84</ele>
        <time>2017-04-09T08:10:26Z</time>
      </trkpt>
      <trkpt lat="44.21719" lon="6.21439">
        <ele>1151.32</ele>
        <time>2017-04-09T08:10:41Z</time>
      </trkpt>
      <trkpt lat="44.21721" lon="6.21415">
        <ele>1151.8</ele>
        <time>2017-04-09T08:10:56Z</time>
      </trkpt>
      <trkpt lat="44.21724" lon="6.21396">
        <ele>1151.8</ele>
        <time>2017-04-09T08:11:10Z</time>
      </trkpt>
      <trkpt lat="44.21726" lon="6.21378">
        <ele>1151.8</ele>
        <time>2017-04-09T08:11:26Z</time>
      </trkpt>
      <trkpt lat="44.2173" lon="6.2136">
        <ele>1151.8</ele>
        <time>2017-04-09T08:11:40Z</time>
      </trkpt>
      <trkpt lat="44.21736" lon="6.21341">
        <ele>1151.8</ele>
        <time>2017-04-09T08:11:57Z</time>
      </trkpt>
      <trkpt lat="44.21738" lon="6.21322">
        <ele>1151.8</ele>
        <time>2017-04-09T08:12:11Z</time>
      </trkpt>
      <trkpt lat="44.21743" lon="6.21309">
        <ele>1153.72</ele>
        <time>2017-04-09T08:12:28Z</time>
      </trkpt>
      <trkpt lat="44.21749" lon="6.21292">
        <ele>1156.12</ele>
        <time>2017-04-09T08:12:43Z</time>
      </trkpt>
      <trkpt lat="44.21759" lon="6.21291">
        <ele>1158.53</ele>
        <time>2017-04-09T08:13:01Z</time>
      </trkpt>
      <trkpt lat="44.21771" lon="6.21292">
        <ele>1161.41</ele>
        <time>2017-04-09T08:13:20Z</time>
      </trkpt>
      <trkpt lat="44.2178" lon="6.21293">
        <ele>1162.85</ele>
        <time>2017-04-09T08:13:34Z</time>
      </trkpt>
      <trkpt lat="44.21791" lon="6.21286">
        <ele>1165.74</ele>
        <time>2017-04-09T08:13:53Z</time>
      </trkpt>
      <trkpt lat="44.21798" lon="6.21265">
        <ele>1167.18</ele>
        <time>2017-04-09T08:14:09Z</time>
      </trkpt>
      <trkpt lat="44.21808" lon="6.2125">
        <ele>1168.62</ele>
        <time>2017-04-09T08:14:25Z</time>
      </trkpt>
      <trkpt lat="44.21816" lon="6.21241">
        <ele>1170.06</ele>
        <time>2017-04-09T08:14:40Z</time>
      </trkpt>
      <trkpt lat="44.21825" lon="6.21231">
        <ele>1171.98</ele>
        <time>2017-04-09T08:14:55Z</time>
      </trkpt>
      <trkpt lat="44.21835" lon="6.21225">
        <ele>1173.91</ele>
        <time>2017-04-09T08:15:12Z</time>
      </trkpt>
      <trkpt lat="44.21846" lon="6.21217">
        <ele>1176.31</ele>
        <time>2017-04-09T08:15:29Z</time>
      </trkpt>
      <trkpt lat="44.21858" lon="6.21213">
        <ele>1178.71</ele>
        <time>2017-04-09T08:15:48Z</time>
      </trkpt>
      <trkpt lat="44.21869" lon="6.21208">
        <ele>1180.16</ele>
        <time>2017-04-09T08:16:05Z</time>
      </trkpt>
      <trkpt lat="44.2187" lon="6.21204">
        <ele>1180.16</ele>
        <time>2017-04-09T08:16:20Z</time>
      </trkpt>
      <trkpt lat="44.21872" lon="6.21205">
        <ele>1180.16</ele>
        <time>2017-04-09T08:16:28Z</time>
      </trkpt>
      <trkpt lat="44.21883" lon="6.2121">
        <ele>1181.12</ele>
        <time>2017-04-09T08:16:42Z</time>
      </trkpt>
      <trkpt lat="44.21905" lon="6.21215">
        <ele>1183.04</ele>
        <time>2017-04-09T08:17:02Z</time>
      </trkpt>
      <trkpt lat="44.21917" lon="6.21223">
        <ele>1184.48</ele>
        <time>2017-04-09T08:17:15Z</time>
      </trkpt>
      <trkpt lat="44.21929" lon="6.21237">
        <ele>1186.4</ele>
        <time>2017-04-09T08:17:30Z</time>
      </trkpt>
      <trkpt lat="44.21936" lon="6.21246">
        <ele>1186.88</ele>
        <time>2017-04-09T08:17:45Z</time>
      </trkpt>
      <trkpt lat="44.21944" lon="6.21258">
        <ele>1187.37</ele>
        <time>2017-04-09T08:17:59Z</time>
      </trkpt>
      <trkpt lat="44.21946" lon="6.21258">
        <ele>1187.37</ele>
        <time>2017-04-09T08:18:02Z</time>
      </trkpt>
      <trkpt lat="44.21957" lon="6.21243">
        <ele>1188.81</ele>
        <time>2017-04-09T08:18:16Z</time>
      </trkpt>
      <trkpt lat="44.2197" lon="6.21244">
        <ele>1191.21</ele>
        <time>2017-04-09T08:18:33Z</time>
      </trkpt>
      <trkpt lat="44.21978" lon="6.21258">
        <ele>1194.09</ele>
        <time>2017-04-09T08:18:52Z</time>
      </trkpt>
      <trkpt lat="44.21986" lon="6.2127">
        <ele>1196.5</ele>
        <time>2017-04-09T08:19:07Z</time>
      </trkpt>
      <trkpt lat="44.21989" lon="6.21268">
        <ele>1196.5</ele>
        <time>2017-04-09T08:19:12Z</time>
      </trkpt>
      <trkpt lat="44.22001" lon="6.21252">
        <ele>1195.54</ele>
        <time>2017-04-09T08:19:27Z</time>
      </trkpt>
      <trkpt lat="44.22005" lon="6.21244">
        <ele>1196.98</ele>
        <time>2017-04-09T08:19:35Z</time>
      </trkpt>
      <trkpt lat="44.22013" lon="6.21229">
        <ele>1198.9</ele>
        <time>2017-04-09T08:19:50Z</time>
      </trkpt>
      <trkpt lat="44.22016" lon="6.21216">
        <ele>1200.34</ele>
        <time>2017-04-09T08:20:05Z</time>
      </trkpt>
      <trkpt lat="44.22018" lon="6.212">
        <ele>1202.27</ele>
        <time>2017-04-09T08:20:21Z</time>
      </trkpt>
      <trkpt lat="44.22016" lon="6.21183">
        <ele>1203.71</ele>
        <time>2017-04-09T08:20:35Z</time>
      </trkpt>
      <trkpt lat="44.22018" lon="6.21167">
        <ele>1206.11</ele>
        <time>2017-04-09T08:20:53Z</time>
      </trkpt>
      <trkpt lat="44.22019" lon="6.21154">
        <ele>1208.51</ele>
        <time>2017-04-09T08:21:08Z</time>
      </trkpt>
      <trkpt lat="44.22019" lon="6.21144">
        <ele>1210.44</ele>
        <time>2017-04-09T08:21:24Z</time>
      </trkpt>
      <trkpt lat="44.22028" lon="6.21142">
        <ele>1211.88</ele>
        <time>2017-04-09T08:21:38Z</time>
      </trkpt>
      <trkpt lat="44.22043" lon="6.21141">
        <ele>1214.28</ele>
        <time>2017-04-09T08:21:59Z</time>
      </trkpt>
      <trkpt lat="44.22057" lon="6.21138">
        <ele>1217.17</ele>
        <time>2017-04-09T08:22:18Z</time>
      </trkpt>
      <trkpt lat="44.22067" lon="6.21133">
        <ele>1219.09</ele>
        <time>2017-04-09T08:22:36Z</time>
      </trkpt>
      <trkpt lat="44.22073" lon="6.21131">
        <ele>1220.05</ele>
        <time>2017-04-09T08:23:00Z</time>
      </trkpt>
      <trkpt lat="44.22086" lon="6.2113">
        <ele>1221.97</ele>
        <time>2017-04-09T08:23:18Z</time>
      </trkpt>
      <trkpt lat="44.22095" lon="6.21115">
        <ele>1223.9</ele>
        <time>2017-04-09T08:23:33Z</time>
      </trkpt>
      <trkpt lat="44.22108" lon="6.21111">
        <ele>1225.82</ele>
        <time>2017-04-09T08:23:50Z</time>
      </trkpt>
      <trkpt lat="44.22117" lon="6.21102">
        <ele>1227.26</ele>
        <time>2017-04-09T08:24:06Z</time>
      </trkpt>
      <trkpt lat="44.22125" lon="6.21089">
        <ele>1229.18</ele>
        <time>2017-04-09T08:24:23Z</time>
      </trkpt>
      <trkpt lat="44.2214" lon="6.21079">
        <ele>1232.55</ele>
        <time>2017-04-09T08:24:43Z</time>
      </trkpt>
      <trkpt lat="44.22145" lon="6.21079">
        <ele>1233.99</ele>
        <time>2017-04-09T08:24:57Z</time>
      </trkpt>
      <trkpt lat="44.22137" lon="6.21092">
        <ele>1235.91</ele>
        <time>2017-04-09T08:25:13Z</time>
      </trkpt>
      <trkpt lat="44.22133" lon="6.21099">
        <ele>1236.87</ele>
        <time>2017-04-09T08:25:35Z</time>
      </trkpt>
      <trkpt lat="44.22131" lon="6.21103">
        <ele>1236.87</ele>
        <time>2017-04-09T08:25:39Z</time>
      </trkpt>
      <trkpt lat="44.2213" lon="6.21105">
        <ele>1238.32</ele>
        <time>2017-04-09T08:25:56Z</time>
      </trkpt>
      <trkpt lat="44.22125" lon="6.21115">
        <ele>1239.76</ele>
        <time>2017-04-09T08:26:18Z</time>
      </trkpt>
      <trkpt lat="44.22121" lon="6.21124">
        <ele>1240.24</ele>
        <time>2017-04-09T08:26:25Z</time>
      </trkpt>
      <trkpt lat="44.22121" lon="6.21134">
        <ele>1242.64</ele>
        <time>2017-04-09T08:26:38Z</time>
      </trkpt>
      <trkpt lat="44.22134" lon="6.21124">
        <ele>1244.56</ele>
        <time>2017-04-09T08:26:55Z</time>
      </trkpt>
      <trkpt lat="44.22146" lon="6.21114">
        <ele>1246.49</ele>
        <time>2017-04-09T08:27:12Z</time>
      </trkpt>
      <trkpt lat="44.22159" lon="6.21108">
        <ele>1248.89</ele>
        <time>2017-04-09T08:27:30Z</time>
      </trkpt>
      <trkpt lat="44.22171" lon="6.21111">
        <ele>1252.25</ele>
        <time>2017-04-09T08:27:48Z</time>
      </trkpt>
      <trkpt lat="44.22182" lon="6.2111">
        <ele>1254.66</ele>
        <time>2017-04-09T08:28:05Z</time>
      </trkpt>
      <trkpt lat="44.22189" lon="6.21113">
        <ele>1258.02</ele>
        <time>2017-04-09T08:28:22Z</time>
      </trkpt>
      <trkpt lat="44.22182" lon="6.21126">
        <ele>1260.43</ele>
        <time>2017-04-09T08:28:40Z</time>
      </trkpt>
      <trkpt lat="44.22191" lon="6.21129">
        <ele>1262.83</ele>
        <time>2017-04-09T08:28:55Z</time>
      </trkpt>
      <trkpt lat="44.22198" lon="6.2113">
        <ele>1264.27</ele>
        <time>2017-04-09T08:29:15Z</time>
      </trkpt>
      <trkpt lat="44.22203" lon="6.21134">
        <ele>1267.16</ele>
        <time>2017-04-09T08:29:32Z</time>
      </trkpt>
      <trkpt lat="44.222" lon="6.21148">
        <ele>1270.04</ele>
        <time>2017-04-09T08:29:50Z</time>
      </trkpt>
      <trkpt lat="44.22207" lon="6.21151">
        <ele>1272.44</ele>
        <time>2017-04-09T08:30:08Z</time>
      </trkpt>
      <trkpt lat="44.22212" lon="6.21156">
        <ele>1275.33</ele>
        <time>2017-04-09T08:30:24Z</time>
      </trkpt>
      <trkpt lat="44.22216" lon="6.21167">
        <ele>1278.21</ele>
        <time>2017-04-09T08:30:42Z</time>
      </trkpt>
      <trkpt lat="44.22222" lon="6.2117">
        <ele>1281.09</ele>
        <time>2017-04-09T08:31:01Z</time>
      </trkpt>
      <trkpt lat="44.22225" lon="6.21173">
        <ele>1283.5</ele>
        <time>2017-04-09T08:31:17Z</time>
      </trkpt>
      <trkpt lat="44.22232" lon="6.21177">
        <ele>1285.9</ele>
        <time>2017-04-09T08:31:34Z</time>
      </trkpt>
      <trkpt lat="44.2224" lon="6.2118">
        <ele>1288.3</ele>
        <time>2017-04-09T08:31:51Z</time>
      </trkpt>
      <trkpt lat="44.2225" lon="6.21182">
        <ele>1288.78</ele>
        <time>2017-04-09T08:32:07Z</time>
      </trkpt>
      <trkpt lat="44.22253" lon="6.21185">
        <ele>1287.34</ele>
        <time>2017-04-09T08:32:16Z</time>
      </trkpt>
      <trkpt lat="44.2226" lon="6.21177">
        <ele>1288.78</ele>
        <time>2017-04-09T08:32:28Z</time>
      </trkpt>
      <trkpt lat="44.22262" lon="6.21175">
        <ele>1289.27</ele>
        <time>2017-04-09T08:32:32Z</time>
      </trkpt>
      <trkpt lat="44.22268" lon="6.21159">
        <ele>1291.19</ele>
        <time>2017-04-09T08:32:49Z</time>
      </trkpt>
      <trkpt lat="44.22279" lon="6.21154">
        <ele>1293.11</ele>
        <time>2017-04-09T08:33:06Z</time>
      </trkpt>
      <trkpt lat="44.22282" lon="6.21154">
        <ele>1293.59</ele>
        <time>2017-04-09T08:33:37Z</time>
      </trkpt>
      <trkpt lat="44.22277" lon="6.21156">
        <ele>1294.55</ele>
        <time>2017-04-09T08:34:04Z</time>
      </trkpt>
      <trkpt lat="44.22277" lon="6.21154">
        <ele>1294.55</ele>
        <time>2017-04-09T08:34:32Z</time>
      </trkpt>
      <trkpt lat="44.22283" lon="6.21152">
        <ele>1294.55</ele>
        <time>2017-04-09T08:34:40Z</time>
      </trkpt>
      <trkpt lat="44.22303" lon="6.21155">
        <ele>1293.11</ele>
        <time>2017-04-09T08:34:56Z</time>
      </trkpt>
      <trkpt lat="44.2232" lon="6.21149">
        <ele>1294.55</ele>
        <time>2017-04-09T08:35:13Z</time>
      </trkpt>
      <trkpt lat="44.22332" lon="6.21148">
        <ele>1296.48</ele>
        <time>2017-04-09T08:35:32Z</time>
      </trkpt>
      <trkpt lat="44.2235" lon="6.21149">
        <ele>1296.96</ele>
        <time>2017-04-09T08:35:49Z</time>
      </trkpt>
      <trkpt lat="44.22355" lon="6.21149">
        <ele>1296.96</ele>
        <time>2017-04-09T08:35:53Z</time>
      </trkpt>
      <trkpt lat="44.22358" lon="6.2115">
        <ele>1295.51</ele>
        <time>2017-04-09T08:35:55Z</time>
      </trkpt>
      <trkpt lat="44.22374" lon="6.2115">
        <ele>1295.51</ele>
        <time>2017-04-09T08:36:12Z</time>
      </trkpt>
      <trkpt lat="44.22381" lon="6.21164">
        <ele>1295.51</ele>
        <time>2017-04-09T08:36:24Z</time>
      </trkpt>
      <trkpt lat="44.22383" lon="6.21166">
        <ele>1295.51</ele>
        <time>2017-04-09T08:36:27Z</time>
      </trkpt>
      <trkpt lat="44.22398" lon="6.21169">
        <ele>1295.99</ele>
        <time>2017-04-09T08:36:42Z</time>
      </trkpt>
      <trkpt lat="44.22402" lon="6.2116">
        <ele>1295.99</ele>
        <time>2017-04-09T08:36:57Z</time>
      </trkpt>
      <trkpt lat="44.224" lon="6.21146">
        <ele>1297.44</ele>
        <time>2017-04-09T08:37:09Z</time>
      </trkpt>
      <trkpt lat="44.22401" lon="6.21146">
        <ele>1297.44</ele>
        <time>2017-04-09T08:37:10Z</time>
      </trkpt>
      <trkpt lat="44.22407" lon="6.21132">
        <ele>1299.36</ele>
        <time>2017-04-09T08:37:26Z</time>
      </trkpt>
      <trkpt lat="44.22418" lon="6.21129">
        <ele>1301.76</ele>
        <time>2017-04-09T08:37:43Z</time>
      </trkpt>
      <trkpt lat="44.22429" lon="6.21137">
        <ele>1304.65</ele>
        <time>2017-04-09T08:37:59Z</time>
      </trkpt>
      <trkpt lat="44.22443" lon="6.21143">
        <ele>1307.53</ele>
        <time>2017-04-09T08:38:19Z</time>
      </trkpt>
      <trkpt lat="44.22452" lon="6.21149">
        <ele>1308.97</ele>
        <time>2017-04-09T08:38:33Z</time>
      </trkpt>
      <trkpt lat="44.22473" lon="6.21162">
        <ele>1311.86</ele>
        <time>2017-04-09T08:38:55Z</time>
      </trkpt>
      <trkpt lat="44.22482" lon="6.21164">
        <ele>1312.34</ele>
        <time>2017-04-09T08:39:06Z</time>
      </trkpt>
      <trkpt lat="44.22485" lon="6.21167">
        <ele>1312.34</ele>
        <time>2017-04-09T08:39:10Z</time>
      </trkpt>
      <trkpt lat="44.22498" lon="6.2117">
        <ele>1313.3</ele>
        <time>2017-04-09T08:39:25Z</time>
      </trkpt>
      <trkpt lat="44.22511" lon="6.21161">
        <ele>1314.26</ele>
        <time>2017-04-09T08:39:41Z</time>
      </trkpt>
      <trkpt lat="44.22522" lon="6.21145">
        <ele>1316.18</ele>
        <time>2017-04-09T08:39:59Z</time>
      </trkpt>
      <trkpt lat="44.22533" lon="6.21136">
        <ele>1318.1</ele>
        <time>2017-04-09T08:40:16Z</time>
      </trkpt>
      <trkpt lat="44.22544" lon="6.21126">
        <ele>1318.1</ele>
        <time>2017-04-09T08:40:32Z</time>
      </trkpt>
      <trkpt lat="44.22548" lon="6.21114">
        <ele>1317.62</ele>
        <time>2017-04-09T08:40:45Z</time>
      </trkpt>
      <trkpt lat="44.22553" lon="6.21104">
        <ele>1320.03</ele>
        <time>2017-04-09T08:41:00Z</time>
      </trkpt>
      <trkpt lat="44.2256" lon="6.21096">
        <ele>1321.95</ele>
        <time>2017-04-09T08:41:16Z</time>
      </trkpt>
      <trkpt lat="44.22563" lon="6.21093">
        <ele>1322.91</ele>
        <time>2017-04-09T08:41:35Z</time>
      </trkpt>
      <trkpt lat="44.22569" lon="6.21087">
        <ele>1323.39</ele>
        <time>2017-04-09T08:41:50Z</time>
      </trkpt>
      <trkpt lat="44.22568" lon="6.21078">
        <ele>1323.39</ele>
        <time>2017-04-09T08:42:06Z</time>
      </trkpt>
      <trkpt lat="44.22572" lon="6.21075">
        <ele>1322.91</ele>
        <time>2017-04-09T08:42:17Z</time>
      </trkpt>
      <trkpt lat="44.22576" lon="6.2107">
        <ele>1323.87</ele>
        <time>2017-04-09T08:42:25Z</time>
      </trkpt>
      <trkpt lat="44.22586" lon="6.21065">
        <ele>1325.31</ele>
        <time>2017-04-09T08:42:39Z</time>
      </trkpt>
      <trkpt lat="44.226" lon="6.21059">
        <ele>1326.28</ele>
        <time>2017-04-09T08:42:55Z</time>
      </trkpt>
      <trkpt lat="44.22609" lon="6.21057">
        <ele>1326.28</ele>
        <time>2017-04-09T08:43:12Z</time>
      </trkpt>
      <trkpt lat="44.22613" lon="6.21055">
        <ele>1326.28</ele>
        <time>2017-04-09T08:43:22Z</time>
      </trkpt>
      <trkpt lat="44.22623" lon="6.21054">
        <ele>1327.72</ele>
        <time>2017-04-09T08:43:36Z</time>
      </trkpt>
      <trkpt lat="44.22633" lon="6.21052">
        <ele>1330.12</ele>
        <time>2017-04-09T08:43:54Z</time>
      </trkpt>
      <trkpt lat="44.22638" lon="6.21051">
        <ele>1330.6</ele>
        <time>2017-04-09T08:44:15Z</time>
      </trkpt>
      <trkpt lat="44.22648" lon="6.21052">
        <ele>1331.08</ele>
        <time>2017-04-09T08:44:30Z</time>
      </trkpt>
      <trkpt lat="44.22663" lon="6.21055">
        <ele>1332.52</ele>
        <time>2017-04-09T08:44:48Z</time>
      </trkpt>
      <trkpt lat="44.22674" lon="6.21055">
        <ele>1333.01</ele>
        <time>2017-04-09T08:45:05Z</time>
      </trkpt>
      <trkpt lat="44.22677" lon="6.2105">
        <ele>1331.56</ele>
        <time>2017-04-09T08:45:15Z</time>
      </trkpt>
      <trkpt lat="44.22679" lon="6.21044">
        <ele>1331.08</ele>
        <time>2017-04-09T08:45:30Z</time>
      </trkpt>
      <trkpt lat="44.22683" lon="6.21042">
        <ele>1331.08</ele>
        <time>2017-04-09T08:45:47Z</time>
      </trkpt>
      <trkpt lat="44.22685" lon="6.2104">
        <ele>1331.56</ele>
        <time>2017-04-09T08:46:04Z</time>
      </trkpt>
      <trkpt lat="44.22687" lon="6.21035">
        <ele>1332.52</ele>
        <time>2017-04-09T08:46:10Z</time>
      </trkpt>
      <trkpt lat="44.2269" lon="6.21028">
        <ele>1335.41</ele>
        <time>2017-04-09T08:46:27Z</time>
      </trkpt>
      <trkpt lat="44.22697" lon="6.21024">
        <ele>1337.81</ele>
        <time>2017-04-09T08:46:40Z</time>
      </trkpt>
      <trkpt lat="44.22704" lon="6.21014">
        <ele>1339.73</ele>
        <time>2017-04-09T08:46:56Z</time>
      </trkpt>
      <trkpt lat="44.22708" lon="6.21024">
        <ele>1340.22</ele>
        <time>2017-04-09T08:47:23Z</time>
      </trkpt>
      <trkpt lat="44.22712" lon="6.21008">
        <ele>1342.62</ele>
        <time>2017-04-09T08:47:37Z</time>
      </trkpt>
      <trkpt lat="44.22715" lon="6.21001">
        <ele>1344.06</ele>
        <time>2017-04-09T08:47:52Z</time>
      </trkpt>
      <trkpt lat="44.22731" lon="6.20996">
        <ele>1344.06</ele>
        <time>2017-04-09T08:48:08Z</time>
      </trkpt>
      <trkpt lat="44.22749" lon="6.20984">
        <ele>1345.02</ele>
        <time>2017-04-09T08:48:25Z</time>
      </trkpt>
      <trkpt lat="44.22767" lon="6.20971">
        <ele>1346.46</ele>
        <time>2017-04-09T08:48:42Z</time>
      </trkpt>
      <trkpt lat="44.22781" lon="6.20961">
        <ele>1347.91</ele>
        <time>2017-04-09T08:48:56Z</time>
      </trkpt>
      <trkpt lat="44.228" lon="6.20948">
        <ele>1348.39</ele>
        <time>2017-04-09T08:49:14Z</time>
      </trkpt>
      <trkpt lat="44.22801" lon="6.20943">
        <ele>1348.87</ele>
        <time>2017-04-09T08:49:29Z</time>
      </trkpt>
      <trkpt lat="44.22804" lon="6.20939">
        <ele>1349.35</ele>
        <time>2017-04-09T08:49:48Z</time>
      </trkpt>
      <trkpt lat="44.22817" lon="6.20945">
        <ele>1349.35</ele>
        <time>2017-04-09T08:50:10Z</time>
      </trkpt>
      <trkpt lat="44.22829" lon="6.20954">
        <ele>1350.31</ele>
        <time>2017-04-09T08:50:28Z</time>
      </trkpt>
      <trkpt lat="44.22836" lon="6.20956">
        <ele>1351.27</ele>
        <time>2017-04-09T08:50:36Z</time>
      </trkpt>
      <trkpt lat="44.22849" lon="6.20955">
        <ele>1352.23</ele>
        <time>2017-04-09T08:50:50Z</time>
      </trkpt>
      <trkpt lat="44.22861" lon="6.20957">
        <ele>1354.15</ele>
        <time>2017-04-09T08:51:04Z</time>
      </trkpt>
      <trkpt lat="44.22874" lon="6.20959">
        <ele>1356.08</ele>
        <time>2017-04-09T08:51:19Z</time>
      </trkpt>
      <trkpt lat="44.22887" lon="6.20952">
        <ele>1358</ele>
        <time>2017-04-09T08:51:32Z</time>
      </trkpt>
      <trkpt lat="44.22902" lon="6.20952">
        <ele>1360.88</ele>
        <time>2017-04-09T08:51:50Z</time>
      </trkpt>
      <trkpt lat="44.22912" lon="6.20953">
        <ele>1363.29</ele>
        <time>2017-04-09T08:52:05Z</time>
      </trkpt>
      <trkpt lat="44.22926" lon="6.20952">
        <ele>1364.73</ele>
        <time>2017-04-09T08:52:21Z</time>
      </trkpt>
      <trkpt lat="44.22938" lon="6.20942">
        <ele>1366.17</ele>
        <time>2017-04-09T08:52:36Z</time>
      </trkpt>
      <trkpt lat="44.22948" lon="6.20929">
        <ele>1368.57</ele>
        <time>2017-04-09T08:52:52Z</time>
      </trkpt>
      <trkpt lat="44.22956" lon="6.20924">
        <ele>1370.5</ele>
        <time>2017-04-09T08:53:08Z</time>
      </trkpt>
      <trkpt lat="44.2296" lon="6.20915">
        <ele>1372.42</ele>
        <time>2017-04-09T08:53:23Z</time>
      </trkpt>
      <trkpt lat="44.2296" lon="6.20916">
        <ele>1373.38</ele>
        <time>2017-04-09T08:53:48Z</time>
      </trkpt>
      <trkpt lat="44.22966" lon="6.2091">
        <ele>1373.38</ele>
        <time>2017-04-09T08:54:15Z</time>
      </trkpt>
      <trkpt lat="44.22967" lon="6.2091">
        <ele>1374.34</ele>
        <time>2017-04-09T08:54:47Z</time>
      </trkpt>
      <trkpt lat="44.22976" lon="6.20908">
        <ele>1375.78</ele>
        <time>2017-04-09T08:55:00Z</time>
      </trkpt>
      <trkpt lat="44.22981" lon="6.20905">
        <ele>1377.23</ele>
        <time>2017-04-09T08:55:14Z</time>
      </trkpt>
      <trkpt lat="44.22995" lon="6.20892">
        <ele>1379.15</ele>
        <time>2017-04-09T08:55:32Z</time>
      </trkpt>
      <trkpt lat="44.23009" lon="6.20885">
        <ele>1380.59</ele>
        <time>2017-04-09T08:55:49Z</time>
      </trkpt>
      <trkpt lat="44.23022" lon="6.20877">
        <ele>1382.51</ele>
        <time>2017-04-09T08:56:04Z</time>
      </trkpt>
      <trkpt lat="44.23033" lon="6.20866">
        <ele>1384.44</ele>
        <time>2017-04-09T08:56:21Z</time>
      </trkpt>
      <trkpt lat="44.23051" lon="6.20856">
        <ele>1386.84</ele>
        <time>2017-04-09T08:56:39Z</time>
      </trkpt>
      <trkpt lat="44.23052" lon="6.20853">
        <ele>1387.8</ele>
        <time>2017-04-09T08:57:04Z</time>
      </trkpt>
      <trkpt lat="44.2306" lon="6.20838">
        <ele>1390.2</ele>
        <time>2017-04-09T08:57:19Z</time>
      </trkpt>
      <trkpt lat="44.23069" lon="6.20831">
        <ele>1392.13</ele>
        <time>2017-04-09T08:57:34Z</time>
      </trkpt>
      <trkpt lat="44.23072" lon="6.2084">
        <ele>1393.09</ele>
        <time>2017-04-09T08:57:49Z</time>
      </trkpt>
      <trkpt lat="44.2308" lon="6.20856">
        <ele>1395.97</ele>
        <time>2017-04-09T08:58:05Z</time>
      </trkpt>
      <trkpt lat="44.23091" lon="6.20857">
        <ele>1398.86</ele>
        <time>2017-04-09T08:58:24Z</time>
      </trkpt>
      <trkpt lat="44.23096" lon="6.20849">
        <ele>1401.26</ele>
        <time>2017-04-09T08:58:42Z</time>
      </trkpt>
      <trkpt lat="44.23099" lon="6.20843">
        <ele>1404.14</ele>
        <time>2017-04-09T08:58:54Z</time>
      </trkpt>
      <trkpt lat="44.23107" lon="6.20841">
        <ele>1406.07</ele>
        <time>2017-04-09T08:59:13Z</time>
      </trkpt>
      <trkpt lat="44.23112" lon="6.20837">
        <ele>1409.43</ele>
        <time>2017-04-09T08:59:28Z</time>
      </trkpt>
      <trkpt lat="44.2311" lon="6.2084">
        <ele>1409.43</ele>
        <time>2017-04-09T08:59:44Z</time>
      </trkpt>
      <trkpt lat="44.23116" lon="6.20831">
        <ele>1410.87</ele>
        <time>2017-04-09T08:59:58Z</time>
      </trkpt>
      <trkpt lat="44.23119" lon="6.20819">
        <ele>1413.76</ele>
        <time>2017-04-09T09:00:11Z</time>
      </trkpt>
      <trkpt lat="44.23116" lon="6.20803">
        <ele>1416.16</ele>
        <time>2017-04-09T09:00:27Z</time>
      </trkpt>
      <trkpt lat="44.23117" lon="6.20784">
        <ele>1419.04</ele>
        <time>2017-04-09T09:00:46Z</time>
      </trkpt>
      <trkpt lat="44.23115" lon="6.20773">
        <ele>1421.45</ele>
        <time>2017-04-09T09:01:01Z</time>
      </trkpt>
      <trkpt lat="44.23119" lon="6.20757">
        <ele>1424.33</ele>
        <time>2017-04-09T09:01:20Z</time>
      </trkpt>
      <trkpt lat="44.23123" lon="6.20745">
        <ele>1427.21</ele>
        <time>2017-04-09T09:01:37Z</time>
      </trkpt>
      <trkpt lat="44.23129" lon="6.20738">
        <ele>1429.14</ele>
        <time>2017-04-09T09:01:54Z</time>
      </trkpt>
      <trkpt lat="44.23136" lon="6.20727">
        <ele>1431.54</ele>
        <time>2017-04-09T09:02:11Z</time>
      </trkpt>
      <trkpt lat="44.2314" lon="6.2072">
        <ele>1432.5</ele>
        <time>2017-04-09T09:02:25Z</time>
      </trkpt>
      <trkpt lat="44.23142" lon="6.20712">
        <ele>1433.46</ele>
        <time>2017-04-09T09:02:38Z</time>
      </trkpt>
      <trkpt lat="44.23151" lon="6.207">
        <ele>1433.94</ele>
        <time>2017-04-09T09:02:57Z</time>
      </trkpt>
      <trkpt lat="44.23155" lon="6.20678">
        <ele>1434.91</ele>
        <time>2017-04-09T09:03:13Z</time>
      </trkpt>
      <trkpt lat="44.23159" lon="6.20651">
        <ele>1435.87</ele>
        <time>2017-04-09T09:03:29Z</time>
      </trkpt>
      <trkpt lat="44.23167" lon="6.20631">
        <ele>1437.79</ele>
        <time>2017-04-09T09:03:44Z</time>
      </trkpt>
      <trkpt lat="44.23172" lon="6.20612">
        <ele>1439.71</ele>
        <time>2017-04-09T09:04:00Z</time>
      </trkpt>
      <trkpt lat="44.2318" lon="6.20599">
        <ele>1441.15</ele>
        <time>2017-04-09T09:04:14Z</time>
      </trkpt>
      <trkpt lat="44.23183" lon="6.20594">
        <ele>1442.11</ele>
        <time>2017-04-09T09:04:19Z</time>
      </trkpt>
      <trkpt lat="44.2319" lon="6.20576">
        <ele>1444.52</ele>
        <time>2017-04-09T09:04:35Z</time>
      </trkpt>
      <trkpt lat="44.23203" lon="6.20558">
        <ele>1446.44</ele>
        <time>2017-04-09T09:04:52Z</time>
      </trkpt>
      <trkpt lat="44.23212" lon="6.20546">
        <ele>1447.4</ele>
        <time>2017-04-09T09:05:06Z</time>
      </trkpt>
      <trkpt lat="44.23213" lon="6.20536">
        <ele>1448.36</ele>
        <time>2017-04-09T09:05:22Z</time>
      </trkpt>
      <trkpt lat="44.23212" lon="6.20539">
        <ele>1448.36</ele>
        <time>2017-04-09T09:06:00Z</time>
      </trkpt>
      <trkpt lat="44.23213" lon="6.2054">
        <ele>1448.36</ele>
        <time>2017-04-09T09:06:29Z</time>
      </trkpt>
      <trkpt lat="44.23213" lon="6.20537">
        <ele>1448.36</ele>
        <time>2017-04-09T09:06:50Z</time>
      </trkpt>
      <trkpt lat="44.23223" lon="6.20547">
        <ele>1448.36</ele>
        <time>2017-04-09T09:07:07Z</time>
      </trkpt>
      <trkpt lat="44.23224" lon="6.20549">
        <ele>1448.36</ele>
        <time>2017-04-09T09:07:08Z</time>
      </trkpt>
      <trkpt lat="44.23233" lon="6.20561">
        <ele>1450.29</ele>
        <time>2017-04-09T09:07:23Z</time>
      </trkpt>
      <trkpt lat="44.23242" lon="6.2057">
        <ele>1451.73</ele>
        <time>2017-04-09T09:07:36Z</time>
      </trkpt>
      <trkpt lat="44.23258" lon="6.20575">
        <ele>1453.65</ele>
        <time>2017-04-09T09:07:53Z</time>
      </trkpt>
      <trkpt lat="44.23271" lon="6.20587">
        <ele>1455.57</ele>
        <time>2017-04-09T09:08:10Z</time>
      </trkpt>
      <trkpt lat="44.23286" lon="6.20596">
        <ele>1456.53</ele>
        <time>2017-04-09T09:08:27Z</time>
      </trkpt>
      <trkpt lat="44.23291" lon="6.20597">
        <ele>1457.02</ele>
        <time>2017-04-09T09:08:44Z</time>
      </trkpt>
      <trkpt lat="44.23303" lon="6.20604">
        <ele>1458.94</ele>
        <time>2017-04-09T09:08:58Z</time>
      </trkpt>
      <trkpt lat="44.23318" lon="6.20608">
        <ele>1460.86</ele>
        <time>2017-04-09T09:09:15Z</time>
      </trkpt>
      <trkpt lat="44.23333" lon="6.20617">
        <ele>1462.3</ele>
        <time>2017-04-09T09:09:32Z</time>
      </trkpt>
      <trkpt lat="44.23337" lon="6.20621">
        <ele>1462.78</ele>
        <time>2017-04-09T09:09:38Z</time>
      </trkpt>
      <trkpt lat="44.23346" lon="6.20635">
        <ele>1464.23</ele>
        <time>2017-04-09T09:09:53Z</time>
      </trkpt>
      <trkpt lat="44.2336" lon="6.2065">
        <ele>1465.67</ele>
        <time>2017-04-09T09:10:10Z</time>
      </trkpt>
      <trkpt lat="44.23369" lon="6.20658">
        <ele>1466.63</ele>
        <time>2017-04-09T09:10:23Z</time>
      </trkpt>
      <trkpt lat="44.23381" lon="6.2067">
        <ele>1467.11</ele>
        <time>2017-04-09T09:10:39Z</time>
      </trkpt>
      <trkpt lat="44.2339" lon="6.20681">
        <ele>1468.55</ele>
        <time>2017-04-09T09:10:53Z</time>
      </trkpt>
      <trkpt lat="44.23398" lon="6.2069">
        <ele>1470.47</ele>
        <time>2017-04-09T09:11:08Z</time>
      </trkpt>
      <trkpt lat="44.23405" lon="6.207">
        <ele>1472.4</ele>
        <time>2017-04-09T09:11:22Z</time>
      </trkpt>
      <trkpt lat="44.23414" lon="6.2071">
        <ele>1474.32</ele>
        <time>2017-04-09T09:11:39Z</time>
      </trkpt>
      <trkpt lat="44.23423" lon="6.20715">
        <ele>1477.2</ele>
        <time>2017-04-09T09:11:55Z</time>
      </trkpt>
      <trkpt lat="44.23432" lon="6.20725">
        <ele>1479.61</ele>
        <time>2017-04-09T09:12:13Z</time>
      </trkpt>
      <trkpt lat="44.23434" lon="6.20729">
        <ele>1480.57</ele>
        <time>2017-04-09T09:12:28Z</time>
      </trkpt>
      <trkpt lat="44.2344" lon="6.20731">
        <ele>1482.49</ele>
        <time>2017-04-09T09:12:45Z</time>
      </trkpt>
      <trkpt lat="44.2345" lon="6.20736">
        <ele>1484.41</ele>
        <time>2017-04-09T09:13:01Z</time>
      </trkpt>
      <trkpt lat="44.23461" lon="6.20743">
        <ele>1487.78</ele>
        <time>2017-04-09T09:13:20Z</time>
      </trkpt>
      <trkpt lat="44.23465" lon="6.20748">
        <ele>1489.7</ele>
        <time>2017-04-09T09:13:36Z</time>
      </trkpt>
      <trkpt lat="44.23471" lon="6.2075">
        <ele>1492.58</ele>
        <time>2017-04-09T09:13:53Z</time>
      </trkpt>
      <trkpt lat="44.23478" lon="6.20757">
        <ele>1494.99</ele>
        <time>2017-04-09T09:14:09Z</time>
      </trkpt>
      <trkpt lat="44.23491" lon="6.20756">
        <ele>1496.91</ele>
        <time>2017-04-09T09:14:28Z</time>
      </trkpt>
      <trkpt lat="44.23502" lon="6.20755">
        <ele>1499.31</ele>
        <time>2017-04-09T09:14:44Z</time>
      </trkpt>
      <trkpt lat="44.23506" lon="6.20754">
        <ele>1500.27</ele>
        <time>2017-04-09T09:15:04Z</time>
      </trkpt>
      <trkpt lat="44.23517" lon="6.2076">
        <ele>1503.16</ele>
        <time>2017-04-09T09:15:21Z</time>
      </trkpt>
      <trkpt lat="44.23528" lon="6.20761">
        <ele>1506.52</ele>
        <time>2017-04-09T09:15:37Z</time>
      </trkpt>
      <trkpt lat="44.23538" lon="6.20764">
        <ele>1507.97</ele>
        <time>2017-04-09T09:15:58Z</time>
      </trkpt>
      <trkpt lat="44.23545" lon="6.20763">
        <ele>1509.89</ele>
        <time>2017-04-09T09:16:13Z</time>
      </trkpt>
      <trkpt lat="44.23555" lon="6.20773">
        <ele>1512.29</ele>
        <time>2017-04-09T09:16:27Z</time>
      </trkpt>
      <trkpt lat="44.23563" lon="6.20786">
        <ele>1515.18</ele>
        <time>2017-04-09T09:16:43Z</time>
      </trkpt>
      <trkpt lat="44.23572" lon="6.20798">
        <ele>1517.1</ele>
        <time>2017-04-09T09:17:00Z</time>
      </trkpt>
      <trkpt lat="44.23585" lon="6.20807">
        <ele>1519.98</ele>
        <time>2017-04-09T09:17:18Z</time>
      </trkpt>
      <trkpt lat="44.23586" lon="6.20817">
        <ele>1519.98</ele>
        <time>2017-04-09T09:17:25Z</time>
      </trkpt>
      <trkpt lat="44.23587" lon="6.20821">
        <ele>1519.98</ele>
        <time>2017-04-09T09:17:27Z</time>
      </trkpt>
      <trkpt lat="44.23589" lon="6.20832">
        <ele>1519.98</ele>
        <time>2017-04-09T09:17:34Z</time>
      </trkpt>
      <trkpt lat="44.23597" lon="6.20839">
        <ele>1520.46</ele>
        <time>2017-04-09T09:17:52Z</time>
      </trkpt>
      <trkpt lat="44.23598" lon="6.20838">
        <ele>1520.46</ele>
        <time>2017-04-09T09:18:12Z</time>
      </trkpt>
      <trkpt lat="44.23602" lon="6.20849">
        <ele>1520.46</ele>
        <time>2017-04-09T09:18:23Z</time>
      </trkpt>
      <trkpt lat="44.23607" lon="6.20864">
        <ele>1520.94</ele>
        <time>2017-04-09T09:18:35Z</time>
      </trkpt>
      <trkpt lat="44.23606" lon="6.20869">
        <ele>1521.9</ele>
        <time>2017-04-09T09:18:56Z</time>
      </trkpt>
      <trkpt lat="44.23603" lon="6.2089">
        <ele>1523.83</ele>
        <time>2017-04-09T09:19:13Z</time>
      </trkpt>
      <trkpt lat="44.23598" lon="6.20899">
        <ele>1526.71</ele>
        <time>2017-04-09T09:19:28Z</time>
      </trkpt>
      <trkpt lat="44.23586" lon="6.20896">
        <ele>1529.11</ele>
        <time>2017-04-09T09:19:44Z</time>
      </trkpt>
      <trkpt lat="44.23576" lon="6.20892">
        <ele>1531.52</ele>
        <time>2017-04-09T09:20:03Z</time>
      </trkpt>
      <trkpt lat="44.23567" lon="6.20889">
        <ele>1534.4</ele>
        <time>2017-04-09T09:20:21Z</time>
      </trkpt>
      <trkpt lat="44.23559" lon="6.20897">
        <ele>1537.29</ele>
        <time>2017-04-09T09:20:39Z</time>
      </trkpt>
      <trkpt lat="44.23559" lon="6.20915">
        <ele>1539.21</ele>
        <time>2017-04-09T09:20:55Z</time>
      </trkpt>
      <trkpt lat="44.23558" lon="6.20933">
        <ele>1540.65</ele>
        <time>2017-04-09T09:21:12Z</time>
      </trkpt>
      <trkpt lat="44.23553" lon="6.20954">
        <ele>1541.61</ele>
        <time>2017-04-09T09:21:29Z</time>
      </trkpt>
      <trkpt lat="44.23549" lon="6.20974">
        <ele>1543.05</ele>
        <time>2017-04-09T09:21:44Z</time>
      </trkpt>
      <trkpt lat="44.23539" lon="6.20993">
        <ele>1544.5</ele>
        <time>2017-04-09T09:22:03Z</time>
      </trkpt>
      <trkpt lat="44.23534" lon="6.21003">
        <ele>1547.38</ele>
        <time>2017-04-09T09:22:17Z</time>
      </trkpt>
      <trkpt lat="44.23525" lon="6.21019">
        <ele>1549.3</ele>
        <time>2017-04-09T09:22:36Z</time>
      </trkpt>
      <trkpt lat="44.23522" lon="6.21027">
        <ele>1550.26</ele>
        <time>2017-04-09T09:22:51Z</time>
      </trkpt>
      <trkpt lat="44.23518" lon="6.21031">
        <ele>1548.34</ele>
        <time>2017-04-09T09:22:57Z</time>
      </trkpt>
      <trkpt lat="44.23505" lon="6.21051">
        <ele>1548.82</ele>
        <time>2017-04-09T09:23:16Z</time>
      </trkpt>
      <trkpt lat="44.23505" lon="6.21059">
        <ele>1549.78</ele>
        <time>2017-04-09T09:23:23Z</time>
      </trkpt>
      <trkpt lat="44.23504" lon="6.21065">
        <ele>1549.78</ele>
        <time>2017-04-09T09:23:27Z</time>
      </trkpt>
      <trkpt lat="44.23509" lon="6.21083">
        <ele>1551.71</ele>
        <time>2017-04-09T09:23:44Z</time>
      </trkpt>
      <trkpt lat="44.23517" lon="6.21099">
        <ele>1554.11</ele>
        <time>2017-04-09T09:24:01Z</time>
      </trkpt>
      <trkpt lat="44.23522" lon="6.21117">
        <ele>1556.03</ele>
        <time>2017-04-09T09:24:17Z</time>
      </trkpt>
      <trkpt lat="44.23526" lon="6.21121">
        <ele>1556.99</ele>
        <time>2017-04-09T09:24:33Z</time>
      </trkpt>
      <trkpt lat="44.23523" lon="6.21134">
        <ele>1558.43</ele>
        <time>2017-04-09T09:24:50Z</time>
      </trkpt>
      <trkpt lat="44.23522" lon="6.21153">
        <ele>1560.84</ele>
        <time>2017-04-09T09:25:06Z</time>
      </trkpt>
      <trkpt lat="44.23525" lon="6.21174">
        <ele>1561.8</ele>
        <time>2017-04-09T09:25:21Z</time>
      </trkpt>
      <trkpt lat="44.23528" lon="6.21192">
        <ele>1563.24</ele>
        <time>2017-04-09T09:25:35Z</time>
      </trkpt>
      <trkpt lat="44.23528" lon="6.21212">
        <ele>1563.72</ele>
        <time>2017-04-09T09:25:49Z</time>
      </trkpt>
      <trkpt lat="44.23529" lon="6.21236">
        <ele>1564.68</ele>
        <time>2017-04-09T09:26:04Z</time>
      </trkpt>
      <trkpt lat="44.2353" lon="6.21252">
        <ele>1562.28</ele>
        <time>2017-04-09T09:26:20Z</time>
      </trkpt>
      <trkpt lat="44.2352" lon="6.21271">
        <ele>1560.36</ele>
        <time>2017-04-09T09:26:39Z</time>
      </trkpt>
      <trkpt lat="44.23513" lon="6.21289">
        <ele>1558.92</ele>
        <time>2017-04-09T09:26:54Z</time>
      </trkpt>
      <trkpt lat="44.23507" lon="6.21314">
        <ele>1557.95</ele>
        <time>2017-04-09T09:27:12Z</time>
      </trkpt>
      <trkpt lat="44.235" lon="6.21332">
        <ele>1559.88</ele>
        <time>2017-04-09T09:27:28Z</time>
      </trkpt>
      <trkpt lat="44.23498" lon="6.2134">
        <ele>1559.88</ele>
        <time>2017-04-09T09:27:42Z</time>
      </trkpt>
      <trkpt lat="44.23494" lon="6.21352">
        <ele>1560.84</ele>
        <time>2017-04-09T09:27:58Z</time>
      </trkpt>
      <trkpt lat="44.23487" lon="6.21369">
        <ele>1563.24</ele>
        <time>2017-04-09T09:28:15Z</time>
      </trkpt>
      <trkpt lat="44.23486" lon="6.21381">
        <ele>1565.16</ele>
        <time>2017-04-09T09:28:35Z</time>
      </trkpt>
      <trkpt lat="44.23487" lon="6.21394">
        <ele>1568.05</ele>
        <time>2017-04-09T09:28:49Z</time>
      </trkpt>
      <trkpt lat="44.2349" lon="6.21408">
        <ele>1570.45</ele>
        <time>2017-04-09T09:29:07Z</time>
      </trkpt>
      <trkpt lat="44.23492" lon="6.21413">
        <ele>1571.89</ele>
        <time>2017-04-09T09:29:25Z</time>
      </trkpt>
      <trkpt lat="44.23498" lon="6.2142">
        <ele>1573.82</ele>
        <time>2017-04-09T09:29:37Z</time>
      </trkpt>
      <trkpt lat="44.23499" lon="6.21436">
        <ele>1575.74</ele>
        <time>2017-04-09T09:29:55Z</time>
      </trkpt>
      <trkpt lat="44.23503" lon="6.21451">
        <ele>1576.7</ele>
        <time>2017-04-09T09:30:08Z</time>
      </trkpt>
      <trkpt lat="44.23509" lon="6.21464">
        <ele>1577.66</ele>
        <time>2017-04-09T09:30:24Z</time>
      </trkpt>
      <trkpt lat="44.23513" lon="6.2148">
        <ele>1577.18</ele>
        <time>2017-04-09T09:30:39Z</time>
      </trkpt>
      <trkpt lat="44.23515" lon="6.21492">
        <ele>1577.18</ele>
        <time>2017-04-09T09:30:48Z</time>
      </trkpt>
      <trkpt lat="44.23527" lon="6.21505">
        <ele>1576.22</ele>
        <time>2017-04-09T09:31:06Z</time>
      </trkpt>
      <trkpt lat="44.23518" lon="6.21518">
        <ele>1579.1</ele>
        <time>2017-04-09T09:31:24Z</time>
      </trkpt>
      <trkpt lat="44.23518" lon="6.21538">
        <ele>1581.51</ele>
        <time>2017-04-09T09:31:41Z</time>
      </trkpt>
      <trkpt lat="44.23521" lon="6.21553">
        <ele>1583.91</ele>
        <time>2017-04-09T09:31:56Z</time>
      </trkpt>
      <trkpt lat="44.23528" lon="6.21564">
        <ele>1587.27</ele>
        <time>2017-04-09T09:32:15Z</time>
      </trkpt>
      <trkpt lat="44.23539" lon="6.2158">
        <ele>1589.2</ele>
        <time>2017-04-09T09:32:32Z</time>
      </trkpt>
      <trkpt lat="44.23541" lon="6.21591">
        <ele>1591.12</ele>
        <time>2017-04-09T09:32:49Z</time>
      </trkpt>
      <trkpt lat="44.23537" lon="6.21598">
        <ele>1591.6</ele>
        <time>2017-04-09T09:33:09Z</time>
      </trkpt>
      <trkpt lat="44.23537" lon="6.21603">
        <ele>1592.08</ele>
        <time>2017-04-09T09:33:35Z</time>
      </trkpt>
      <trkpt lat="44.23539" lon="6.21618">
        <ele>1592.56</ele>
        <time>2017-04-09T09:33:51Z</time>
      </trkpt>
      <trkpt lat="44.23542" lon="6.21636">
        <ele>1595.93</ele>
        <time>2017-04-09T09:34:08Z</time>
      </trkpt>
      <trkpt lat="44.23546" lon="6.21654">
        <ele>1598.81</ele>
        <time>2017-04-09T09:34:28Z</time>
      </trkpt>
      <trkpt lat="44.23549" lon="6.21669">
        <ele>1600.73</ele>
        <time>2017-04-09T09:34:45Z</time>
      </trkpt>
      <trkpt lat="44.23552" lon="6.2168">
        <ele>1602.66</ele>
        <time>2017-04-09T09:35:04Z</time>
      </trkpt>
      <trkpt lat="44.23555" lon="6.21697">
        <ele>1604.58</ele>
        <time>2017-04-09T09:35:23Z</time>
      </trkpt>
      <trkpt lat="44.23559" lon="6.21715">
        <ele>1607.94</ele>
        <time>2017-04-09T09:35:42Z</time>
      </trkpt>
      <trkpt lat="44.23564" lon="6.2173">
        <ele>1610.83</ele>
        <time>2017-04-09T09:36:01Z</time>
      </trkpt>
      <trkpt lat="44.23563" lon="6.21739">
        <ele>1611.79</ele>
        <time>2017-04-09T09:36:21Z</time>
      </trkpt>
      <trkpt lat="44.23571" lon="6.21754">
        <ele>1613.71</ele>
        <time>2017-04-09T09:36:40Z</time>
      </trkpt>
      <trkpt lat="44.23575" lon="6.21768">
        <ele>1617.07</ele>
        <time>2017-04-09T09:36:58Z</time>
      </trkpt>
      <trkpt lat="44.23581" lon="6.21775">
        <ele>1619</ele>
        <time>2017-04-09T09:37:12Z</time>
      </trkpt>
      <trkpt lat="44.23579" lon="6.21789">
        <ele>1620.44</ele>
        <time>2017-04-09T09:37:28Z</time>
      </trkpt>
      <trkpt lat="44.23579" lon="6.21804">
        <ele>1621.88</ele>
        <time>2017-04-09T09:37:50Z</time>
      </trkpt>
      <trkpt lat="44.23582" lon="6.21819">
        <ele>1625.25</ele>
        <time>2017-04-09T09:38:07Z</time>
      </trkpt>
      <trkpt lat="44.2358" lon="6.21834">
        <ele>1627.65</ele>
        <time>2017-04-09T09:38:24Z</time>
      </trkpt>
      <trkpt lat="44.23578" lon="6.21852">
        <ele>1629.09</ele>
        <time>2017-04-09T09:38:40Z</time>
      </trkpt>
      <trkpt lat="44.23579" lon="6.21854">
        <ele>1629.57</ele>
        <time>2017-04-09T09:39:05Z</time>
      </trkpt>
      <trkpt lat="44.23583" lon="6.21866">
        <ele>1631.49</ele>
        <time>2017-04-09T09:39:23Z</time>
      </trkpt>
      <trkpt lat="44.23585" lon="6.21873">
        <ele>1632.46</ele>
        <time>2017-04-09T09:39:30Z</time>
      </trkpt>
      <trkpt lat="44.23593" lon="6.21896">
        <ele>1632.46</ele>
        <time>2017-04-09T09:39:48Z</time>
      </trkpt>
      <trkpt lat="44.23607" lon="6.21917">
        <ele>1634.86</ele>
        <time>2017-04-09T09:40:08Z</time>
      </trkpt>
      <trkpt lat="44.23606" lon="6.2193">
        <ele>1635.82</ele>
        <time>2017-04-09T09:40:20Z</time>
      </trkpt>
      <trkpt lat="44.23597" lon="6.21943">
        <ele>1637.74</ele>
        <time>2017-04-09T09:40:39Z</time>
      </trkpt>
      <trkpt lat="44.23593" lon="6.21959">
        <ele>1638.7</ele>
        <time>2017-04-09T09:40:58Z</time>
      </trkpt>
      <trkpt lat="44.23593" lon="6.21964">
        <ele>1638.7</ele>
        <time>2017-04-09T09:41:02Z</time>
      </trkpt>
      <trkpt lat="44.23589" lon="6.21993">
        <ele>1639.67</ele>
        <time>2017-04-09T09:41:21Z</time>
      </trkpt>
      <trkpt lat="44.23594" lon="6.22023">
        <ele>1640.63</ele>
        <time>2017-04-09T09:41:41Z</time>
      </trkpt>
      <trkpt lat="44.23602" lon="6.22049">
        <ele>1642.55</ele>
        <time>2017-04-09T09:42:00Z</time>
      </trkpt>
      <trkpt lat="44.2361" lon="6.22071">
        <ele>1643.03</ele>
        <time>2017-04-09T09:42:17Z</time>
      </trkpt>
      <trkpt lat="44.2361" lon="6.22072">
        <ele>1643.03</ele>
        <time>2017-04-09T09:42:41Z</time>
      </trkpt>
      <trkpt lat="44.23611" lon="6.22076">
        <ele>1643.51</ele>
        <time>2017-04-09T09:43:05Z</time>
      </trkpt>
      <trkpt lat="44.23621" lon="6.22089">
        <ele>1645.43</ele>
        <time>2017-04-09T09:43:20Z</time>
      </trkpt>
      <trkpt lat="44.23631" lon="6.22106">
        <ele>1648.32</ele>
        <time>2017-04-09T09:43:38Z</time>
      </trkpt>
      <trkpt lat="44.2364" lon="6.22125">
        <ele>1649.76</ele>
        <time>2017-04-09T09:43:55Z</time>
      </trkpt>
      <trkpt lat="44.23647" lon="6.22148">
        <ele>1650.24</ele>
        <time>2017-04-09T09:44:11Z</time>
      </trkpt>
      <trkpt lat="44.23655" lon="6.22175">
        <ele>1652.16</ele>
        <time>2017-04-09T09:44:31Z</time>
      </trkpt>
      <trkpt lat="44.23661" lon="6.22198">
        <ele>1654.57</ele>
        <time>2017-04-09T09:44:49Z</time>
      </trkpt>
      <trkpt lat="44.23667" lon="6.22216">
        <ele>1656.97</ele>
        <time>2017-04-09T09:45:06Z</time>
      </trkpt>
      <trkpt lat="44.23674" lon="6.22235">
        <ele>1658.89</ele>
        <time>2017-04-09T09:45:25Z</time>
      </trkpt>
      <trkpt lat="44.23681" lon="6.22255">
        <ele>1660.33</ele>
        <time>2017-04-09T09:45:42Z</time>
      </trkpt>
      <trkpt lat="44.23683" lon="6.22263">
        <ele>1660.81</ele>
        <time>2017-04-09T09:45:55Z</time>
      </trkpt>
      <trkpt lat="44.23689" lon="6.22274">
        <ele>1661.78</ele>
        <time>2017-04-09T09:46:14Z</time>
      </trkpt>
      <trkpt lat="44.23692" lon="6.2228">
        <ele>1662.74</ele>
        <time>2017-04-09T09:46:33Z</time>
      </trkpt>
      <trkpt lat="44.23692" lon="6.22286">
        <ele>1663.22</ele>
        <time>2017-04-09T09:47:03Z</time>
      </trkpt>
      <trkpt lat="44.23701" lon="6.22304">
        <ele>1665.14</ele>
        <time>2017-04-09T09:47:21Z</time>
      </trkpt>
      <trkpt lat="44.2371" lon="6.22319">
        <ele>1668.02</ele>
        <time>2017-04-09T09:47:39Z</time>
      </trkpt>
      <trkpt lat="44.23715" lon="6.22329">
        <ele>1670.91</ele>
        <time>2017-04-09T09:47:56Z</time>
      </trkpt>
      <trkpt lat="44.23722" lon="6.22337">
        <ele>1673.31</ele>
        <time>2017-04-09T09:48:14Z</time>
      </trkpt>
      <trkpt lat="44.23727" lon="6.22348">
        <ele>1675.72</ele>
        <time>2017-04-09T09:48:31Z</time>
      </trkpt>
      <trkpt lat="44.23734" lon="6.22363">
        <ele>1678.6</ele>
        <time>2017-04-09T09:48:50Z</time>
      </trkpt>
      <trkpt lat="44.23737" lon="6.22372">
        <ele>1680.52</ele>
        <time>2017-04-09T09:49:11Z</time>
      </trkpt>
      <trkpt lat="44.23743" lon="6.22381">
        <ele>1682.93</ele>
        <time>2017-04-09T09:49:29Z</time>
      </trkpt>
      <trkpt lat="44.23749" lon="6.22391">
        <ele>1685.33</ele>
        <time>2017-04-09T09:49:48Z</time>
      </trkpt>
      <trkpt lat="44.23755" lon="6.22404">
        <ele>1688.69</ele>
        <time>2017-04-09T09:50:07Z</time>
      </trkpt>
      <trkpt lat="44.23759" lon="6.22415">
        <ele>1691.1</ele>
        <time>2017-04-09T09:50:23Z</time>
      </trkpt>
      <trkpt lat="44.23763" lon="6.22425">
        <ele>1693.98</ele>
        <time>2017-04-09T09:50:43Z</time>
      </trkpt>
      <trkpt lat="44.23767" lon="6.22433">
        <ele>1695.42</ele>
        <time>2017-04-09T09:50:57Z</time>
      </trkpt>
      <trkpt lat="44.23773" lon="6.22444">
        <ele>1698.31</ele>
        <time>2017-04-09T09:51:16Z</time>
      </trkpt>
      <trkpt lat="44.23775" lon="6.22453">
        <ele>1700.71</ele>
        <time>2017-04-09T09:51:35Z</time>
      </trkpt>
      <trkpt lat="44.2378" lon="6.22463">
        <ele>1703.11</ele>
        <time>2017-04-09T09:51:53Z</time>
      </trkpt>
      <trkpt lat="44.23783" lon="6.2247">
        <ele>1705.04</ele>
        <time>2017-04-09T09:52:12Z</time>
      </trkpt>
      <trkpt lat="44.23783" lon="6.22475">
        <ele>1706.48</ele>
        <time>2017-04-09T09:52:39Z</time>
      </trkpt>
      <trkpt lat="44.23785" lon="6.22488">
        <ele>1709.84</ele>
        <time>2017-04-09T09:52:57Z</time>
      </trkpt>
      <trkpt lat="44.23788" lon="6.22501">
        <ele>1712.25</ele>
        <time>2017-04-09T09:53:14Z</time>
      </trkpt>
      <trkpt lat="44.23792" lon="6.22516">
        <ele>1714.17</ele>
        <time>2017-04-09T09:53:30Z</time>
      </trkpt>
      <trkpt lat="44.23796" lon="6.22511">
        <ele>1717.05</ele>
        <time>2017-04-09T09:53:46Z</time>
      </trkpt>
      <trkpt lat="44.23804" lon="6.22502">
        <ele>1720.9</ele>
        <time>2017-04-09T09:54:03Z</time>
      </trkpt>
      <trkpt lat="44.23811" lon="6.22493">
        <ele>1723.3</ele>
        <time>2017-04-09T09:54:19Z</time>
      </trkpt>
      <trkpt lat="44.2382" lon="6.22488">
        <ele>1727.15</ele>
        <time>2017-04-09T09:54:35Z</time>
      </trkpt>
      <trkpt lat="44.23821" lon="6.22487">
        <ele>1727.15</ele>
        <time>2017-04-09T09:54:36Z</time>
      </trkpt>
      <trkpt lat="44.23826" lon="6.22488">
        <ele>1728.11</ele>
        <time>2017-04-09T09:54:51Z</time>
      </trkpt>
      <trkpt lat="44.23826" lon="6.22486">
        <ele>1727.15</ele>
        <time>2017-04-09T09:55:20Z</time>
      </trkpt>
      <trkpt lat="44.23826" lon="6.22486">
        <ele>1728.59</ele>
        <time>2017-04-09T09:55:24Z</time>
      </trkpt>
      <trkpt lat="44.23826" lon="6.22486">
        <ele>1727.63</ele>
        <time>2017-04-09T09:55:26Z</time>
      </trkpt>
      <trkpt lat="44.23826" lon="6.22485">
        <ele>1727.63</ele>
        <time>2017-04-09T09:55:43Z</time>
      </trkpt>
      <trkpt lat="44.23827" lon="6.22487">
        <ele>1729.07</ele>
        <time>2017-04-09T09:56:10Z</time>
      </trkpt>
      <trkpt lat="44.23826" lon="6.22489">
        <ele>1728.59</ele>
        <time>2017-04-09T09:56:45Z</time>
      </trkpt>
      <trkpt lat="44.23828" lon="6.2249">
        <ele>1728.11</ele>
        <time>2017-04-09T09:57:04Z</time>
      </trkpt>
      <trkpt lat="44.23829" lon="6.2249">
        <ele>1727.63</ele>
        <time>2017-04-09T09:57:30Z</time>
      </trkpt>
      <trkpt lat="44.23829" lon="6.22489">
        <ele>1729.07</ele>
        <time>2017-04-09T09:57:55Z</time>
      </trkpt>
      <trkpt lat="44.23828" lon="6.22487">
        <ele>1725.7</ele>
        <time>2017-04-09T09:58:10Z</time>
      </trkpt>
      <trkpt lat="44.23827" lon="6.22487">
        <ele>1725.7</ele>
        <time>2017-04-09T09:58:11Z</time>
      </trkpt>
      <trkpt lat="44.23827" lon="6.22487">
        <ele>1729.07</ele>
        <time>2017-04-09T09:58:15Z</time>
      </trkpt>
      <trkpt lat="44.23827" lon="6.22486">
        <ele>1727.63</ele>
        <time>2017-04-09T09:58:26Z</time>
      </trkpt>
      <trkpt lat="44.23828" lon="6.22474">
        <ele>1729.55</ele>
        <time>2017-04-09T09:58:42Z</time>
      </trkpt>
      <trkpt lat="44.23832" lon="6.22462">
        <ele>1732.43</ele>
        <time>2017-04-09T09:59:00Z</time>
      </trkpt>
      <trkpt lat="44.23835" lon="6.22443">
        <ele>1734.36</ele>
        <time>2017-04-09T09:59:19Z</time>
      </trkpt>
      <trkpt lat="44.23833" lon="6.22425">
        <ele>1734.84</ele>
        <time>2017-04-09T09:59:36Z</time>
      </trkpt>
      <trkpt lat="44.23834" lon="6.22414">
        <ele>1735.32</ele>
        <time>2017-04-09T09:59:56Z</time>
      </trkpt>
      <trkpt lat="44.23834" lon="6.22411">
        <ele>1736.28</ele>
        <time>2017-04-09T09:59:59Z</time>
      </trkpt>
      <trkpt lat="44.23836" lon="6.22403">
        <ele>1736.76</ele>
        <time>2017-04-09T10:00:17Z</time>
      </trkpt>
      <trkpt lat="44.23836" lon="6.22402">
        <ele>1737.72</ele>
        <time>2017-04-09T10:00:36Z</time>
      </trkpt>
      <trkpt lat="44.23836" lon="6.22402">
        <ele>1737.72</ele>
        <time>2017-04-09T10:01:16Z</time>
      </trkpt>
      <trkpt lat="44.23835" lon="6.22402">
        <ele>1736.76</ele>
        <time>2017-04-09T10:01:27Z</time>
      </trkpt>
      <trkpt lat="44.23835" lon="6.22401">
        <ele>1735.8</ele>
        <time>2017-04-09T10:02:16Z</time>
      </trkpt>
      <trkpt lat="44.23836" lon="6.22401">
        <ele>1735.8</ele>
        <time>2017-04-09T10:02:58Z</time>
      </trkpt>
      <trkpt lat="44.23836" lon="6.22404">
        <ele>1735.8</ele>
        <time>2017-04-09T10:03:47Z</time>
      </trkpt>
      <trkpt lat="44.23835" lon="6.22404">
        <ele>1735.8</ele>
        <time>2017-04-09T10:04:38Z</time>
      </trkpt>
      <trkpt lat="44.23836" lon="6.22404">
        <ele>1735.32</ele>
        <time>2017-04-09T10:05:26Z</time>
      </trkpt>
      <trkpt lat="44.23835" lon="6.22405">
        <ele>1735.32</ele>
        <time>2017-04-09T10:06:20Z</time>
      </trkpt>
      <trkpt lat="44.23835" lon="6.22404">
        <ele>1735.32</ele>
        <time>2017-04-09T10:07:12Z</time>
      </trkpt>
      <trkpt lat="44.23836" lon="6.22405">
        <ele>1734.84</ele>
        <time>2017-04-09T10:07:59Z</time>
      </trkpt>
      <trkpt lat="44.23836" lon="6.22405">
        <ele>1736.28</ele>
        <time>2017-04-09T10:08:56Z</time>
      </trkpt>
      <trkpt lat="44.23836" lon="6.22405">
        <ele>1736.28</ele>
        <time>2017-04-09T10:09:49Z</time>
      </trkpt>
      <trkpt lat="44.23836" lon="6.22405">
        <ele>1736.76</ele>
        <time>2017-04-09T10:10:39Z</time>
      </trkpt>
      <trkpt lat="44.23836" lon="6.22404">
        <ele>1736.76</ele>
        <time>2017-04-09T10:11:19Z</time>
      </trkpt>
      <trkpt lat="44.23836" lon="6.22405">
        <ele>1735.8</ele>
        <time>2017-04-09T10:12:13Z</time>
      </trkpt>
      <trkpt lat="44.23836" lon="6.22405">
        <ele>1735.8</ele>
        <time>2017-04-09T10:13:14Z</time>
      </trkpt>
      <trkpt lat="44.23836" lon="6.22405">
        <ele>1736.76</ele>
        <time>2017-04-09T10:13:53Z</time>
      </trkpt>
      <trkpt lat="44.23836" lon="6.22404">
        <ele>1736.76</ele>
        <time>2017-04-09T10:14:46Z</time>
      </trkpt>
      <trkpt lat="44.23837" lon="6.22405">
        <ele>1737.24</ele>
        <time>2017-04-09T10:15:39Z</time>
      </trkpt>
      <trkpt lat="44.23836" lon="6.22403">
        <ele>1737.24</ele>
        <time>2017-04-09T10:16:31Z</time>
      </trkpt>
      <trkpt lat="44.23836" lon="6.22404">
        <ele>1737.24</ele>
        <time>2017-04-09T10:17:24Z</time>
      </trkpt>
      <trkpt lat="44.23838" lon="6.22404">
        <ele>1737.24</ele>
        <time>2017-04-09T10:18:15Z</time>
      </trkpt>
      <trkpt lat="44.23837" lon="6.22405">
        <ele>1737.24</ele>
        <time>2017-04-09T10:19:12Z</time>
      </trkpt>
      <trkpt lat="44.23836" lon="6.22405">
        <ele>1737.24</ele>
        <time>2017-04-09T10:20:08Z</time>
      </trkpt>
      <trkpt lat="44.23838" lon="6.22404">
        <ele>1737.24</ele>
        <time>2017-04-09T10:21:01Z</time>
      </trkpt>
      <trkpt lat="44.23837" lon="6.22405">
        <ele>1737.24</ele>
        <time>2017-04-09T10:21:56Z</time>
      </trkpt>
      <trkpt lat="44.23837" lon="6.22405">
        <ele>1737.72</ele>
        <time>2017-04-09T10:22:44Z</time>
      </trkpt>
      <trkpt lat="44.23836" lon="6.22405">
        <ele>1737.72</ele>
        <time>2017-04-09T10:23:23Z</time>
      </trkpt>
      <trkpt lat="44.23838" lon="6.22406">
        <ele>1737.72</ele>
        <time>2017-04-09T10:24:08Z</time>
      </trkpt>
      <trkpt lat="44.23837" lon="6.22405">
        <ele>1737.72</ele>
        <time>2017-04-09T10:24:51Z</time>
      </trkpt>
      <trkpt lat="44.23838" lon="6.22405">
        <ele>1737.72</ele>
        <time>2017-04-09T10:25:36Z</time>
      </trkpt>
      <trkpt lat="44.23839" lon="6.22406">
        <ele>1737.72</ele>
        <time>2017-04-09T10:26:15Z</time>
      </trkpt>
      <trkpt lat="44.23838" lon="6.22405">
        <ele>1737.72</ele>
        <time>2017-04-09T10:27:03Z</time>
      </trkpt>
      <trkpt lat="44.23839" lon="6.22405">
        <ele>1737.72</ele>
        <time>2017-04-09T10:27:44Z</time>
      </trkpt>
      <trkpt lat="44.23838" lon="6.22405">
        <ele>1737.72</ele>
        <time>2017-04-09T10:28:22Z</time>
      </trkpt>
      <trkpt lat="44.23839" lon="6.22404">
        <ele>1737.72</ele>
        <time>2017-04-09T10:29:03Z</time>
      </trkpt>
      <trkpt lat="44.23838" lon="6.22404">
        <ele>1738.68</ele>
        <time>2017-04-09T10:29:40Z</time>
      </trkpt>
      <trkpt lat="44.23837" lon="6.22405">
        <ele>1738.68</ele>
        <time>2017-04-09T10:30:19Z</time>
      </trkpt>
      <trkpt lat="44.23838" lon="6.22406">
        <ele>1738.68</ele>
        <time>2017-04-09T10:30:58Z</time>
      </trkpt>
      <trkpt lat="44.2384" lon="6.22404">
        <ele>1738.68</ele>
        <time>2017-04-09T10:31:31Z</time>
      </trkpt>
      <trkpt lat="44.23838" lon="6.22406">
        <ele>1737.24</ele>
        <time>2017-04-09T10:32:16Z</time>
      </trkpt>
      <trkpt lat="44.23839" lon="6.22405">
        <ele>1737.24</ele>
        <time>2017-04-09T10:32:50Z</time>
      </trkpt>
      <trkpt lat="44.23839" lon="6.22404">
        <ele>1737.24</ele>
        <time>2017-04-09T10:33:31Z</time>
      </trkpt>
      <trkpt lat="44.23838" lon="6.22404">
        <ele>1737.24</ele>
        <time>2017-04-09T10:34:13Z</time>
      </trkpt>
      <trkpt lat="44.23837" lon="6.22404">
        <ele>1738.68</ele>
        <time>2017-04-09T10:34:55Z</time>
      </trkpt>
      <trkpt lat="44.23838" lon="6.22404">
        <ele>1738.68</ele>
        <time>2017-04-09T10:35:28Z</time>
      </trkpt>
      <trkpt lat="44.23839" lon="6.22405">
        <ele>1739.16</ele>
        <time>2017-04-09T10:36:04Z</time>
      </trkpt>
      <trkpt lat="44.23839" lon="6.22405">
        <ele>1739.16</ele>
        <time>2017-04-09T10:36:41Z</time>
      </trkpt>
      <trkpt lat="44.23838" lon="6.22404">
        <ele>1739.16</ele>
        <time>2017-04-09T10:37:22Z</time>
      </trkpt>
      <trkpt lat="44.23839" lon="6.22405">
        <ele>1739.16</ele>
        <time>2017-04-09T10:37:53Z</time>
      </trkpt>
      <trkpt lat="44.23837" lon="6.22403">
        <ele>1740.12</ele>
        <time>2017-04-09T10:38:23Z</time>
      </trkpt>
      <trkpt lat="44.23836" lon="6.22403">
        <ele>1739.64</ele>
        <time>2017-04-09T10:38:39Z</time>
      </trkpt>
      <trkpt lat="44.23834" lon="6.22398">
        <ele>1740.6</ele>
        <time>2017-04-09T10:38:58Z</time>
      </trkpt>
      <trkpt lat="44.23834" lon="6.22381">
        <ele>1741.08</ele>
        <time>2017-04-09T10:39:14Z</time>
      </trkpt>
      <trkpt lat="44.23836" lon="6.22364">
        <ele>1743.97</ele>
        <time>2017-04-09T10:39:33Z</time>
      </trkpt>
      <trkpt lat="44.23839" lon="6.22352">
        <ele>1745.89</ele>
        <time>2017-04-09T10:39:49Z</time>
      </trkpt>
      <trkpt lat="44.23843" lon="6.22336">
        <ele>1748.29</ele>
        <time>2017-04-09T10:40:08Z</time>
      </trkpt>
      <trkpt lat="44.23844" lon="6.22321">
        <ele>1749.74</ele>
        <time>2017-04-09T10:40:26Z</time>
      </trkpt>
      <trkpt lat="44.23843" lon="6.22313">
        <ele>1750.7</ele>
        <time>2017-04-09T10:40:43Z</time>
      </trkpt>
      <trkpt lat="44.23846" lon="6.22296">
        <ele>1752.14</ele>
        <time>2017-04-09T10:41:01Z</time>
      </trkpt>
      <trkpt lat="44.2385" lon="6.22285">
        <ele>1755.5</ele>
        <time>2017-04-09T10:41:18Z</time>
      </trkpt>
      <trkpt lat="44.23855" lon="6.22273">
        <ele>1757.43</ele>
        <time>2017-04-09T10:41:36Z</time>
      </trkpt>
      <trkpt lat="44.23858" lon="6.2226">
        <ele>1760.31</ele>
        <time>2017-04-09T10:41:53Z</time>
      </trkpt>
      <trkpt lat="44.23862" lon="6.22248">
        <ele>1761.75</ele>
        <time>2017-04-09T10:42:09Z</time>
      </trkpt>
      <trkpt lat="44.23869" lon="6.22233">
        <ele>1763.68</ele>
        <time>2017-04-09T10:42:25Z</time>
      </trkpt>
      <trkpt lat="44.23873" lon="6.22223">
        <ele>1765.12</ele>
        <time>2017-04-09T10:42:41Z</time>
      </trkpt>
      <trkpt lat="44.23877" lon="6.2221">
        <ele>1767.52</ele>
        <time>2017-04-09T10:42:59Z</time>
      </trkpt>
      <trkpt lat="44.23881" lon="6.22199">
        <ele>1770.41</ele>
        <time>2017-04-09T10:43:18Z</time>
      </trkpt>
      <trkpt lat="44.23883" lon="6.22187">
        <ele>1772.81</ele>
        <time>2017-04-09T10:43:37Z</time>
      </trkpt>
      <trkpt lat="44.23881" lon="6.22178">
        <ele>1776.17</ele>
        <time>2017-04-09T10:43:51Z</time>
      </trkpt>
      <trkpt lat="44.23883" lon="6.22164">
        <ele>1778.1</ele>
        <time>2017-04-09T10:44:09Z</time>
      </trkpt>
      <trkpt lat="44.23884" lon="6.22152">
        <ele>1780.02</ele>
        <time>2017-04-09T10:44:26Z</time>
      </trkpt>
      <trkpt lat="44.23886" lon="6.22146">
        <ele>1781.46</ele>
        <time>2017-04-09T10:44:44Z</time>
      </trkpt>
      <trkpt lat="44.23884" lon="6.22136">
        <ele>1782.42</ele>
        <time>2017-04-09T10:45:02Z</time>
      </trkpt>
      <trkpt lat="44.23881" lon="6.22122">
        <ele>1785.31</ele>
        <time>2017-04-09T10:45:21Z</time>
      </trkpt>
      <trkpt lat="44.23882" lon="6.22115">
        <ele>1786.75</ele>
        <time>2017-04-09T10:45:38Z</time>
      </trkpt>
      <trkpt lat="44.2388" lon="6.22101">
        <ele>1788.67</ele>
        <time>2017-04-09T10:45:54Z</time>
      </trkpt>
      <trkpt lat="44.23881" lon="6.22086">
        <ele>1791.55</ele>
        <time>2017-04-09T10:46:12Z</time>
      </trkpt>
      <trkpt lat="44.2388" lon="6.22073">
        <ele>1793.96</ele>
        <time>2017-04-09T10:46:29Z</time>
      </trkpt>
      <trkpt lat="44.23878" lon="6.2206">
        <ele>1795.4</ele>
        <time>2017-04-09T10:46:47Z</time>
      </trkpt>
      <trkpt lat="44.23877" lon="6.22046">
        <ele>1797.8</ele>
        <time>2017-04-09T10:47:05Z</time>
      </trkpt>
      <trkpt lat="44.23873" lon="6.22034">
        <ele>1800.69</ele>
        <time>2017-04-09T10:47:21Z</time>
      </trkpt>
      <trkpt lat="44.23868" lon="6.2202">
        <ele>1802.61</ele>
        <time>2017-04-09T10:47:42Z</time>
      </trkpt>
      <trkpt lat="44.23872" lon="6.22014">
        <ele>1805.97</ele>
        <time>2017-04-09T10:47:53Z</time>
      </trkpt>
      <trkpt lat="44.23878" lon="6.22006">
        <ele>1806.94</ele>
        <time>2017-04-09T10:48:12Z</time>
      </trkpt>
      <trkpt lat="44.23882" lon="6.22003">
        <ele>1809.34</ele>
        <time>2017-04-09T10:48:28Z</time>
      </trkpt>
      <trkpt lat="44.23884" lon="6.21997">
        <ele>1812.22</ele>
        <time>2017-04-09T10:48:43Z</time>
      </trkpt>
      <trkpt lat="44.23884" lon="6.21997">
        <ele>1812.22</ele>
        <time>2017-04-09T10:48:44Z</time>
      </trkpt>
      <trkpt lat="44.23886" lon="6.21994">
        <ele>1809.82</ele>
        <time>2017-04-09T10:48:52Z</time>
      </trkpt>
      <trkpt lat="44.23885" lon="6.2199">
        <ele>1813.18</ele>
        <time>2017-04-09T10:48:58Z</time>
      </trkpt>
      <trkpt lat="44.23886" lon="6.2199">
        <ele>1813.18</ele>
        <time>2017-04-09T10:48:59Z</time>
      </trkpt>
      <trkpt lat="44.23887" lon="6.21985">
        <ele>1814.15</ele>
        <time>2017-04-09T10:49:08Z</time>
      </trkpt>
      <trkpt lat="44.23892" lon="6.2198">
        <ele>1816.07</ele>
        <time>2017-04-09T10:49:24Z</time>
      </trkpt>
      <trkpt lat="44.23894" lon="6.21973">
        <ele>1817.51</ele>
        <time>2017-04-09T10:49:40Z</time>
      </trkpt>
      <trkpt lat="44.23898" lon="6.21966">
        <ele>1820.39</ele>
        <time>2017-04-09T10:50:00Z</time>
      </trkpt>
      <trkpt lat="44.239" lon="6.21958">
        <ele>1821.84</ele>
        <time>2017-04-09T10:50:14Z</time>
      </trkpt>
      <trkpt lat="44.23902" lon="6.21951">
        <ele>1823.28</ele>
        <time>2017-04-09T10:50:31Z</time>
      </trkpt>
      <trkpt lat="44.23906" lon="6.21958">
        <ele>1824.24</ele>
        <time>2017-04-09T10:50:45Z</time>
      </trkpt>
      <trkpt lat="44.23909" lon="6.21963">
        <ele>1826.64</ele>
        <time>2017-04-09T10:51:01Z</time>
      </trkpt>
      <trkpt lat="44.23911" lon="6.21957">
        <ele>1828.08</ele>
        <time>2017-04-09T10:51:12Z</time>
      </trkpt>
      <trkpt lat="44.23912" lon="6.2195">
        <ele>1830.01</ele>
        <time>2017-04-09T10:51:26Z</time>
      </trkpt>
      <trkpt lat="44.23914" lon="6.21947">
        <ele>1831.45</ele>
        <time>2017-04-09T10:51:41Z</time>
      </trkpt>
      <trkpt lat="44.23917" lon="6.21946">
        <ele>1832.41</ele>
        <time>2017-04-09T10:51:55Z</time>
      </trkpt>
      <trkpt lat="44.23918" lon="6.21942">
        <ele>1834.33</ele>
        <time>2017-04-09T10:52:11Z</time>
      </trkpt>
      <trkpt lat="44.23921" lon="6.21941">
        <ele>1836.26</ele>
        <time>2017-04-09T10:52:30Z</time>
      </trkpt>
      <trkpt lat="44.23924" lon="6.21936">
        <ele>1837.22</ele>
        <time>2017-04-09T10:52:45Z</time>
      </trkpt>
      <trkpt lat="44.23928" lon="6.21938">
        <ele>1840.1</ele>
        <time>2017-04-09T10:53:14Z</time>
      </trkpt>
      <trkpt lat="44.23932" lon="6.21944">
        <ele>1842.5</ele>
        <time>2017-04-09T10:53:29Z</time>
      </trkpt>
      <trkpt lat="44.23934" lon="6.21947">
        <ele>1844.43</ele>
        <time>2017-04-09T10:53:49Z</time>
      </trkpt>
      <trkpt lat="44.23938" lon="6.21947">
        <ele>1845.39</ele>
        <time>2017-04-09T10:54:06Z</time>
      </trkpt>
      <trkpt lat="44.2394" lon="6.21942">
        <ele>1847.79</ele>
        <time>2017-04-09T10:54:23Z</time>
      </trkpt>
      <trkpt lat="44.23943" lon="6.21948">
        <ele>1851.16</ele>
        <time>2017-04-09T10:54:36Z</time>
      </trkpt>
      <trkpt lat="44.23945" lon="6.21952">
        <ele>1853.08</ele>
        <time>2017-04-09T10:54:53Z</time>
      </trkpt>
      <trkpt lat="44.23948" lon="6.21951">
        <ele>1853.56</ele>
        <time>2017-04-09T10:55:09Z</time>
      </trkpt>
      <trkpt lat="44.23949" lon="6.21948">
        <ele>1855.48</ele>
        <time>2017-04-09T10:55:24Z</time>
      </trkpt>
      <trkpt lat="44.23949" lon="6.21943">
        <ele>1856.44</ele>
        <time>2017-04-09T10:55:40Z</time>
      </trkpt>
      <trkpt lat="44.2395" lon="6.21939">
        <ele>1857.4</ele>
        <time>2017-04-09T10:55:57Z</time>
      </trkpt>
      <trkpt lat="44.23952" lon="6.21942">
        <ele>1859.33</ele>
        <time>2017-04-09T10:56:11Z</time>
      </trkpt>
      <trkpt lat="44.23954" lon="6.21947">
        <ele>1859.33</ele>
        <time>2017-04-09T10:56:26Z</time>
      </trkpt>
      <trkpt lat="44.23957" lon="6.21944">
        <ele>1861.25</ele>
        <time>2017-04-09T10:56:40Z</time>
      </trkpt>
      <trkpt lat="44.23959" lon="6.21942">
        <ele>1862.69</ele>
        <time>2017-04-09T10:56:57Z</time>
      </trkpt>
      <trkpt lat="44.23961" lon="6.21938">
        <ele>1864.61</ele>
        <time>2017-04-09T10:57:13Z</time>
      </trkpt>
      <trkpt lat="44.23963" lon="6.21934">
        <ele>1866.54</ele>
        <time>2017-04-09T10:57:28Z</time>
      </trkpt>
      <trkpt lat="44.23971" lon="6.21926">
        <ele>1867.02</ele>
        <time>2017-04-09T10:57:58Z</time>
      </trkpt>
      <trkpt lat="44.23971" lon="6.21931">
        <ele>1868.94</ele>
        <time>2017-04-09T10:58:12Z</time>
      </trkpt>
      <trkpt lat="44.23972" lon="6.2193">
        <ele>1870.86</ele>
        <time>2017-04-09T10:58:27Z</time>
      </trkpt>
      <trkpt lat="44.23974" lon="6.2193">
        <ele>1873.27</ele>
        <time>2017-04-09T10:58:45Z</time>
      </trkpt>
      <trkpt lat="44.23974" lon="6.21933">
        <ele>1875.19</ele>
        <time>2017-04-09T10:59:07Z</time>
      </trkpt>
      <trkpt lat="44.23976" lon="6.21934">
        <ele>1875.19</ele>
        <time>2017-04-09T10:59:23Z</time>
      </trkpt>
      <trkpt lat="44.23981" lon="6.21938">
        <ele>1877.11</ele>
        <time>2017-04-09T10:59:46Z</time>
      </trkpt>
      <trkpt lat="44.23983" lon="6.2194">
        <ele>1879.03</ele>
        <time>2017-04-09T11:00:05Z</time>
      </trkpt>
      <trkpt lat="44.23986" lon="6.21944">
        <ele>1881.44</ele>
        <time>2017-04-09T11:00:21Z</time>
      </trkpt>
      <trkpt lat="44.23985" lon="6.21949">
        <ele>1881.92</ele>
        <time>2017-04-09T11:00:36Z</time>
      </trkpt>
      <trkpt lat="44.23987" lon="6.21957">
        <ele>1883.84</ele>
        <time>2017-04-09T11:00:49Z</time>
      </trkpt>
      <trkpt lat="44.23989" lon="6.21968">
        <ele>1883.84</ele>
        <time>2017-04-09T11:01:03Z</time>
      </trkpt>
      <trkpt lat="44.2399" lon="6.21963">
        <ele>1885.28</ele>
        <time>2017-04-09T11:01:21Z</time>
      </trkpt>
      <trkpt lat="44.23991" lon="6.21958">
        <ele>1886.72</ele>
        <time>2017-04-09T11:01:38Z</time>
      </trkpt>
      <trkpt lat="44.23991" lon="6.21954">
        <ele>1888.17</ele>
        <time>2017-04-09T11:01:58Z</time>
      </trkpt>
      <trkpt lat="44.23992" lon="6.21954">
        <ele>1888.65</ele>
        <time>2017-04-09T11:02:26Z</time>
      </trkpt>
      <trkpt lat="44.23993" lon="6.21949">
        <ele>1890.57</ele>
        <time>2017-04-09T11:02:44Z</time>
      </trkpt>
      <trkpt lat="44.23995" lon="6.21948">
        <ele>1891.53</ele>
        <time>2017-04-09T11:03:03Z</time>
      </trkpt>
      <trkpt lat="44.23996" lon="6.21941">
        <ele>1892.01</ele>
        <time>2017-04-09T11:03:19Z</time>
      </trkpt>
      <trkpt lat="44.23998" lon="6.21941">
        <ele>1892.97</ele>
        <time>2017-04-09T11:03:35Z</time>
      </trkpt>
      <trkpt lat="44.23996" lon="6.21937">
        <ele>1894.9</ele>
        <time>2017-04-09T11:03:52Z</time>
      </trkpt>
      <trkpt lat="44.23997" lon="6.21937">
        <ele>1896.34</ele>
        <time>2017-04-09T11:04:11Z</time>
      </trkpt>
      <trkpt lat="44.23997" lon="6.21936">
        <ele>1898.26</ele>
        <time>2017-04-09T11:04:31Z</time>
      </trkpt>
      <trkpt lat="44.24" lon="6.21937">
        <ele>1899.22</ele>
        <time>2017-04-09T11:04:45Z</time>
      </trkpt>
      <trkpt lat="44.24001" lon="6.21935">
        <ele>1900.66</ele>
        <time>2017-04-09T11:04:50Z</time>
      </trkpt>
      <trkpt lat="44.24" lon="6.21927">
        <ele>1902.59</ele>
        <time>2017-04-09T11:05:05Z</time>
      </trkpt>
      <trkpt lat="44.24003" lon="6.21925">
        <ele>1903.07</ele>
        <time>2017-04-09T11:05:19Z</time>
      </trkpt>
      <trkpt lat="44.24004" lon="6.21926">
        <ele>1904.03</ele>
        <time>2017-04-09T11:05:38Z</time>
      </trkpt>
      <trkpt lat="44.24003" lon="6.21925">
        <ele>1904.51</ele>
        <time>2017-04-09T11:05:59Z</time>
      </trkpt>
      <trkpt lat="44.24004" lon="6.21926">
        <ele>1904.99</ele>
        <time>2017-04-09T11:06:22Z</time>
      </trkpt>
      <trkpt lat="44.24003" lon="6.21924">
        <ele>1904.99</ele>
        <time>2017-04-09T11:06:41Z</time>
      </trkpt>
      <trkpt lat="44.24003" lon="6.21924">
        <ele>1903.55</ele>
        <time>2017-04-09T11:06:43Z</time>
      </trkpt>
      <trkpt lat="44.24002" lon="6.21925">
        <ele>1904.99</ele>
        <time>2017-04-09T11:06:52Z</time>
      </trkpt>
      <trkpt lat="44.24003" lon="6.21926">
        <ele>1903.55</ele>
        <time>2017-04-09T11:07:10Z</time>
      </trkpt>
      <trkpt lat="44.24003" lon="6.21926">
        <ele>1903.55</ele>
        <time>2017-04-09T11:07:26Z</time>
      </trkpt>
      <trkpt lat="44.2401" lon="6.21921">
        <ele>1903.55</ele>
        <time>2017-04-09T11:07:45Z</time>
      </trkpt>
      <trkpt lat="44.24012" lon="6.21919">
        <ele>1903.07</ele>
        <time>2017-04-09T11:08:05Z</time>
      </trkpt>
      <trkpt lat="44.24011" lon="6.2192">
        <ele>1902.11</ele>
        <time>2017-04-09T11:08:25Z</time>
      </trkpt>
      <trkpt lat="44.2402" lon="6.21913">
        <ele>1902.11</ele>
        <time>2017-04-09T11:08:41Z</time>
      </trkpt>
      <trkpt lat="44.24021" lon="6.21913">
        <ele>1902.11</ele>
        <time>2017-04-09T11:08:42Z</time>
      </trkpt>
      <trkpt lat="44.24033" lon="6.21903">
        <ele>1901.63</ele>
        <time>2017-04-09T11:08:59Z</time>
      </trkpt>
      <trkpt lat="44.24036" lon="6.21901">
        <ele>1903.07</ele>
        <time>2017-04-09T11:09:04Z</time>
      </trkpt>
      <trkpt lat="44.24046" lon="6.21899">
        <ele>1904.51</ele>
        <time>2017-04-09T11:09:20Z</time>
      </trkpt>
      <trkpt lat="44.24048" lon="6.219">
        <ele>1905.95</ele>
        <time>2017-04-09T11:09:49Z</time>
      </trkpt>
      <trkpt lat="44.24047" lon="6.21901">
        <ele>1904.99</ele>
        <time>2017-04-09T11:10:16Z</time>
      </trkpt>
      <trkpt lat="44.24049" lon="6.21899">
        <ele>1904.99</ele>
        <time>2017-04-09T11:10:40Z</time>
      </trkpt>
      <trkpt lat="44.24052" lon="6.21897">
        <ele>1905.95</ele>
        <time>2017-04-09T11:11:07Z</time>
      </trkpt>
      <trkpt lat="44.24054" lon="6.21897">
        <ele>1905.95</ele>
        <time>2017-04-09T11:11:18Z</time>
      </trkpt>
      <trkpt lat="44.24064" lon="6.21892">
        <ele>1905.95</ele>
        <time>2017-04-09T11:11:35Z</time>
      </trkpt>
      <trkpt lat="44.24068" lon="6.21891">
        <ele>1904.99</ele>
        <time>2017-04-09T11:11:53Z</time>
      </trkpt>
      <trkpt lat="44.24071" lon="6.21889">
        <ele>1904.03</ele>
        <time>2017-04-09T11:12:10Z</time>
      </trkpt>
      <trkpt lat="44.24071" lon="6.2189">
        <ele>1905.47</ele>
        <time>2017-04-09T11:12:32Z</time>
      </trkpt>
      <trkpt lat="44.24071" lon="6.21889">
        <ele>1905.95</ele>
        <time>2017-04-09T11:13:02Z</time>
      </trkpt>
      <trkpt lat="44.24069" lon="6.21891">
        <ele>1905.95</ele>
        <time>2017-04-09T11:13:22Z</time>
      </trkpt>
      <trkpt lat="44.24069" lon="6.21892">
        <ele>1906.43</ele>
        <time>2017-04-09T11:14:01Z</time>
      </trkpt>
      <trkpt lat="44.24069" lon="6.21892">
        <ele>1905.47</ele>
        <time>2017-04-09T11:14:33Z</time>
      </trkpt>
      <trkpt lat="44.24068" lon="6.21887">
        <ele>1905.47</ele>
        <time>2017-04-09T11:15:00Z</time>
      </trkpt>
      <trkpt lat="44.24068" lon="6.21887">
        <ele>1905.47</ele>
        <time>2017-04-09T11:15:26Z</time>
      </trkpt>
      <trkpt lat="44.24068" lon="6.21888">
        <ele>1905.95</ele>
        <time>2017-04-09T11:15:55Z</time>
      </trkpt>
      <trkpt lat="44.24068" lon="6.21888">
        <ele>1905.95</ele>
        <time>2017-04-09T11:16:20Z</time>
      </trkpt>
      <trkpt lat="44.24068" lon="6.21888">
        <ele>1905.95</ele>
        <time>2017-04-09T11:16:45Z</time>
      </trkpt>
      <trkpt lat="44.24068" lon="6.21888">
        <ele>1907.39</ele>
        <time>2017-04-09T11:17:07Z</time>
      </trkpt>
      <trkpt lat="44.24068" lon="6.21888">
        <ele>1907.39</ele>
        <time>2017-04-09T11:17:25Z</time>
      </trkpt>
      <trkpt lat="44.24068" lon="6.21888">
        <ele>1907.87</ele>
        <time>2017-04-09T11:17:48Z</time>
      </trkpt>
      <trkpt lat="44.24068" lon="6.21888">
        <ele>1907.87</ele>
        <time>2017-04-09T11:18:17Z</time>
      </trkpt>
      <trkpt lat="44.24068" lon="6.21888">
        <ele>1906.43</ele>
        <time>2017-04-09T11:18:23Z</time>
      </trkpt>
      <trkpt lat="44.24068" lon="6.21887">
        <ele>1906.43</ele>
        <time>2017-04-09T11:18:47Z</time>
      </trkpt>
      <trkpt lat="44.24067" lon="6.21887">
        <ele>1907.87</ele>
        <time>2017-04-09T11:19:07Z</time>
      </trkpt>
      <trkpt lat="44.24068" lon="6.21888">
        <ele>1907.87</ele>
        <time>2017-04-09T11:19:17Z</time>
      </trkpt>
      <trkpt lat="44.24069" lon="6.21888">
        <ele>1907.87</ele>
        <time>2017-04-09T11:19:30Z</time>
      </trkpt>
      <trkpt lat="44.24068" lon="6.21887">
        <ele>1907.39</ele>
        <time>2017-04-09T11:19:46Z</time>
      </trkpt>
      <trkpt lat="44.24067" lon="6.21887">
        <ele>1907.39</ele>
        <time>2017-04-09T11:20:11Z</time>
      </trkpt>
      <trkpt lat="44.24067" lon="6.21886">
        <ele>1907.87</ele>
        <time>2017-04-09T11:20:42Z</time>
      </trkpt>
      <trkpt lat="44.24067" lon="6.21887">
        <ele>1908.83</ele>
        <time>2017-04-09T11:20:58Z</time>
      </trkpt>
      <trkpt lat="44.24067" lon="6.21887">
        <ele>1906.91</ele>
        <time>2017-04-09T11:21:01Z</time>
      </trkpt>
      <trkpt lat="44.24067" lon="6.21888">
        <ele>1907.39</ele>
        <time>2017-04-09T11:21:27Z</time>
      </trkpt>
      <trkpt lat="44.24068" lon="6.21889">
        <ele>1908.35</ele>
        <time>2017-04-09T11:22:05Z</time>
      </trkpt>
      <trkpt lat="44.24068" lon="6.21888">
        <ele>1908.35</ele>
        <time>2017-04-09T11:22:33Z</time>
      </trkpt>
      <trkpt lat="44.24069" lon="6.21887">
        <ele>1908.35</ele>
        <time>2017-04-09T11:22:49Z</time>
      </trkpt>
      <trkpt lat="44.24069" lon="6.21887">
        <ele>1907.39</ele>
        <time>2017-04-09T11:23:32Z</time>
      </trkpt>
      <trkpt lat="44.24069" lon="6.21888">
        <ele>1908.83</ele>
        <time>2017-04-09T11:23:58Z</time>
      </trkpt>
      <trkpt lat="44.24069" lon="6.21887">
        <ele>1908.83</ele>
        <time>2017-04-09T11:24:27Z</time>
      </trkpt>
      <trkpt lat="44.24069" lon="6.21887">
        <ele>1907.87</ele>
        <time>2017-04-09T11:25:00Z</time>
      </trkpt>
      <trkpt lat="44.24069" lon="6.21887">
        <ele>1910.28</ele>
        <time>2017-04-09T11:25:31Z</time>
      </trkpt>
      <trkpt lat="44.24069" lon="6.21887">
        <ele>1908.35</ele>
        <time>2017-04-09T11:25:34Z</time>
      </trkpt>
      <trkpt lat="44.24068" lon="6.21888">
        <ele>1910.28</ele>
        <time>2017-04-09T11:25:41Z</time>
      </trkpt>
      <trkpt lat="44.24068" lon="6.21887">
        <ele>1908.35</ele>
        <time>2017-04-09T11:25:43Z</time>
      </trkpt>
      <trkpt lat="44.24069" lon="6.21888">
        <ele>1909.8</ele>
        <time>2017-04-09T11:26:06Z</time>
      </trkpt>
      <trkpt lat="44.24061" lon="6.21891">
        <ele>1909.8</ele>
        <time>2017-04-09T11:26:21Z</time>
      </trkpt>
      <trkpt lat="44.24065" lon="6.21889">
        <ele>1910.76</ele>
        <time>2017-04-09T11:26:38Z</time>
      </trkpt>
      <trkpt lat="44.24066" lon="6.21894">
        <ele>1909.8</ele>
        <time>2017-04-09T11:26:58Z</time>
      </trkpt>
      <trkpt lat="44.2406" lon="6.21897">
        <ele>1909.8</ele>
        <time>2017-04-09T11:27:13Z</time>
      </trkpt>
      <trkpt lat="44.24051" lon="6.219">
        <ele>1909.32</ele>
        <time>2017-04-09T11:27:32Z</time>
      </trkpt>
      <trkpt lat="44.24037" lon="6.21897">
        <ele>1907.39</ele>
        <time>2017-04-09T11:27:51Z</time>
      </trkpt>
      <trkpt lat="44.24036" lon="6.21898">
        <ele>1908.35</ele>
        <time>2017-04-09T11:27:54Z</time>
      </trkpt>
      <trkpt lat="44.24034" lon="6.21899">
        <ele>1906.91</ele>
        <time>2017-04-09T11:27:57Z</time>
      </trkpt>
      <trkpt lat="44.2403" lon="6.21903">
        <ele>1905.95</ele>
        <time>2017-04-09T11:28:14Z</time>
      </trkpt>
      <trkpt lat="44.2403" lon="6.21904">
        <ele>1907.39</ele>
        <time>2017-04-09T11:28:19Z</time>
      </trkpt>
      <trkpt lat="44.24026" lon="6.21908">
        <ele>1907.87</ele>
        <time>2017-04-09T11:28:34Z</time>
      </trkpt>
      <trkpt lat="44.24015" lon="6.21915">
        <ele>1908.35</ele>
        <time>2017-04-09T11:28:53Z</time>
      </trkpt>
      <trkpt lat="44.24014" lon="6.21915">
        <ele>1908.35</ele>
        <time>2017-04-09T11:29:10Z</time>
      </trkpt>
      <trkpt lat="44.24013" lon="6.21913">
        <ele>1908.35</ele>
        <time>2017-04-09T11:29:30Z</time>
      </trkpt>
      <trkpt lat="44.2401" lon="6.21911">
        <ele>1906.91</ele>
        <time>2017-04-09T11:29:50Z</time>
      </trkpt>
      <trkpt lat="44.24013" lon="6.21908">
        <ele>1905.47</ele>
        <time>2017-04-09T11:30:07Z</time>
      </trkpt>
      <trkpt lat="44.24015" lon="6.21906">
        <ele>1903.55</ele>
        <time>2017-04-09T11:30:25Z</time>
      </trkpt>
      <trkpt lat="44.24021" lon="6.21902">
        <ele>1902.11</ele>
        <time>2017-04-09T11:30:43Z</time>
      </trkpt>
      <trkpt lat="44.24022" lon="6.21901">
        <ele>1900.66</ele>
        <time>2017-04-09T11:30:47Z</time>
      </trkpt>
      <trkpt lat="44.24023" lon="6.21897">
        <ele>1900.18</ele>
        <time>2017-04-09T11:31:04Z</time>
      </trkpt>
      <trkpt lat="44.24022" lon="6.21895">
        <ele>1899.22</ele>
        <time>2017-04-09T11:31:19Z</time>
      </trkpt>
      <trkpt lat="44.24022" lon="6.21895">
        <ele>1899.22</ele>
        <time>2017-04-09T11:31:34Z</time>
      </trkpt>
      <trkpt lat="44.2402" lon="6.21895">
        <ele>1896.34</ele>
        <time>2017-04-09T11:31:54Z</time>
      </trkpt>
      <trkpt lat="44.24019" lon="6.21894">
        <ele>1894.9</ele>
        <time>2017-04-09T11:32:10Z</time>
      </trkpt>
      <trkpt lat="44.24015" lon="6.2189">
        <ele>1892.01</ele>
        <time>2017-04-09T11:32:29Z</time>
      </trkpt>
      <trkpt lat="44.24011" lon="6.21887">
        <ele>1890.09</ele>
        <time>2017-04-09T11:32:43Z</time>
      </trkpt>
      <trkpt lat="44.24006" lon="6.21889">
        <ele>1887.69</ele>
        <time>2017-04-09T11:33:01Z</time>
      </trkpt>
      <trkpt lat="44.24005" lon="6.21885">
        <ele>1885.28</ele>
        <time>2017-04-09T11:33:16Z</time>
      </trkpt>
      <trkpt lat="44.24003" lon="6.21882">
        <ele>1884.8</ele>
        <time>2017-04-09T11:33:33Z</time>
      </trkpt>
      <trkpt lat="44.23999" lon="6.21881">
        <ele>1882.88</ele>
        <time>2017-04-09T11:33:57Z</time>
      </trkpt>
      <trkpt lat="44.23996" lon="6.2188">
        <ele>1880.96</ele>
        <time>2017-04-09T11:34:18Z</time>
      </trkpt>
      <trkpt lat="44.23993" lon="6.2188">
        <ele>1878.55</ele>
        <time>2017-04-09T11:34:37Z</time>
      </trkpt>
      <trkpt lat="44.23996" lon="6.21877">
        <ele>1877.11</ele>
        <time>2017-04-09T11:34:55Z</time>
      </trkpt>
      <trkpt lat="44.23993" lon="6.21875">
        <ele>1875.67</ele>
        <time>2017-04-09T11:35:15Z</time>
      </trkpt>
      <trkpt lat="44.23991" lon="6.21872">
        <ele>1874.71</ele>
        <time>2017-04-09T11:35:31Z</time>
      </trkpt>
      <trkpt lat="44.23992" lon="6.21869">
        <ele>1872.79</ele>
        <time>2017-04-09T11:35:46Z</time>
      </trkpt>
      <trkpt lat="44.23992" lon="6.21867">
        <ele>1871.34</ele>
        <time>2017-04-09T11:36:02Z</time>
      </trkpt>
      <trkpt lat="44.23986" lon="6.21866">
        <ele>1870.38</ele>
        <time>2017-04-09T11:36:19Z</time>
      </trkpt>
      <trkpt lat="44.23988" lon="6.21864">
        <ele>1868.46</ele>
        <time>2017-04-09T11:36:36Z</time>
      </trkpt>
      <trkpt lat="44.23983" lon="6.21868">
        <ele>1867.02</ele>
        <time>2017-04-09T11:36:54Z</time>
      </trkpt>
      <trkpt lat="44.23986" lon="6.21866">
        <ele>1864.61</ele>
        <time>2017-04-09T11:37:10Z</time>
      </trkpt>
      <trkpt lat="44.23984" lon="6.21864">
        <ele>1864.61</ele>
        <time>2017-04-09T11:37:30Z</time>
      </trkpt>
      <trkpt lat="44.23982" lon="6.21861">
        <ele>1862.21</ele>
        <time>2017-04-09T11:37:51Z</time>
      </trkpt>
      <trkpt lat="44.23976" lon="6.21863">
        <ele>1860.29</ele>
        <time>2017-04-09T11:38:07Z</time>
      </trkpt>
      <trkpt lat="44.23972" lon="6.21863">
        <ele>1857.89</ele>
        <time>2017-04-09T11:38:24Z</time>
      </trkpt>
      <trkpt lat="44.23969" lon="6.21862">
        <ele>1856.92</ele>
        <time>2017-04-09T11:38:47Z</time>
      </trkpt>
      <trkpt lat="44.23966" lon="6.21862">
        <ele>1855.96</ele>
        <time>2017-04-09T11:39:02Z</time>
      </trkpt>
      <trkpt lat="44.23965" lon="6.21861">
        <ele>1855.48</ele>
        <time>2017-04-09T11:39:20Z</time>
      </trkpt>
      <trkpt lat="44.23965" lon="6.21855">
        <ele>1852.12</ele>
        <time>2017-04-09T11:39:37Z</time>
      </trkpt>
      <trkpt lat="44.23959" lon="6.21856">
        <ele>1850.19</ele>
        <time>2017-04-09T11:39:53Z</time>
      </trkpt>
      <trkpt lat="44.23952" lon="6.21858">
        <ele>1848.27</ele>
        <time>2017-04-09T11:40:11Z</time>
      </trkpt>
      <trkpt lat="44.23945" lon="6.21864">
        <ele>1846.35</ele>
        <time>2017-04-09T11:40:29Z</time>
      </trkpt>
      <trkpt lat="44.23941" lon="6.21869">
        <ele>1844.43</ele>
        <time>2017-04-09T11:40:48Z</time>
      </trkpt>
      <trkpt lat="44.23934" lon="6.21868">
        <ele>1841.06</ele>
        <time>2017-04-09T11:41:05Z</time>
      </trkpt>
      <trkpt lat="44.23928" lon="6.2187">
        <ele>1839.14</ele>
        <time>2017-04-09T11:41:21Z</time>
      </trkpt>
      <trkpt lat="44.2392" lon="6.21884">
        <ele>1837.7</ele>
        <time>2017-04-09T11:41:38Z</time>
      </trkpt>
      <trkpt lat="44.23915" lon="6.21897">
        <ele>1837.22</ele>
        <time>2017-04-09T11:41:53Z</time>
      </trkpt>
      <trkpt lat="44.23912" lon="6.21908">
        <ele>1836.26</ele>
        <time>2017-04-09T11:42:10Z</time>
      </trkpt>
      <trkpt lat="44.2391" lon="6.21919">
        <ele>1835.29</ele>
        <time>2017-04-09T11:42:29Z</time>
      </trkpt>
      <trkpt lat="44.23904" lon="6.21938">
        <ele>1832.41</ele>
        <time>2017-04-09T11:42:53Z</time>
      </trkpt>
      <trkpt lat="44.23903" lon="6.21952">
        <ele>1830.97</ele>
        <time>2017-04-09T11:43:09Z</time>
      </trkpt>
      <trkpt lat="44.23904" lon="6.21957">
        <ele>1830.01</ele>
        <time>2017-04-09T11:43:27Z</time>
      </trkpt>
      <trkpt lat="44.23897" lon="6.21966">
        <ele>1828.08</ele>
        <time>2017-04-09T11:43:41Z</time>
      </trkpt>
      <trkpt lat="44.23894" lon="6.21976">
        <ele>1825.2</ele>
        <time>2017-04-09T11:43:56Z</time>
      </trkpt>
      <trkpt lat="44.23894" lon="6.21977">
        <ele>1826.16</ele>
        <time>2017-04-09T11:44:01Z</time>
      </trkpt>
      <trkpt lat="44.23892" lon="6.21983">
        <ele>1824.72</ele>
        <time>2017-04-09T11:44:13Z</time>
      </trkpt>
      <trkpt lat="44.23889" lon="6.21998">
        <ele>1821.84</ele>
        <time>2017-04-09T11:44:30Z</time>
      </trkpt>
      <trkpt lat="44.23881" lon="6.2201">
        <ele>1819.43</ele>
        <time>2017-04-09T11:44:48Z</time>
      </trkpt>
      <trkpt lat="44.23878" lon="6.22013">
        <ele>1816.07</ele>
        <time>2017-04-09T11:44:55Z</time>
      </trkpt>
      <trkpt lat="44.23873" lon="6.22024">
        <ele>1813.66</ele>
        <time>2017-04-09T11:45:09Z</time>
      </trkpt>
      <trkpt lat="44.23871" lon="6.22025">
        <ele>1813.66</ele>
        <time>2017-04-09T11:45:11Z</time>
      </trkpt>
      <trkpt lat="44.23859" lon="6.2203">
        <ele>1810.3</ele>
        <time>2017-04-09T11:45:22Z</time>
      </trkpt>
      <trkpt lat="44.23857" lon="6.22033">
        <ele>1812.7</ele>
        <time>2017-04-09T11:45:28Z</time>
      </trkpt>
      <trkpt lat="44.23857" lon="6.22032">
        <ele>1812.7</ele>
        <time>2017-04-09T11:46:00Z</time>
      </trkpt>
      <trkpt lat="44.23857" lon="6.22036">
        <ele>1813.18</ele>
        <time>2017-04-09T11:46:03Z</time>
      </trkpt>
      <trkpt lat="44.23858" lon="6.22049">
        <ele>1811.26</ele>
        <time>2017-04-09T11:46:12Z</time>
      </trkpt>
      <trkpt lat="44.23859" lon="6.22051">
        <ele>1810.3</ele>
        <time>2017-04-09T11:46:14Z</time>
      </trkpt>
      <trkpt lat="44.23862" lon="6.22068">
        <ele>1806.94</ele>
        <time>2017-04-09T11:46:27Z</time>
      </trkpt>
      <trkpt lat="44.23862" lon="6.22075">
        <ele>1806.45</ele>
        <time>2017-04-09T11:46:31Z</time>
      </trkpt>
      <trkpt lat="44.2386" lon="6.22089">
        <ele>1805.49</ele>
        <time>2017-04-09T11:46:40Z</time>
      </trkpt>
      <trkpt lat="44.23858" lon="6.22093">
        <ele>1805.49</ele>
        <time>2017-04-09T11:46:43Z</time>
      </trkpt>
      <trkpt lat="44.23854" lon="6.22104">
        <ele>1805.49</ele>
        <time>2017-04-09T11:46:52Z</time>
      </trkpt>
      <trkpt lat="44.23855" lon="6.22125">
        <ele>1805.01</ele>
        <time>2017-04-09T11:47:06Z</time>
      </trkpt>
      <trkpt lat="44.23855" lon="6.2213">
        <ele>1803.57</ele>
        <time>2017-04-09T11:47:11Z</time>
      </trkpt>
      <trkpt lat="44.23849" lon="6.2215">
        <ele>1800.69</ele>
        <time>2017-04-09T11:47:27Z</time>
      </trkpt>
      <trkpt lat="44.23849" lon="6.22152">
        <ele>1799.24</ele>
        <time>2017-04-09T11:47:29Z</time>
      </trkpt>
      <trkpt lat="44.23849" lon="6.22169">
        <ele>1797.32</ele>
        <time>2017-04-09T11:47:42Z</time>
      </trkpt>
      <trkpt lat="44.23849" lon="6.22186">
        <ele>1794.92</ele>
        <time>2017-04-09T11:48:00Z</time>
      </trkpt>
      <trkpt lat="44.23848" lon="6.22199">
        <ele>1792.03</ele>
        <time>2017-04-09T11:48:19Z</time>
      </trkpt>
      <trkpt lat="44.2385" lon="6.22204">
        <ele>1788.67</ele>
        <time>2017-04-09T11:48:29Z</time>
      </trkpt>
      <trkpt lat="44.2385" lon="6.22213">
        <ele>1786.27</ele>
        <time>2017-04-09T11:48:43Z</time>
      </trkpt>
      <trkpt lat="44.23847" lon="6.2222">
        <ele>1782.9</ele>
        <time>2017-04-09T11:48:56Z</time>
      </trkpt>
      <trkpt lat="44.23847" lon="6.22231">
        <ele>1779.54</ele>
        <time>2017-04-09T11:49:10Z</time>
      </trkpt>
      <trkpt lat="44.23845" lon="6.22241">
        <ele>1776.65</ele>
        <time>2017-04-09T11:49:25Z</time>
      </trkpt>
      <trkpt lat="44.23842" lon="6.22253">
        <ele>1774.25</ele>
        <time>2017-04-09T11:49:41Z</time>
      </trkpt>
      <trkpt lat="44.23842" lon="6.22265">
        <ele>1771.85</ele>
        <time>2017-04-09T11:49:59Z</time>
      </trkpt>
      <trkpt lat="44.23841" lon="6.22271">
        <ele>1768.96</ele>
        <time>2017-04-09T11:50:08Z</time>
      </trkpt>
      <trkpt lat="44.2384" lon="6.22276">
        <ele>1768.48</ele>
        <time>2017-04-09T11:50:13Z</time>
      </trkpt>
      <trkpt lat="44.23838" lon="6.22289">
        <ele>1765.6</ele>
        <time>2017-04-09T11:50:27Z</time>
      </trkpt>
      <trkpt lat="44.23838" lon="6.22303">
        <ele>1762.71</ele>
        <time>2017-04-09T11:50:44Z</time>
      </trkpt>
      <trkpt lat="44.23838" lon="6.22319">
        <ele>1761.75</ele>
        <time>2017-04-09T11:51:00Z</time>
      </trkpt>
      <trkpt lat="44.23838" lon="6.2232">
        <ele>1760.79</ele>
        <time>2017-04-09T11:51:02Z</time>
      </trkpt>
      <trkpt lat="44.23839" lon="6.22322">
        <ele>1760.31</ele>
        <time>2017-04-09T11:51:14Z</time>
      </trkpt>
      <trkpt lat="44.23838" lon="6.22332">
        <ele>1759.83</ele>
        <time>2017-04-09T11:51:27Z</time>
      </trkpt>
      <trkpt lat="44.23834" lon="6.22348">
        <ele>1756.95</ele>
        <time>2017-04-09T11:51:41Z</time>
      </trkpt>
      <trkpt lat="44.23829" lon="6.22372">
        <ele>1754.54</ele>
        <time>2017-04-09T11:52:00Z</time>
      </trkpt>
      <trkpt lat="44.23829" lon="6.22393">
        <ele>1753.58</ele>
        <time>2017-04-09T11:52:17Z</time>
      </trkpt>
      <trkpt lat="44.23829" lon="6.22398">
        <ele>1753.58</ele>
        <time>2017-04-09T11:52:21Z</time>
      </trkpt>
      <trkpt lat="44.23827" lon="6.22417">
        <ele>1751.66</ele>
        <time>2017-04-09T11:52:37Z</time>
      </trkpt>
      <trkpt lat="44.23826" lon="6.22428">
        <ele>1751.66</ele>
        <time>2017-04-09T11:52:45Z</time>
      </trkpt>
      <trkpt lat="44.23825" lon="6.2245">
        <ele>1752.14</ele>
        <time>2017-04-09T11:53:03Z</time>
      </trkpt>
      <trkpt lat="44.23821" lon="6.22459">
        <ele>1749.26</ele>
        <time>2017-04-09T11:53:18Z</time>
      </trkpt>
      <trkpt lat="44.23819" lon="6.22467">
        <ele>1746.85</ele>
        <time>2017-04-09T11:53:32Z</time>
      </trkpt>
      <trkpt lat="44.23819" lon="6.22469">
        <ele>1748.78</ele>
        <time>2017-04-09T11:53:34Z</time>
      </trkpt>
      <trkpt lat="44.23818" lon="6.22472">
        <ele>1747.33</ele>
        <time>2017-04-09T11:53:41Z</time>
      </trkpt>
      <trkpt lat="44.23816" lon="6.22479">
        <ele>1743.01</ele>
        <time>2017-04-09T11:53:53Z</time>
      </trkpt>
      <trkpt lat="44.23815" lon="6.2248">
        <ele>1742.05</ele>
        <time>2017-04-09T11:53:55Z</time>
      </trkpt>
      <trkpt lat="44.23811" lon="6.22487">
        <ele>1740.12</ele>
        <time>2017-04-09T11:54:06Z</time>
      </trkpt>
      <trkpt lat="44.23807" lon="6.22493">
        <ele>1737.24</ele>
        <time>2017-04-09T11:54:14Z</time>
      </trkpt>
      <trkpt lat="44.23801" lon="6.22504">
        <ele>1733.88</ele>
        <time>2017-04-09T11:54:29Z</time>
      </trkpt>
      <trkpt lat="44.23793" lon="6.22515">
        <ele>1730.99</ele>
        <time>2017-04-09T11:54:45Z</time>
      </trkpt>
      <trkpt lat="44.23792" lon="6.22515">
        <ele>1729.07</ele>
        <time>2017-04-09T11:54:59Z</time>
      </trkpt>
      <trkpt lat="44.23789" lon="6.22498">
        <ele>1726.67</ele>
        <time>2017-04-09T11:55:17Z</time>
      </trkpt>
      <trkpt lat="44.23787" lon="6.22484">
        <ele>1723.3</ele>
        <time>2017-04-09T11:55:32Z</time>
      </trkpt>
      <trkpt lat="44.23785" lon="6.22481">
        <ele>1721.86</ele>
        <time>2017-04-09T11:55:36Z</time>
      </trkpt>
      <trkpt lat="44.23781" lon="6.22467">
        <ele>1718.97</ele>
        <time>2017-04-09T11:55:54Z</time>
      </trkpt>
      <trkpt lat="44.23777" lon="6.22455">
        <ele>1715.61</ele>
        <time>2017-04-09T11:56:07Z</time>
      </trkpt>
      <trkpt lat="44.23772" lon="6.22442">
        <ele>1712.73</ele>
        <time>2017-04-09T11:56:24Z</time>
      </trkpt>
      <trkpt lat="44.23768" lon="6.22434">
        <ele>1710.8</ele>
        <time>2017-04-09T11:56:40Z</time>
      </trkpt>
      <trkpt lat="44.23762" lon="6.22421">
        <ele>1707.92</ele>
        <time>2017-04-09T11:56:57Z</time>
      </trkpt>
      <trkpt lat="44.23757" lon="6.22407">
        <ele>1704.55</ele>
        <time>2017-04-09T11:57:12Z</time>
      </trkpt>
      <trkpt lat="44.23753" lon="6.22396">
        <ele>1702.15</ele>
        <time>2017-04-09T11:57:29Z</time>
      </trkpt>
      <trkpt lat="44.23748" lon="6.22387">
        <ele>1699.27</ele>
        <time>2017-04-09T11:57:49Z</time>
      </trkpt>
      <trkpt lat="44.23741" lon="6.22375">
        <ele>1696.38</ele>
        <time>2017-04-09T11:58:04Z</time>
      </trkpt>
      <trkpt lat="44.23736" lon="6.22365">
        <ele>1693.02</ele>
        <time>2017-04-09T11:58:17Z</time>
      </trkpt>
      <trkpt lat="44.23728" lon="6.22347">
        <ele>1690.62</ele>
        <time>2017-04-09T11:58:35Z</time>
      </trkpt>
      <trkpt lat="44.23722" lon="6.22336">
        <ele>1687.25</ele>
        <time>2017-04-09T11:58:48Z</time>
      </trkpt>
      <trkpt lat="44.23714" lon="6.22323">
        <ele>1683.89</ele>
        <time>2017-04-09T11:59:04Z</time>
      </trkpt>
      <trkpt lat="44.23706" lon="6.22311">
        <ele>1681</ele>
        <time>2017-04-09T11:59:20Z</time>
      </trkpt>
      <trkpt lat="44.23699" lon="6.22302">
        <ele>1678.6</ele>
        <time>2017-04-09T11:59:33Z</time>
      </trkpt>
      <trkpt lat="44.23693" lon="6.22286">
        <ele>1678.12</ele>
        <time>2017-04-09T11:59:49Z</time>
      </trkpt>
      <trkpt lat="44.23683" lon="6.22259">
        <ele>1675.72</ele>
        <time>2017-04-09T12:00:09Z</time>
      </trkpt>
      <trkpt lat="44.23675" lon="6.22233">
        <ele>1673.31</ele>
        <time>2017-04-09T12:00:26Z</time>
      </trkpt>
      <trkpt lat="44.23672" lon="6.22222">
        <ele>1672.35</ele>
        <time>2017-04-09T12:00:39Z</time>
      </trkpt>
      <trkpt lat="44.23663" lon="6.22199">
        <ele>1669.47</ele>
        <time>2017-04-09T12:00:57Z</time>
      </trkpt>
      <trkpt lat="44.23657" lon="6.22178">
        <ele>1667.54</ele>
        <time>2017-04-09T12:01:12Z</time>
      </trkpt>
      <trkpt lat="44.23649" lon="6.22154">
        <ele>1666.58</ele>
        <time>2017-04-09T12:01:29Z</time>
      </trkpt>
      <trkpt lat="44.23642" lon="6.22128">
        <ele>1664.66</ele>
        <time>2017-04-09T12:01:47Z</time>
      </trkpt>
      <trkpt lat="44.23636" lon="6.22108">
        <ele>1662.74</ele>
        <time>2017-04-09T12:02:01Z</time>
      </trkpt>
      <trkpt lat="44.23625" lon="6.22093">
        <ele>1660.81</ele>
        <time>2017-04-09T12:02:14Z</time>
      </trkpt>
      <trkpt lat="44.23611" lon="6.2207">
        <ele>1657.93</ele>
        <time>2017-04-09T12:02:34Z</time>
      </trkpt>
      <trkpt lat="44.23601" lon="6.22039">
        <ele>1655.53</ele>
        <time>2017-04-09T12:02:55Z</time>
      </trkpt>
      <trkpt lat="44.23595" lon="6.22014">
        <ele>1654.57</ele>
        <time>2017-04-09T12:03:10Z</time>
      </trkpt>
      <trkpt lat="44.23591" lon="6.21986">
        <ele>1654.09</ele>
        <time>2017-04-09T12:03:29Z</time>
      </trkpt>
      <trkpt lat="44.23595" lon="6.21954">
        <ele>1653.12</ele>
        <time>2017-04-09T12:03:49Z</time>
      </trkpt>
      <trkpt lat="44.23605" lon="6.21928">
        <ele>1650.72</ele>
        <time>2017-04-09T12:04:08Z</time>
      </trkpt>
      <trkpt lat="44.23607" lon="6.21926">
        <ele>1650.72</ele>
        <time>2017-04-09T12:04:10Z</time>
      </trkpt>
      <trkpt lat="44.23609" lon="6.2192">
        <ele>1650.24</ele>
        <time>2017-04-09T12:04:14Z</time>
      </trkpt>
      <trkpt lat="44.23609" lon="6.21917">
        <ele>1650.24</ele>
        <time>2017-04-09T12:04:16Z</time>
      </trkpt>
      <trkpt lat="44.23595" lon="6.21894">
        <ele>1647.36</ele>
        <time>2017-04-09T12:04:35Z</time>
      </trkpt>
      <trkpt lat="44.23587" lon="6.21878">
        <ele>1646.4</ele>
        <time>2017-04-09T12:04:50Z</time>
      </trkpt>
      <trkpt lat="44.2358" lon="6.21852">
        <ele>1644.95</ele>
        <time>2017-04-09T12:05:08Z</time>
      </trkpt>
      <trkpt lat="44.2358" lon="6.21844">
        <ele>1643.99</ele>
        <time>2017-04-09T12:05:22Z</time>
      </trkpt>
      <trkpt lat="44.23581" lon="6.21843">
        <ele>1643.51</ele>
        <time>2017-04-09T12:05:36Z</time>
      </trkpt>
      <trkpt lat="44.23579" lon="6.21842">
        <ele>1643.51</ele>
        <time>2017-04-09T12:06:03Z</time>
      </trkpt>
      <trkpt lat="44.23579" lon="6.21842">
        <ele>1643.51</ele>
        <time>2017-04-09T12:06:04Z</time>
      </trkpt>
      <trkpt lat="44.23578" lon="6.21843">
        <ele>1643.51</ele>
        <time>2017-04-09T12:06:20Z</time>
      </trkpt>
      <trkpt lat="44.23579" lon="6.21838">
        <ele>1643.51</ele>
        <time>2017-04-09T12:06:35Z</time>
      </trkpt>
      <trkpt lat="44.2358" lon="6.21815">
        <ele>1640.15</ele>
        <time>2017-04-09T12:06:53Z</time>
      </trkpt>
      <trkpt lat="44.23576" lon="6.21803">
        <ele>1637.26</ele>
        <time>2017-04-09T12:07:04Z</time>
      </trkpt>
      <trkpt lat="44.23581" lon="6.21781">
        <ele>1635.34</ele>
        <time>2017-04-09T12:07:21Z</time>
      </trkpt>
      <trkpt lat="44.23572" lon="6.21761">
        <ele>1631.98</ele>
        <time>2017-04-09T12:07:38Z</time>
      </trkpt>
      <trkpt lat="44.23568" lon="6.21746">
        <ele>1628.61</ele>
        <time>2017-04-09T12:07:50Z</time>
      </trkpt>
      <trkpt lat="44.23567" lon="6.21745">
        <ele>1628.61</ele>
        <time>2017-04-09T12:07:51Z</time>
      </trkpt>
      <trkpt lat="44.23564" lon="6.2172">
        <ele>1624.77</ele>
        <time>2017-04-09T12:08:08Z</time>
      </trkpt>
      <trkpt lat="44.2356" lon="6.217">
        <ele>1621.88</ele>
        <time>2017-04-09T12:08:24Z</time>
      </trkpt>
      <trkpt lat="44.23554" lon="6.21672">
        <ele>1619</ele>
        <time>2017-04-09T12:08:45Z</time>
      </trkpt>
      <trkpt lat="44.23548" lon="6.21652">
        <ele>1616.11</ele>
        <time>2017-04-09T12:09:00Z</time>
      </trkpt>
      <trkpt lat="44.23544" lon="6.21634">
        <ele>1612.75</ele>
        <time>2017-04-09T12:09:16Z</time>
      </trkpt>
      <trkpt lat="44.23539" lon="6.21614">
        <ele>1609.86</ele>
        <time>2017-04-09T12:09:32Z</time>
      </trkpt>
      <trkpt lat="44.2354" lon="6.21593">
        <ele>1608.42</ele>
        <time>2017-04-09T12:09:48Z</time>
      </trkpt>
      <trkpt lat="44.23539" lon="6.21577">
        <ele>1606.5</ele>
        <time>2017-04-09T12:10:00Z</time>
      </trkpt>
      <trkpt lat="44.23532" lon="6.21562">
        <ele>1603.14</ele>
        <time>2017-04-09T12:10:12Z</time>
      </trkpt>
      <trkpt lat="44.23523" lon="6.21549">
        <ele>1599.77</ele>
        <time>2017-04-09T12:10:26Z</time>
      </trkpt>
      <trkpt lat="44.23518" lon="6.21526">
        <ele>1597.37</ele>
        <time>2017-04-09T12:10:44Z</time>
      </trkpt>
      <trkpt lat="44.23526" lon="6.21511">
        <ele>1594.96</ele>
        <time>2017-04-09T12:10:59Z</time>
      </trkpt>
      <trkpt lat="44.23528" lon="6.21507">
        <ele>1593.52</ele>
        <time>2017-04-09T12:11:04Z</time>
      </trkpt>
      <trkpt lat="44.23522" lon="6.21496">
        <ele>1594.48</ele>
        <time>2017-04-09T12:11:16Z</time>
      </trkpt>
      <trkpt lat="44.23515" lon="6.2149">
        <ele>1595.45</ele>
        <time>2017-04-09T12:11:32Z</time>
      </trkpt>
      <trkpt lat="44.23512" lon="6.21475">
        <ele>1595.45</ele>
        <time>2017-04-09T12:11:45Z</time>
      </trkpt>
      <trkpt lat="44.23516" lon="6.21456">
        <ele>1594</ele>
        <time>2017-04-09T12:11:58Z</time>
      </trkpt>
      <trkpt lat="44.23506" lon="6.21439">
        <ele>1593.04</ele>
        <time>2017-04-09T12:12:13Z</time>
      </trkpt>
      <trkpt lat="44.23508" lon="6.21422">
        <ele>1591.12</ele>
        <time>2017-04-09T12:12:27Z</time>
      </trkpt>
      <trkpt lat="44.23498" lon="6.21407">
        <ele>1588.24</ele>
        <time>2017-04-09T12:12:41Z</time>
      </trkpt>
      <trkpt lat="44.23492" lon="6.21393">
        <ele>1584.87</ele>
        <time>2017-04-09T12:12:57Z</time>
      </trkpt>
      <trkpt lat="44.23488" lon="6.21379">
        <ele>1581.51</ele>
        <time>2017-04-09T12:13:10Z</time>
      </trkpt>
      <trkpt lat="44.23492" lon="6.21361">
        <ele>1578.62</ele>
        <time>2017-04-09T12:13:27Z</time>
      </trkpt>
      <trkpt lat="44.23495" lon="6.21355">
        <ele>1577.66</ele>
        <time>2017-04-09T12:13:32Z</time>
      </trkpt>
      <trkpt lat="44.23505" lon="6.2133">
        <ele>1576.22</ele>
        <time>2017-04-09T12:13:50Z</time>
      </trkpt>
      <trkpt lat="44.23508" lon="6.21323">
        <ele>1575.26</ele>
        <time>2017-04-09T12:13:55Z</time>
      </trkpt>
      <trkpt lat="44.23513" lon="6.21294">
        <ele>1574.3</ele>
        <time>2017-04-09T12:14:14Z</time>
      </trkpt>
      <trkpt lat="44.2352" lon="6.21273">
        <ele>1575.74</ele>
        <time>2017-04-09T12:14:32Z</time>
      </trkpt>
      <trkpt lat="44.23528" lon="6.21255">
        <ele>1577.66</ele>
        <time>2017-04-09T12:14:50Z</time>
      </trkpt>
      <trkpt lat="44.23532" lon="6.2125">
        <ele>1577.66</ele>
        <time>2017-04-09T12:14:55Z</time>
      </trkpt>
      <trkpt lat="44.23532" lon="6.21233">
        <ele>1579.58</ele>
        <time>2017-04-09T12:15:12Z</time>
      </trkpt>
      <trkpt lat="44.23531" lon="6.21232">
        <ele>1579.58</ele>
        <time>2017-04-09T12:15:16Z</time>
      </trkpt>
      <trkpt lat="44.23531" lon="6.21212">
        <ele>1579.58</ele>
        <time>2017-04-09T12:15:33Z</time>
      </trkpt>
      <trkpt lat="44.23532" lon="6.21203">
        <ele>1578.14</ele>
        <time>2017-04-09T12:15:39Z</time>
      </trkpt>
      <trkpt lat="44.23532" lon="6.212">
        <ele>1578.14</ele>
        <time>2017-04-09T12:15:41Z</time>
      </trkpt>
      <trkpt lat="44.23526" lon="6.21168">
        <ele>1576.22</ele>
        <time>2017-04-09T12:16:01Z</time>
      </trkpt>
      <trkpt lat="44.23525" lon="6.21145">
        <ele>1574.78</ele>
        <time>2017-04-09T12:16:16Z</time>
      </trkpt>
      <trkpt lat="44.23527" lon="6.21119">
        <ele>1571.89</ele>
        <time>2017-04-09T12:16:35Z</time>
      </trkpt>
      <trkpt lat="44.23519" lon="6.21094">
        <ele>1569.01</ele>
        <time>2017-04-09T12:16:52Z</time>
      </trkpt>
      <trkpt lat="44.23508" lon="6.21075">
        <ele>1566.61</ele>
        <time>2017-04-09T12:17:10Z</time>
      </trkpt>
      <trkpt lat="44.23505" lon="6.21048">
        <ele>1563.72</ele>
        <time>2017-04-09T12:17:30Z</time>
      </trkpt>
      <trkpt lat="44.2351" lon="6.21037">
        <ele>1563.24</ele>
        <time>2017-04-09T12:17:39Z</time>
      </trkpt>
      <trkpt lat="44.2352" lon="6.2103">
        <ele>1563.72</ele>
        <time>2017-04-09T12:17:51Z</time>
      </trkpt>
      <trkpt lat="44.2353" lon="6.21015">
        <ele>1564.68</ele>
        <time>2017-04-09T12:18:07Z</time>
      </trkpt>
      <trkpt lat="44.23532" lon="6.21012">
        <ele>1563.24</ele>
        <time>2017-04-09T12:18:10Z</time>
      </trkpt>
      <trkpt lat="44.23541" lon="6.20997">
        <ele>1559.88</ele>
        <time>2017-04-09T12:18:24Z</time>
      </trkpt>
      <trkpt lat="44.23551" lon="6.20978">
        <ele>1556.99</ele>
        <time>2017-04-09T12:18:41Z</time>
      </trkpt>
      <trkpt lat="44.23557" lon="6.2095">
        <ele>1555.55</ele>
        <time>2017-04-09T12:19:00Z</time>
      </trkpt>
      <trkpt lat="44.23565" lon="6.20938">
        <ele>1555.07</ele>
        <time>2017-04-09T12:19:14Z</time>
      </trkpt>
      <trkpt lat="44.23562" lon="6.20914">
        <ele>1552.67</ele>
        <time>2017-04-09T12:19:28Z</time>
      </trkpt>
      <trkpt lat="44.23561" lon="6.20906">
        <ele>1551.71</ele>
        <time>2017-04-09T12:19:35Z</time>
      </trkpt>
      <trkpt lat="44.23567" lon="6.20895">
        <ele>1548.34</ele>
        <time>2017-04-09T12:19:48Z</time>
      </trkpt>
      <trkpt lat="44.23576" lon="6.20893">
        <ele>1544.98</ele>
        <time>2017-04-09T12:19:58Z</time>
      </trkpt>
      <trkpt lat="44.23591" lon="6.20896">
        <ele>1542.09</ele>
        <time>2017-04-09T12:20:12Z</time>
      </trkpt>
      <trkpt lat="44.23604" lon="6.20891">
        <ele>1539.21</ele>
        <time>2017-04-09T12:20:27Z</time>
      </trkpt>
      <trkpt lat="44.23608" lon="6.20879">
        <ele>1537.29</ele>
        <time>2017-04-09T12:20:36Z</time>
      </trkpt>
      <trkpt lat="44.23606" lon="6.20875">
        <ele>1536.32</ele>
        <time>2017-04-09T12:20:39Z</time>
      </trkpt>
      <trkpt lat="44.23605" lon="6.20854">
        <ele>1533.92</ele>
        <time>2017-04-09T12:20:55Z</time>
      </trkpt>
      <trkpt lat="44.23598" lon="6.20845">
        <ele>1534.88</ele>
        <time>2017-04-09T12:21:03Z</time>
      </trkpt>
      <trkpt lat="44.23591" lon="6.2082">
        <ele>1533.44</ele>
        <time>2017-04-09T12:21:21Z</time>
      </trkpt>
      <trkpt lat="44.23587" lon="6.20806">
        <ele>1533.44</ele>
        <time>2017-04-09T12:21:33Z</time>
      </trkpt>
      <trkpt lat="44.23573" lon="6.20797">
        <ele>1532</ele>
        <time>2017-04-09T12:21:49Z</time>
      </trkpt>
      <trkpt lat="44.2357" lon="6.20796">
        <ele>1531.04</ele>
        <time>2017-04-09T12:21:53Z</time>
      </trkpt>
      <trkpt lat="44.23564" lon="6.20791">
        <ele>1529.59</ele>
        <time>2017-04-09T12:22:00Z</time>
      </trkpt>
      <trkpt lat="44.23556" lon="6.20785">
        <ele>1527.19</ele>
        <time>2017-04-09T12:22:11Z</time>
      </trkpt>
      <trkpt lat="44.23551" lon="6.20774">
        <ele>1524.31</ele>
        <time>2017-04-09T12:22:24Z</time>
      </trkpt>
      <trkpt lat="44.23537" lon="6.20771">
        <ele>1521.42</ele>
        <time>2017-04-09T12:22:37Z</time>
      </trkpt>
      <trkpt lat="44.23533" lon="6.20769">
        <ele>1521.42</ele>
        <time>2017-04-09T12:22:40Z</time>
      </trkpt>
      <trkpt lat="44.23525" lon="6.20768">
        <ele>1520.46</ele>
        <time>2017-04-09T12:22:46Z</time>
      </trkpt>
      <trkpt lat="44.23516" lon="6.20765">
        <ele>1518.54</ele>
        <time>2017-04-09T12:22:56Z</time>
      </trkpt>
      <trkpt lat="44.23507" lon="6.20755">
        <ele>1514.69</ele>
        <time>2017-04-09T12:23:07Z</time>
      </trkpt>
      <trkpt lat="44.23491" lon="6.20754">
        <ele>1511.33</ele>
        <time>2017-04-09T12:23:23Z</time>
      </trkpt>
      <trkpt lat="44.23476" lon="6.20754">
        <ele>1508.45</ele>
        <time>2017-04-09T12:23:38Z</time>
      </trkpt>
      <trkpt lat="44.23469" lon="6.20748">
        <ele>1505.08</ele>
        <time>2017-04-09T12:23:50Z</time>
      </trkpt>
      <trkpt lat="44.23468" lon="6.20747">
        <ele>1505.08</ele>
        <time>2017-04-09T12:23:51Z</time>
      </trkpt>
      <trkpt lat="44.23462" lon="6.20747">
        <ele>1503.16</ele>
        <time>2017-04-09T12:23:58Z</time>
      </trkpt>
      <trkpt lat="44.23453" lon="6.20739">
        <ele>1499.31</ele>
        <time>2017-04-09T12:24:11Z</time>
      </trkpt>
      <trkpt lat="44.23438" lon="6.20732">
        <ele>1496.91</ele>
        <time>2017-04-09T12:24:26Z</time>
      </trkpt>
      <trkpt lat="44.23431" lon="6.20728">
        <ele>1493.55</ele>
        <time>2017-04-09T12:24:36Z</time>
      </trkpt>
      <trkpt lat="44.23424" lon="6.20713">
        <ele>1491.14</ele>
        <time>2017-04-09T12:24:50Z</time>
      </trkpt>
      <trkpt lat="44.23411" lon="6.20704">
        <ele>1487.78</ele>
        <time>2017-04-09T12:25:05Z</time>
      </trkpt>
      <trkpt lat="44.23398" lon="6.20694">
        <ele>1484.41</ele>
        <time>2017-04-09T12:25:21Z</time>
      </trkpt>
      <trkpt lat="44.23389" lon="6.20684">
        <ele>1482.97</ele>
        <time>2017-04-09T12:25:35Z</time>
      </trkpt>
      <trkpt lat="44.23377" lon="6.2067">
        <ele>1480.57</ele>
        <time>2017-04-09T12:25:49Z</time>
      </trkpt>
      <trkpt lat="44.23361" lon="6.20657">
        <ele>1479.13</ele>
        <time>2017-04-09T12:26:05Z</time>
      </trkpt>
      <trkpt lat="44.23348" lon="6.20642">
        <ele>1478.65</ele>
        <time>2017-04-09T12:26:20Z</time>
      </trkpt>
      <trkpt lat="44.23346" lon="6.20635">
        <ele>1478.16</ele>
        <time>2017-04-09T12:26:30Z</time>
      </trkpt>
      <trkpt lat="44.2333" lon="6.20618">
        <ele>1476.24</ele>
        <time>2017-04-09T12:26:48Z</time>
      </trkpt>
      <trkpt lat="44.23312" lon="6.20608">
        <ele>1474.32</ele>
        <time>2017-04-09T12:27:05Z</time>
      </trkpt>
      <trkpt lat="44.23296" lon="6.20605">
        <ele>1471.44</ele>
        <time>2017-04-09T12:27:20Z</time>
      </trkpt>
      <trkpt lat="44.23286" lon="6.20599">
        <ele>1470.47</ele>
        <time>2017-04-09T12:27:29Z</time>
      </trkpt>
      <trkpt lat="44.2328" lon="6.20594">
        <ele>1469.99</ele>
        <time>2017-04-09T12:27:35Z</time>
      </trkpt>
      <trkpt lat="44.23269" lon="6.20589">
        <ele>1468.55</ele>
        <time>2017-04-09T12:27:47Z</time>
      </trkpt>
      <trkpt lat="44.23259" lon="6.2058">
        <ele>1468.07</ele>
        <time>2017-04-09T12:27:56Z</time>
      </trkpt>
      <trkpt lat="44.23255" lon="6.20571">
        <ele>1466.63</ele>
        <time>2017-04-09T12:28:02Z</time>
      </trkpt>
      <trkpt lat="44.23249" lon="6.20569">
        <ele>1465.67</ele>
        <time>2017-04-09T12:28:07Z</time>
      </trkpt>
      <trkpt lat="44.23235" lon="6.20566">
        <ele>1464.23</ele>
        <time>2017-04-09T12:28:22Z</time>
      </trkpt>
      <trkpt lat="44.2322" lon="6.20551">
        <ele>1461.82</ele>
        <time>2017-04-09T12:28:37Z</time>
      </trkpt>
      <trkpt lat="44.23208" lon="6.20549">
        <ele>1459.9</ele>
        <time>2017-04-09T12:28:51Z</time>
      </trkpt>
      <trkpt lat="44.23198" lon="6.20564">
        <ele>1458.46</ele>
        <time>2017-04-09T12:29:06Z</time>
      </trkpt>
      <trkpt lat="44.23187" lon="6.20585">
        <ele>1456.53</ele>
        <time>2017-04-09T12:29:22Z</time>
      </trkpt>
      <trkpt lat="44.23177" lon="6.20602">
        <ele>1454.61</ele>
        <time>2017-04-09T12:29:37Z</time>
      </trkpt>
      <trkpt lat="44.23168" lon="6.20621">
        <ele>1452.69</ele>
        <time>2017-04-09T12:29:53Z</time>
      </trkpt>
      <trkpt lat="44.23163" lon="6.20636">
        <ele>1450.77</ele>
        <time>2017-04-09T12:30:07Z</time>
      </trkpt>
      <trkpt lat="44.23166" lon="6.20643">
        <ele>1450.77</ele>
        <time>2017-04-09T12:30:22Z</time>
      </trkpt>
      <trkpt lat="44.23165" lon="6.20647">
        <ele>1450.77</ele>
        <time>2017-04-09T12:30:42Z</time>
      </trkpt>
      <trkpt lat="44.23165" lon="6.20644">
        <ele>1450.77</ele>
        <time>2017-04-09T12:31:07Z</time>
      </trkpt>
      <trkpt lat="44.2316" lon="6.20651">
        <ele>1450.29</ele>
        <time>2017-04-09T12:31:23Z</time>
      </trkpt>
      <trkpt lat="44.23159" lon="6.20653">
        <ele>1449.32</ele>
        <time>2017-04-09T12:31:25Z</time>
      </trkpt>
      <trkpt lat="44.23157" lon="6.20673">
        <ele>1447.4</ele>
        <time>2017-04-09T12:31:40Z</time>
      </trkpt>
      <trkpt lat="44.23156" lon="6.2068">
        <ele>1447.4</ele>
        <time>2017-04-09T12:31:45Z</time>
      </trkpt>
      <trkpt lat="44.23156" lon="6.20688">
        <ele>1446.92</ele>
        <time>2017-04-09T12:31:52Z</time>
      </trkpt>
      <trkpt lat="44.23153" lon="6.20697">
        <ele>1446.44</ele>
        <time>2017-04-09T12:31:58Z</time>
      </trkpt>
      <trkpt lat="44.23145" lon="6.2071">
        <ele>1445.48</ele>
        <time>2017-04-09T12:32:11Z</time>
      </trkpt>
      <trkpt lat="44.23145" lon="6.20711">
        <ele>1445.48</ele>
        <time>2017-04-09T12:32:12Z</time>
      </trkpt>
      <trkpt lat="44.23135" lon="6.20731">
        <ele>1443.08</ele>
        <time>2017-04-09T12:32:29Z</time>
      </trkpt>
      <trkpt lat="44.23127" lon="6.2074">
        <ele>1441.15</ele>
        <time>2017-04-09T12:32:42Z</time>
      </trkpt>
      <trkpt lat="44.23123" lon="6.20745">
        <ele>1439.71</ele>
        <time>2017-04-09T12:32:54Z</time>
      </trkpt>
      <trkpt lat="44.2312" lon="6.20758">
        <ele>1436.83</ele>
        <time>2017-04-09T12:33:09Z</time>
      </trkpt>
      <trkpt lat="44.23119" lon="6.20776">
        <ele>1433.94</ele>
        <time>2017-04-09T12:33:27Z</time>
      </trkpt>
      <trkpt lat="44.23119" lon="6.20787">
        <ele>1431.06</ele>
        <time>2017-04-09T12:33:40Z</time>
      </trkpt>
      <trkpt lat="44.2312" lon="6.20797">
        <ele>1428.66</ele>
        <time>2017-04-09T12:33:53Z</time>
      </trkpt>
      <trkpt lat="44.23122" lon="6.20812">
        <ele>1425.77</ele>
        <time>2017-04-09T12:34:08Z</time>
      </trkpt>
      <trkpt lat="44.23118" lon="6.20823">
        <ele>1422.89</ele>
        <time>2017-04-09T12:34:19Z</time>
      </trkpt>
      <trkpt lat="44.23108" lon="6.20834">
        <ele>1419.52</ele>
        <time>2017-04-09T12:34:33Z</time>
      </trkpt>
      <trkpt lat="44.23102" lon="6.20839">
        <ele>1416.64</ele>
        <time>2017-04-09T12:34:44Z</time>
      </trkpt>
      <trkpt lat="44.23097" lon="6.20841">
        <ele>1414.24</ele>
        <time>2017-04-09T12:35:02Z</time>
      </trkpt>
      <trkpt lat="44.23099" lon="6.20845">
        <ele>1413.28</ele>
        <time>2017-04-09T12:35:09Z</time>
      </trkpt>
      <trkpt lat="44.23092" lon="6.20849">
        <ele>1410.87</ele>
        <time>2017-04-09T12:35:23Z</time>
      </trkpt>
      <trkpt lat="44.23083" lon="6.20848">
        <ele>1408.95</ele>
        <time>2017-04-09T12:35:36Z</time>
      </trkpt>
      <trkpt lat="44.23073" lon="6.20838">
        <ele>1406.07</ele>
        <time>2017-04-09T12:35:52Z</time>
      </trkpt>
      <trkpt lat="44.23069" lon="6.20835">
        <ele>1404.62</ele>
        <time>2017-04-09T12:36:05Z</time>
      </trkpt>
      <trkpt lat="44.23061" lon="6.20837">
        <ele>1403.66</ele>
        <time>2017-04-09T12:36:17Z</time>
      </trkpt>
      <trkpt lat="44.23056" lon="6.20844">
        <ele>1401.74</ele>
        <time>2017-04-09T12:36:26Z</time>
      </trkpt>
      <trkpt lat="44.23047" lon="6.20856">
        <ele>1398.86</ele>
        <time>2017-04-09T12:36:43Z</time>
      </trkpt>
      <trkpt lat="44.23038" lon="6.20863">
        <ele>1396.93</ele>
        <time>2017-04-09T12:36:55Z</time>
      </trkpt>
      <trkpt lat="44.23034" lon="6.20867">
        <ele>1396.45</ele>
        <time>2017-04-09T12:36:58Z</time>
      </trkpt>
      <trkpt lat="44.23018" lon="6.20875">
        <ele>1394.05</ele>
        <time>2017-04-09T12:37:14Z</time>
      </trkpt>
      <trkpt lat="44.2301" lon="6.20878">
        <ele>1393.09</ele>
        <time>2017-04-09T12:37:22Z</time>
      </trkpt>
      <trkpt lat="44.22998" lon="6.20885">
        <ele>1391.65</ele>
        <time>2017-04-09T12:37:34Z</time>
      </trkpt>
      <trkpt lat="44.22986" lon="6.20896">
        <ele>1389.72</ele>
        <time>2017-04-09T12:37:46Z</time>
      </trkpt>
      <trkpt lat="44.22976" lon="6.20907">
        <ele>1388.28</ele>
        <time>2017-04-09T12:38:00Z</time>
      </trkpt>
      <trkpt lat="44.22965" lon="6.20913">
        <ele>1386.36</ele>
        <time>2017-04-09T12:38:13Z</time>
      </trkpt>
      <trkpt lat="44.22956" lon="6.20917">
        <ele>1384.44</ele>
        <time>2017-04-09T12:38:26Z</time>
      </trkpt>
      <trkpt lat="44.22948" lon="6.20925">
        <ele>1382.51</ele>
        <time>2017-04-09T12:38:39Z</time>
      </trkpt>
      <trkpt lat="44.22942" lon="6.2093">
        <ele>1380.59</ele>
        <time>2017-04-09T12:38:51Z</time>
      </trkpt>
      <trkpt lat="44.22929" lon="6.20942">
        <ele>1378.19</ele>
        <time>2017-04-09T12:39:07Z</time>
      </trkpt>
      <trkpt lat="44.22921" lon="6.20944">
        <ele>1376.26</ele>
        <time>2017-04-09T12:39:18Z</time>
      </trkpt>
      <trkpt lat="44.22909" lon="6.20943">
        <ele>1375.3</ele>
        <time>2017-04-09T12:39:32Z</time>
      </trkpt>
      <trkpt lat="44.22898" lon="6.20943">
        <ele>1372.9</ele>
        <time>2017-04-09T12:39:45Z</time>
      </trkpt>
      <trkpt lat="44.22898" lon="6.20943">
        <ele>1372.42</ele>
        <time>2017-04-09T12:39:46Z</time>
      </trkpt>
      <trkpt lat="44.22888" lon="6.20948">
        <ele>1370.5</ele>
        <time>2017-04-09T12:40:00Z</time>
      </trkpt>
      <trkpt lat="44.22886" lon="6.20949">
        <ele>1369.54</ele>
        <time>2017-04-09T12:40:03Z</time>
      </trkpt>
      <trkpt lat="44.2287" lon="6.20949">
        <ele>1368.09</ele>
        <time>2017-04-09T12:40:16Z</time>
      </trkpt>
      <trkpt lat="44.22862" lon="6.20947">
        <ele>1366.65</ele>
        <time>2017-04-09T12:40:24Z</time>
      </trkpt>
      <trkpt lat="44.22852" lon="6.20948">
        <ele>1365.69</ele>
        <time>2017-04-09T12:40:34Z</time>
      </trkpt>
      <trkpt lat="44.22845" lon="6.20947">
        <ele>1364.73</ele>
        <time>2017-04-09T12:40:41Z</time>
      </trkpt>
      <trkpt lat="44.22837" lon="6.20946">
        <ele>1363.77</ele>
        <time>2017-04-09T12:40:48Z</time>
      </trkpt>
      <trkpt lat="44.22828" lon="6.20944">
        <ele>1363.77</ele>
        <time>2017-04-09T12:40:57Z</time>
      </trkpt>
      <trkpt lat="44.22821" lon="6.20939">
        <ele>1363.77</ele>
        <time>2017-04-09T12:41:06Z</time>
      </trkpt>
      <trkpt lat="44.2281" lon="6.20936">
        <ele>1361.84</ele>
        <time>2017-04-09T12:41:19Z</time>
      </trkpt>
      <trkpt lat="44.22804" lon="6.20939">
        <ele>1361.84</ele>
        <time>2017-04-09T12:41:31Z</time>
      </trkpt>
      <trkpt lat="44.22796" lon="6.20947">
        <ele>1362.81</ele>
        <time>2017-04-09T12:41:49Z</time>
      </trkpt>
      <trkpt lat="44.22792" lon="6.2095">
        <ele>1361.36</ele>
        <time>2017-04-09T12:41:54Z</time>
      </trkpt>
      <trkpt lat="44.22788" lon="6.20954">
        <ele>1361.36</ele>
        <time>2017-04-09T12:42:00Z</time>
      </trkpt>
      <trkpt lat="44.22778" lon="6.20962">
        <ele>1361.36</ele>
        <time>2017-04-09T12:42:11Z</time>
      </trkpt>
      <trkpt lat="44.22764" lon="6.20969">
        <ele>1359.92</ele>
        <time>2017-04-09T12:42:24Z</time>
      </trkpt>
      <trkpt lat="44.22754" lon="6.20979">
        <ele>1358.96</ele>
        <time>2017-04-09T12:42:35Z</time>
      </trkpt>
      <trkpt lat="44.22739" lon="6.20993">
        <ele>1357.52</ele>
        <time>2017-04-09T12:42:48Z</time>
      </trkpt>
      <trkpt lat="44.22726" lon="6.21001">
        <ele>1356.56</ele>
        <time>2017-04-09T12:43:01Z</time>
      </trkpt>
      <trkpt lat="44.22713" lon="6.21002">
        <ele>1356.56</ele>
        <time>2017-04-09T12:43:14Z</time>
      </trkpt>
      <trkpt lat="44.22708" lon="6.21007">
        <ele>1354.15</ele>
        <time>2017-04-09T12:43:28Z</time>
      </trkpt>
      <trkpt lat="44.22705" lon="6.21016">
        <ele>1352.23</ele>
        <time>2017-04-09T12:43:38Z</time>
      </trkpt>
      <trkpt lat="44.22694" lon="6.21026">
        <ele>1349.83</ele>
        <time>2017-04-09T12:43:54Z</time>
      </trkpt>
      <trkpt lat="44.22693" lon="6.21026">
        <ele>1347.91</ele>
        <time>2017-04-09T12:44:08Z</time>
      </trkpt>
      <trkpt lat="44.22689" lon="6.21029">
        <ele>1345.5</ele>
        <time>2017-04-09T12:44:19Z</time>
      </trkpt>
      <trkpt lat="44.22693" lon="6.21033">
        <ele>1345.02</ele>
        <time>2017-04-09T12:44:32Z</time>
      </trkpt>
      <trkpt lat="44.22687" lon="6.21033">
        <ele>1344.54</ele>
        <time>2017-04-09T12:44:44Z</time>
      </trkpt>
      <trkpt lat="44.22687" lon="6.2104">
        <ele>1344.54</ele>
        <time>2017-04-09T12:44:57Z</time>
      </trkpt>
      <trkpt lat="44.22689" lon="6.21046">
        <ele>1345.5</ele>
        <time>2017-04-09T12:45:08Z</time>
      </trkpt>
      <trkpt lat="44.2268" lon="6.21054">
        <ele>1345.98</ele>
        <time>2017-04-09T12:45:19Z</time>
      </trkpt>
      <trkpt lat="44.22674" lon="6.21055">
        <ele>1345.98</ele>
        <time>2017-04-09T12:45:31Z</time>
      </trkpt>
      <trkpt lat="44.22669" lon="6.21055">
        <ele>1345.98</ele>
        <time>2017-04-09T12:45:42Z</time>
      </trkpt>
      <trkpt lat="44.22665" lon="6.21055">
        <ele>1345.98</ele>
        <time>2017-04-09T12:45:46Z</time>
      </trkpt>
      <trkpt lat="44.22661" lon="6.21053">
        <ele>1345.98</ele>
        <time>2017-04-09T12:45:51Z</time>
      </trkpt>
      <trkpt lat="44.22651" lon="6.21049">
        <ele>1345.98</ele>
        <time>2017-04-09T12:46:04Z</time>
      </trkpt>
      <trkpt lat="44.22647" lon="6.21048">
        <ele>1344.06</ele>
        <time>2017-04-09T12:46:11Z</time>
      </trkpt>
      <trkpt lat="44.22644" lon="6.21046">
        <ele>1343.58</ele>
        <time>2017-04-09T12:46:14Z</time>
      </trkpt>
      <trkpt lat="44.22631" lon="6.21042">
        <ele>1342.62</ele>
        <time>2017-04-09T12:46:26Z</time>
      </trkpt>
      <trkpt lat="44.22628" lon="6.21044">
        <ele>1342.14</ele>
        <time>2017-04-09T12:46:34Z</time>
      </trkpt>
      <trkpt lat="44.22618" lon="6.21044">
        <ele>1340.7</ele>
        <time>2017-04-09T12:46:46Z</time>
      </trkpt>
      <trkpt lat="44.22616" lon="6.21043">
        <ele>1339.73</ele>
        <time>2017-04-09T12:46:48Z</time>
      </trkpt>
      <trkpt lat="44.2261" lon="6.21043">
        <ele>1339.25</ele>
        <time>2017-04-09T12:46:59Z</time>
      </trkpt>
      <trkpt lat="44.22603" lon="6.21046">
        <ele>1339.25</ele>
        <time>2017-04-09T12:47:10Z</time>
      </trkpt>
      <trkpt lat="44.22591" lon="6.21051">
        <ele>1338.77</ele>
        <time>2017-04-09T12:47:26Z</time>
      </trkpt>
      <trkpt lat="44.22587" lon="6.21054">
        <ele>1338.77</ele>
        <time>2017-04-09T12:47:30Z</time>
      </trkpt>
      <trkpt lat="44.22584" lon="6.21055">
        <ele>1338.29</ele>
        <time>2017-04-09T12:47:34Z</time>
      </trkpt>
      <trkpt lat="44.22577" lon="6.2106">
        <ele>1337.33</ele>
        <time>2017-04-09T12:47:41Z</time>
      </trkpt>
      <trkpt lat="44.22576" lon="6.21062">
        <ele>1337.33</ele>
        <time>2017-04-09T12:47:44Z</time>
      </trkpt>
      <trkpt lat="44.22571" lon="6.21068">
        <ele>1336.85</ele>
        <time>2017-04-09T12:47:57Z</time>
      </trkpt>
      <trkpt lat="44.22567" lon="6.21071">
        <ele>1336.37</ele>
        <time>2017-04-09T12:48:04Z</time>
      </trkpt>
      <trkpt lat="44.22569" lon="6.2108">
        <ele>1337.33</ele>
        <time>2017-04-09T12:48:16Z</time>
      </trkpt>
      <trkpt lat="44.22567" lon="6.21084">
        <ele>1337.33</ele>
        <time>2017-04-09T12:48:20Z</time>
      </trkpt>
      <trkpt lat="44.22557" lon="6.21095">
        <ele>1335.41</ele>
        <time>2017-04-09T12:48:35Z</time>
      </trkpt>
      <trkpt lat="44.2255" lon="6.21106">
        <ele>1333.97</ele>
        <time>2017-04-09T12:48:49Z</time>
      </trkpt>
      <trkpt lat="44.22549" lon="6.2111">
        <ele>1333.01</ele>
        <time>2017-04-09T12:48:52Z</time>
      </trkpt>
      <trkpt lat="44.22544" lon="6.21124">
        <ele>1332.52</ele>
        <time>2017-04-09T12:49:06Z</time>
      </trkpt>
      <trkpt lat="44.22539" lon="6.21129">
        <ele>1333.97</ele>
        <time>2017-04-09T12:49:16Z</time>
      </trkpt>
      <trkpt lat="44.22537" lon="6.2113">
        <ele>1333.97</ele>
        <time>2017-04-09T12:49:18Z</time>
      </trkpt>
      <trkpt lat="44.22527" lon="6.21137">
        <ele>1332.04</ele>
        <time>2017-04-09T12:49:34Z</time>
      </trkpt>
      <trkpt lat="44.22515" lon="6.2115">
        <ele>1329.64</ele>
        <time>2017-04-09T12:49:50Z</time>
      </trkpt>
      <trkpt lat="44.22512" lon="6.21155">
        <ele>1329.16</ele>
        <time>2017-04-09T12:49:56Z</time>
      </trkpt>
      <trkpt lat="44.22511" lon="6.21159">
        <ele>1328.68</ele>
        <time>2017-04-09T12:49:59Z</time>
      </trkpt>
      <trkpt lat="44.22507" lon="6.21163">
        <ele>1328.2</ele>
        <time>2017-04-09T12:50:03Z</time>
      </trkpt>
      <trkpt lat="44.22499" lon="6.21165">
        <ele>1328.2</ele>
        <time>2017-04-09T12:50:13Z</time>
      </trkpt>
      <trkpt lat="44.22479" lon="6.21159">
        <ele>1326.76</ele>
        <time>2017-04-09T12:50:31Z</time>
      </trkpt>
      <trkpt lat="44.2246" lon="6.21149">
        <ele>1325.31</ele>
        <time>2017-04-09T12:50:48Z</time>
      </trkpt>
      <trkpt lat="44.22443" lon="6.21136">
        <ele>1322.91</ele>
        <time>2017-04-09T12:51:05Z</time>
      </trkpt>
      <trkpt lat="44.2244" lon="6.21135">
        <ele>1321.95</ele>
        <time>2017-04-09T12:51:08Z</time>
      </trkpt>
      <trkpt lat="44.22437" lon="6.21132">
        <ele>1321.47</ele>
        <time>2017-04-09T12:51:11Z</time>
      </trkpt>
      <trkpt lat="44.22426" lon="6.21126">
        <ele>1319.07</ele>
        <time>2017-04-09T12:51:22Z</time>
      </trkpt>
      <trkpt lat="44.22418" lon="6.21119">
        <ele>1316.66</ele>
        <time>2017-04-09T12:51:31Z</time>
      </trkpt>
      <trkpt lat="44.22407" lon="6.21122">
        <ele>1315.7</ele>
        <time>2017-04-09T12:51:46Z</time>
      </trkpt>
      <trkpt lat="44.22405" lon="6.21124">
        <ele>1314.74</ele>
        <time>2017-04-09T12:51:50Z</time>
      </trkpt>
      <trkpt lat="44.22403" lon="6.21126">
        <ele>1314.26</ele>
        <time>2017-04-09T12:51:53Z</time>
      </trkpt>
      <trkpt lat="44.22398" lon="6.21142">
        <ele>1312.34</ele>
        <time>2017-04-09T12:52:09Z</time>
      </trkpt>
      <trkpt lat="44.22401" lon="6.21155">
        <ele>1311.38</ele>
        <time>2017-04-09T12:52:21Z</time>
      </trkpt>
      <trkpt lat="44.22398" lon="6.21162">
        <ele>1311.38</ele>
        <time>2017-04-09T12:52:30Z</time>
      </trkpt>
      <trkpt lat="44.22379" lon="6.21158">
        <ele>1311.38</ele>
        <time>2017-04-09T12:52:47Z</time>
      </trkpt>
      <trkpt lat="44.22376" lon="6.21155">
        <ele>1311.38</ele>
        <time>2017-04-09T12:52:50Z</time>
      </trkpt>
      <trkpt lat="44.22371" lon="6.21146">
        <ele>1311.38</ele>
        <time>2017-04-09T12:52:58Z</time>
      </trkpt>
      <trkpt lat="44.22361" lon="6.2114">
        <ele>1310.9</ele>
        <time>2017-04-09T12:53:12Z</time>
      </trkpt>
      <trkpt lat="44.2236" lon="6.2114">
        <ele>1310.9</ele>
        <time>2017-04-09T12:53:13Z</time>
      </trkpt>
      <trkpt lat="44.22346" lon="6.21139">
        <ele>1310.9</ele>
        <time>2017-04-09T12:53:28Z</time>
      </trkpt>
      <trkpt lat="44.22329" lon="6.21138">
        <ele>1312.34</ele>
        <time>2017-04-09T12:53:44Z</time>
      </trkpt>
      <trkpt lat="44.22326" lon="6.21138">
        <ele>1310.9</ele>
        <time>2017-04-09T12:53:48Z</time>
      </trkpt>
      <trkpt lat="44.2232" lon="6.2114">
        <ele>1309.93</ele>
        <time>2017-04-09T12:53:54Z</time>
      </trkpt>
      <trkpt lat="44.22309" lon="6.21149">
        <ele>1308.97</ele>
        <time>2017-04-09T12:54:06Z</time>
      </trkpt>
      <trkpt lat="44.22307" lon="6.21149">
        <ele>1308.97</ele>
        <time>2017-04-09T12:54:12Z</time>
      </trkpt>
      <trkpt lat="44.22303" lon="6.21148">
        <ele>1308.49</ele>
        <time>2017-04-09T12:54:16Z</time>
      </trkpt>
      <trkpt lat="44.22288" lon="6.21145">
        <ele>1309.45</ele>
        <time>2017-04-09T12:54:31Z</time>
      </trkpt>
      <trkpt lat="44.2227" lon="6.21157">
        <ele>1308.01</ele>
        <time>2017-04-09T12:54:50Z</time>
      </trkpt>
      <trkpt lat="44.22265" lon="6.21161">
        <ele>1307.05</ele>
        <time>2017-04-09T12:54:56Z</time>
      </trkpt>
      <trkpt lat="44.22256" lon="6.21182">
        <ele>1303.69</ele>
        <time>2017-04-09T12:55:15Z</time>
      </trkpt>
      <trkpt lat="44.22248" lon="6.21183">
        <ele>1303.69</ele>
        <time>2017-04-09T12:55:27Z</time>
      </trkpt>
      <trkpt lat="44.2224" lon="6.21177">
        <ele>1305.13</ele>
        <time>2017-04-09T12:55:38Z</time>
      </trkpt>
      <trkpt lat="44.22233" lon="6.21177">
        <ele>1304.17</ele>
        <time>2017-04-09T12:55:48Z</time>
      </trkpt>
      <trkpt lat="44.22229" lon="6.21169">
        <ele>1300.8</ele>
        <time>2017-04-09T12:56:01Z</time>
      </trkpt>
      <trkpt lat="44.22221" lon="6.21167">
        <ele>1297.92</ele>
        <time>2017-04-09T12:56:19Z</time>
      </trkpt>
      <trkpt lat="44.22217" lon="6.21164">
        <ele>1294.55</ele>
        <time>2017-04-09T12:56:29Z</time>
      </trkpt>
      <trkpt lat="44.22213" lon="6.21154">
        <ele>1292.15</ele>
        <time>2017-04-09T12:56:42Z</time>
      </trkpt>
      <trkpt lat="44.2221" lon="6.21148">
        <ele>1288.78</ele>
        <time>2017-04-09T12:56:57Z</time>
      </trkpt>
      <trkpt lat="44.22201" lon="6.21145">
        <ele>1285.9</ele>
        <time>2017-04-09T12:57:13Z</time>
      </trkpt>
      <trkpt lat="44.22206" lon="6.21131">
        <ele>1283.98</ele>
        <time>2017-04-09T12:57:29Z</time>
      </trkpt>
      <trkpt lat="44.222" lon="6.21128">
        <ele>1280.61</ele>
        <time>2017-04-09T12:57:43Z</time>
      </trkpt>
      <trkpt lat="44.22185" lon="6.21127">
        <ele>1278.21</ele>
        <time>2017-04-09T12:58:01Z</time>
      </trkpt>
      <trkpt lat="44.22185" lon="6.21119">
        <ele>1275.33</ele>
        <time>2017-04-09T12:58:15Z</time>
      </trkpt>
      <trkpt lat="44.22186" lon="6.2111">
        <ele>1273.4</ele>
        <time>2017-04-09T12:58:31Z</time>
      </trkpt>
      <trkpt lat="44.22179" lon="6.21106">
        <ele>1270.52</ele>
        <time>2017-04-09T12:58:41Z</time>
      </trkpt>
      <trkpt lat="44.22166" lon="6.21103">
        <ele>1266.67</ele>
        <time>2017-04-09T12:58:57Z</time>
      </trkpt>
      <trkpt lat="44.22151" lon="6.21104">
        <ele>1264.27</ele>
        <time>2017-04-09T12:59:14Z</time>
      </trkpt>
      <trkpt lat="44.22145" lon="6.21108">
        <ele>1263.79</ele>
        <time>2017-04-09T12:59:21Z</time>
      </trkpt>
      <trkpt lat="44.2213" lon="6.21122">
        <ele>1261.39</ele>
        <time>2017-04-09T12:59:39Z</time>
      </trkpt>
      <trkpt lat="44.22115" lon="6.2113">
        <ele>1258.98</ele>
        <time>2017-04-09T12:59:58Z</time>
      </trkpt>
      <trkpt lat="44.22122" lon="6.21116">
        <ele>1258.02</ele>
        <time>2017-04-09T13:00:13Z</time>
      </trkpt>
      <trkpt lat="44.22126" lon="6.21106">
        <ele>1255.62</ele>
        <time>2017-04-09T13:00:23Z</time>
      </trkpt>
      <trkpt lat="44.22136" lon="6.21089">
        <ele>1253.7</ele>
        <time>2017-04-09T13:00:41Z</time>
      </trkpt>
      <trkpt lat="44.22143" lon="6.21073">
        <ele>1251.29</ele>
        <time>2017-04-09T13:00:58Z</time>
      </trkpt>
      <trkpt lat="44.22136" lon="6.21077">
        <ele>1249.37</ele>
        <time>2017-04-09T13:01:11Z</time>
      </trkpt>
      <trkpt lat="44.22131" lon="6.21079">
        <ele>1248.41</ele>
        <time>2017-04-09T13:01:17Z</time>
      </trkpt>
      <trkpt lat="44.22116" lon="6.21087">
        <ele>1246.01</ele>
        <time>2017-04-09T13:01:34Z</time>
      </trkpt>
      <trkpt lat="44.22105" lon="6.211">
        <ele>1244.56</ele>
        <time>2017-04-09T13:01:51Z</time>
      </trkpt>
      <trkpt lat="44.22092" lon="6.21106">
        <ele>1242.16</ele>
        <time>2017-04-09T13:02:06Z</time>
      </trkpt>
      <trkpt lat="44.22082" lon="6.21121">
        <ele>1240.24</ele>
        <time>2017-04-09T13:02:23Z</time>
      </trkpt>
      <trkpt lat="44.22071" lon="6.21124">
        <ele>1238.32</ele>
        <time>2017-04-09T13:02:37Z</time>
      </trkpt>
      <trkpt lat="44.22068" lon="6.21125">
        <ele>1237.35</ele>
        <time>2017-04-09T13:02:40Z</time>
      </trkpt>
      <trkpt lat="44.22067" lon="6.21125">
        <ele>1237.35</ele>
        <time>2017-04-09T13:02:42Z</time>
      </trkpt>
      <trkpt lat="44.22055" lon="6.21129">
        <ele>1235.43</ele>
        <time>2017-04-09T13:02:57Z</time>
      </trkpt>
      <trkpt lat="44.2204" lon="6.21135">
        <ele>1232.55</ele>
        <time>2017-04-09T13:03:13Z</time>
      </trkpt>
      <trkpt lat="44.22034" lon="6.21135">
        <ele>1232.55</ele>
        <time>2017-04-09T13:03:26Z</time>
      </trkpt>
      <trkpt lat="44.22025" lon="6.21138">
        <ele>1231.11</ele>
        <time>2017-04-09T13:03:40Z</time>
      </trkpt>
      <trkpt lat="44.22013" lon="6.21148">
        <ele>1229.18</ele>
        <time>2017-04-09T13:03:56Z</time>
      </trkpt>
      <trkpt lat="44.22014" lon="6.2116">
        <ele>1225.82</ele>
        <time>2017-04-09T13:04:08Z</time>
      </trkpt>
      <trkpt lat="44.2201" lon="6.21176">
        <ele>1223.42</ele>
        <time>2017-04-09T13:04:24Z</time>
      </trkpt>
      <trkpt lat="44.2201" lon="6.21181">
        <ele>1222.45</ele>
        <time>2017-04-09T13:04:29Z</time>
      </trkpt>
      <trkpt lat="44.22013" lon="6.21203">
        <ele>1220.53</ele>
        <time>2017-04-09T13:04:44Z</time>
      </trkpt>
      <trkpt lat="44.22012" lon="6.21224">
        <ele>1218.61</ele>
        <time>2017-04-09T13:05:00Z</time>
      </trkpt>
      <trkpt lat="44.2201" lon="6.21233">
        <ele>1217.17</ele>
        <time>2017-04-09T13:05:08Z</time>
      </trkpt>
      <trkpt lat="44.22002" lon="6.21248">
        <ele>1215.24</ele>
        <time>2017-04-09T13:05:28Z</time>
      </trkpt>
      <trkpt lat="44.21991" lon="6.21262">
        <ele>1214.28</ele>
        <time>2017-04-09T13:05:46Z</time>
      </trkpt>
      <trkpt lat="44.21985" lon="6.21264">
        <ele>1215.72</ele>
        <time>2017-04-09T13:05:54Z</time>
      </trkpt>
      <trkpt lat="44.21983" lon="6.21264">
        <ele>1215.72</ele>
        <time>2017-04-09T13:05:55Z</time>
      </trkpt>
      <trkpt lat="44.21979" lon="6.2126">
        <ele>1214.28</ele>
        <time>2017-04-09T13:06:02Z</time>
      </trkpt>
      <trkpt lat="44.21971" lon="6.21245">
        <ele>1211.88</ele>
        <time>2017-04-09T13:06:18Z</time>
      </trkpt>
      <trkpt lat="44.21965" lon="6.21239">
        <ele>1210.44</ele>
        <time>2017-04-09T13:06:34Z</time>
      </trkpt>
      <trkpt lat="44.21953" lon="6.21241">
        <ele>1207.55</ele>
        <time>2017-04-09T13:06:47Z</time>
      </trkpt>
      <trkpt lat="44.21946" lon="6.21249">
        <ele>1206.59</ele>
        <time>2017-04-09T13:07:02Z</time>
      </trkpt>
      <trkpt lat="44.21942" lon="6.21251">
        <ele>1206.59</ele>
        <time>2017-04-09T13:07:14Z</time>
      </trkpt>
      <trkpt lat="44.21933" lon="6.2124">
        <ele>1206.11</ele>
        <time>2017-04-09T13:07:27Z</time>
      </trkpt>
      <trkpt lat="44.21922" lon="6.2123">
        <ele>1205.15</ele>
        <time>2017-04-09T13:07:41Z</time>
      </trkpt>
      <trkpt lat="44.21917" lon="6.2122">
        <ele>1204.19</ele>
        <time>2017-04-09T13:07:56Z</time>
      </trkpt>
      <trkpt lat="44.219" lon="6.21213">
        <ele>1202.27</ele>
        <time>2017-04-09T13:08:14Z</time>
      </trkpt>
      <trkpt lat="44.21899" lon="6.21213">
        <ele>1202.27</ele>
        <time>2017-04-09T13:08:15Z</time>
      </trkpt>
      <trkpt lat="44.21881" lon="6.21212">
        <ele>1199.86</ele>
        <time>2017-04-09T13:08:32Z</time>
      </trkpt>
      <trkpt lat="44.21863" lon="6.21207">
        <ele>1199.38</ele>
        <time>2017-04-09T13:08:48Z</time>
      </trkpt>
      <trkpt lat="44.21851" lon="6.21214">
        <ele>1196.98</ele>
        <time>2017-04-09T13:09:04Z</time>
      </trkpt>
      <trkpt lat="44.21848" lon="6.21213">
        <ele>1196.5</ele>
        <time>2017-04-09T13:09:18Z</time>
      </trkpt>
      <trkpt lat="44.21846" lon="6.21215">
        <ele>1196.5</ele>
        <time>2017-04-09T13:09:53Z</time>
      </trkpt>
      <trkpt lat="44.21845" lon="6.21217">
        <ele>1196.02</ele>
        <time>2017-04-09T13:10:10Z</time>
      </trkpt>
      <trkpt lat="44.21844" lon="6.21222">
        <ele>1196.02</ele>
        <time>2017-04-09T13:10:31Z</time>
      </trkpt>
      <trkpt lat="44.21846" lon="6.21218">
        <ele>1196.5</ele>
        <time>2017-04-09T13:10:50Z</time>
      </trkpt>
      <trkpt lat="44.21846" lon="6.21218">
        <ele>1196.5</ele>
        <time>2017-04-09T13:10:51Z</time>
      </trkpt>
      <trkpt lat="44.21846" lon="6.21218">
        <ele>1195.54</ele>
        <time>2017-04-09T13:11:05Z</time>
      </trkpt>
      <trkpt lat="44.21834" lon="6.21228">
        <ele>1193.13</ele>
        <time>2017-04-09T13:11:22Z</time>
      </trkpt>
      <trkpt lat="44.21827" lon="6.21235">
        <ele>1191.69</ele>
        <time>2017-04-09T13:11:34Z</time>
      </trkpt>
      <trkpt lat="44.21823" lon="6.21239">
        <ele>1189.77</ele>
        <time>2017-04-09T13:11:40Z</time>
      </trkpt>
      <trkpt lat="44.2182" lon="6.21242">
        <ele>1189.77</ele>
        <time>2017-04-09T13:11:45Z</time>
      </trkpt>
      <trkpt lat="44.21813" lon="6.21253">
        <ele>1188.81</ele>
        <time>2017-04-09T13:11:59Z</time>
      </trkpt>
      <trkpt lat="44.21801" lon="6.21265">
        <ele>1187.85</ele>
        <time>2017-04-09T13:12:15Z</time>
      </trkpt>
      <trkpt lat="44.21799" lon="6.21267">
        <ele>1187.37</ele>
        <time>2017-04-09T13:12:18Z</time>
      </trkpt>
      <trkpt lat="44.21793" lon="6.21284">
        <ele>1185.92</ele>
        <time>2017-04-09T13:12:34Z</time>
      </trkpt>
      <trkpt lat="44.21783" lon="6.21295">
        <ele>1183.52</ele>
        <time>2017-04-09T13:12:49Z</time>
      </trkpt>
      <trkpt lat="44.2177" lon="6.21293">
        <ele>1181.6</ele>
        <time>2017-04-09T13:13:04Z</time>
      </trkpt>
      <trkpt lat="44.21762" lon="6.21291">
        <ele>1179.67</ele>
        <time>2017-04-09T13:13:19Z</time>
      </trkpt>
      <trkpt lat="44.21757" lon="6.21292">
        <ele>1178.23</ele>
        <time>2017-04-09T13:13:26Z</time>
      </trkpt>
      <trkpt lat="44.2175" lon="6.21293">
        <ele>1175.83</ele>
        <time>2017-04-09T13:13:37Z</time>
      </trkpt>
      <trkpt lat="44.21742" lon="6.213">
        <ele>1174.39</ele>
        <time>2017-04-09T13:13:52Z</time>
      </trkpt>
      <trkpt lat="44.2174" lon="6.21312">
        <ele>1172.95</ele>
        <time>2017-04-09T13:14:06Z</time>
      </trkpt>
      <trkpt lat="44.21737" lon="6.21323">
        <ele>1171.5</ele>
        <time>2017-04-09T13:14:21Z</time>
      </trkpt>
      <trkpt lat="44.21738" lon="6.21338">
        <ele>1171.02</ele>
        <time>2017-04-09T13:14:36Z</time>
      </trkpt>
      <trkpt lat="44.21735" lon="6.21357">
        <ele>1171.02</ele>
        <time>2017-04-09T13:14:53Z</time>
      </trkpt>
      <trkpt lat="44.21726" lon="6.21378">
        <ele>1170.54</ele>
        <time>2017-04-09T13:15:11Z</time>
      </trkpt>
      <trkpt lat="44.21725" lon="6.2139">
        <ele>1171.98</ele>
        <time>2017-04-09T13:15:24Z</time>
      </trkpt>
      <trkpt lat="44.21718" lon="6.21411">
        <ele>1171.02</ele>
        <time>2017-04-09T13:15:38Z</time>
      </trkpt>
      <trkpt lat="44.21715" lon="6.21409">
        <ele>1170.06</ele>
        <time>2017-04-09T13:15:52Z</time>
      </trkpt>
      <trkpt lat="44.21716" lon="6.21409">
        <ele>1171.5</ele>
        <time>2017-04-09T13:16:14Z</time>
      </trkpt>
      <trkpt lat="44.21717" lon="6.21418">
        <ele>1171.02</ele>
        <time>2017-04-09T13:16:32Z</time>
      </trkpt>
      <trkpt lat="44.21716" lon="6.21433">
        <ele>1171.02</ele>
        <time>2017-04-09T13:16:46Z</time>
      </trkpt>
      <trkpt lat="44.21715" lon="6.21452">
        <ele>1171.02</ele>
        <time>2017-04-09T13:17:01Z</time>
      </trkpt>
      <trkpt lat="44.21715" lon="6.21456">
        <ele>1171.02</ele>
        <time>2017-04-09T13:17:04Z</time>
      </trkpt>
      <trkpt lat="44.21713" lon="6.21473">
        <ele>1171.02</ele>
        <time>2017-04-09T13:17:16Z</time>
      </trkpt>
      <trkpt lat="44.21702" lon="6.21497">
        <ele>1171.02</ele>
        <time>2017-04-09T13:17:32Z</time>
      </trkpt>
      <trkpt lat="44.21699" lon="6.21515">
        <ele>1169.58</ele>
        <time>2017-04-09T13:17:46Z</time>
      </trkpt>
      <trkpt lat="44.21697" lon="6.21532">
        <ele>1169.1</ele>
        <time>2017-04-09T13:18:00Z</time>
      </trkpt>
      <trkpt lat="44.21693" lon="6.21546">
        <ele>1168.14</ele>
        <time>2017-04-09T13:18:13Z</time>
      </trkpt>
      <trkpt lat="44.21682" lon="6.2157">
        <ele>1167.18</ele>
        <time>2017-04-09T13:18:28Z</time>
      </trkpt>
      <trkpt lat="44.21665" lon="6.21585">
        <ele>1166.22</ele>
        <time>2017-04-09T13:18:45Z</time>
      </trkpt>
      <trkpt lat="44.21657" lon="6.2159">
        <ele>1164.77</ele>
        <time>2017-04-09T13:18:53Z</time>
      </trkpt>
      <trkpt lat="44.2165" lon="6.21608">
        <ele>1162.85</ele>
        <time>2017-04-09T13:19:09Z</time>
      </trkpt>
      <trkpt lat="44.21646" lon="6.21619">
        <ele>1161.89</ele>
        <time>2017-04-09T13:19:26Z</time>
      </trkpt>
      <trkpt lat="44.21641" lon="6.21636">
        <ele>1159.97</ele>
        <time>2017-04-09T13:19:40Z</time>
      </trkpt>
      <trkpt lat="44.21638" lon="6.2164">
        <ele>1159.49</ele>
        <time>2017-04-09T13:19:44Z</time>
      </trkpt>
      <trkpt lat="44.21625" lon="6.21648">
        <ele>1158.05</ele>
        <time>2017-04-09T13:20:02Z</time>
      </trkpt>
      <trkpt lat="44.21614" lon="6.21663">
        <ele>1158.05</ele>
        <time>2017-04-09T13:20:19Z</time>
      </trkpt>
      <trkpt lat="44.21611" lon="6.21673">
        <ele>1157.56</ele>
        <time>2017-04-09T13:20:27Z</time>
      </trkpt>
      <trkpt lat="44.21611" lon="6.21688">
        <ele>1157.56</ele>
        <time>2017-04-09T13:20:38Z</time>
      </trkpt>
      <trkpt lat="44.21612" lon="6.21709">
        <ele>1157.56</ele>
        <time>2017-04-09T13:20:55Z</time>
      </trkpt>
      <trkpt lat="44.21621" lon="6.21723">
        <ele>1157.08</ele>
        <time>2017-04-09T13:21:09Z</time>
      </trkpt>
      <trkpt lat="44.21623" lon="6.21731">
        <ele>1157.08</ele>
        <time>2017-04-09T13:21:15Z</time>
      </trkpt>
      <trkpt lat="44.21618" lon="6.21752">
        <ele>1155.64</ele>
        <time>2017-04-09T13:21:29Z</time>
      </trkpt>
      <trkpt lat="44.21614" lon="6.21762">
        <ele>1155.64</ele>
        <time>2017-04-09T13:21:37Z</time>
      </trkpt>
      <trkpt lat="44.216" lon="6.21782">
        <ele>1155.16</ele>
        <time>2017-04-09T13:21:54Z</time>
      </trkpt>
      <trkpt lat="44.21592" lon="6.21799">
        <ele>1154.2</ele>
        <time>2017-04-09T13:22:09Z</time>
      </trkpt>
      <trkpt lat="44.21589" lon="6.21825">
        <ele>1153.24</ele>
        <time>2017-04-09T13:22:27Z</time>
      </trkpt>
      <trkpt lat="44.21591" lon="6.21849">
        <ele>1152.28</ele>
        <time>2017-04-09T13:22:45Z</time>
      </trkpt>
      <trkpt lat="44.21587" lon="6.2187">
        <ele>1151.8</ele>
        <time>2017-04-09T13:23:01Z</time>
      </trkpt>
      <trkpt lat="44.21585" lon="6.21903">
        <ele>1150.84</ele>
        <time>2017-04-09T13:23:20Z</time>
      </trkpt>
      <trkpt lat="44.21588" lon="6.21931">
        <ele>1148.91</ele>
        <time>2017-04-09T13:23:37Z</time>
      </trkpt>
      <trkpt lat="44.21587" lon="6.21962">
        <ele>1148.91</ele>
        <time>2017-04-09T13:23:56Z</time>
      </trkpt>
      <trkpt lat="44.21584" lon="6.21981">
        <ele>1147.95</ele>
        <time>2017-04-09T13:24:12Z</time>
      </trkpt>
      <trkpt lat="44.2158" lon="6.21986">
        <ele>1149.39</ele>
        <time>2017-04-09T13:24:18Z</time>
      </trkpt>
      <trkpt lat="44.21572" lon="6.21994">
        <ele>1148.91</ele>
        <time>2017-04-09T13:24:27Z</time>
      </trkpt>
      <trkpt lat="44.21569" lon="6.21997">
        <ele>1148.91</ele>
        <time>2017-04-09T13:24:30Z</time>
      </trkpt>
      <trkpt lat="44.21565" lon="6.22002">
        <ele>1148.91</ele>
        <time>2017-04-09T13:24:35Z</time>
      </trkpt>
      <trkpt lat="44.2156" lon="6.22005">
        <ele>1147.95</ele>
        <time>2017-04-09T13:24:39Z</time>
      </trkpt>
      <trkpt lat="44.21547" lon="6.22013">
        <ele>1146.51</ele>
        <time>2017-04-09T13:24:54Z</time>
      </trkpt>
      <trkpt lat="44.21533" lon="6.22024">
        <ele>1145.55</ele>
        <time>2017-04-09T13:25:09Z</time>
      </trkpt>
      <trkpt lat="44.21522" lon="6.22027">
        <ele>1143.63</ele>
        <time>2017-04-09T13:25:25Z</time>
      </trkpt>
      <trkpt lat="44.21515" lon="6.22035">
        <ele>1141.22</ele>
        <time>2017-04-09T13:25:38Z</time>
      </trkpt>
      <trkpt lat="44.21508" lon="6.2205">
        <ele>1138.82</ele>
        <time>2017-04-09T13:25:56Z</time>
      </trkpt>
      <trkpt lat="44.21505" lon="6.2206">
        <ele>1135.94</ele>
        <time>2017-04-09T13:26:10Z</time>
      </trkpt>
      <trkpt lat="44.21498" lon="6.22051">
        <ele>1133.53</ele>
        <time>2017-04-09T13:26:25Z</time>
      </trkpt>
      <trkpt lat="44.21497" lon="6.22056">
        <ele>1133.53</ele>
        <time>2017-04-09T13:26:38Z</time>
      </trkpt>
      <trkpt lat="44.215" lon="6.22064">
        <ele>1132.57</ele>
        <time>2017-04-09T13:26:52Z</time>
      </trkpt>
      <trkpt lat="44.21502" lon="6.22077">
        <ele>1129.21</ele>
        <time>2017-04-09T13:27:10Z</time>
      </trkpt>
      <trkpt lat="44.21505" lon="6.22076">
        <ele>1130.17</ele>
        <time>2017-04-09T13:27:33Z</time>
      </trkpt>
      <trkpt lat="44.21506" lon="6.22076">
        <ele>1130.17</ele>
        <time>2017-04-09T13:27:50Z</time>
      </trkpt>
      <trkpt lat="44.21507" lon="6.22077">
        <ele>1130.17</ele>
        <time>2017-04-09T13:28:19Z</time>
      </trkpt>
      <trkpt lat="44.21504" lon="6.22079">
        <ele>1130.65</ele>
        <time>2017-04-09T13:28:31Z</time>
      </trkpt>
      <trkpt lat="44.21497" lon="6.22082">
        <ele>1129.21</ele>
        <time>2017-04-09T13:28:38Z</time>
      </trkpt>
      <trkpt lat="44.21479" lon="6.22067">
        <ele>1125.84</ele>
        <time>2017-04-09T13:28:57Z</time>
      </trkpt>
      <trkpt lat="44.21463" lon="6.22065">
        <ele>1123.44</ele>
        <time>2017-04-09T13:29:14Z</time>
      </trkpt>
      <trkpt lat="44.21457" lon="6.22055">
        <ele>1122</ele>
        <time>2017-04-09T13:29:27Z</time>
      </trkpt>
      <trkpt lat="44.21464" lon="6.22034">
        <ele>1119.59</ele>
        <time>2017-04-09T13:29:44Z</time>
      </trkpt>
      <trkpt lat="44.21474" lon="6.22021">
        <ele>1118.15</ele>
        <time>2017-04-09T13:29:59Z</time>
      </trkpt>
      <trkpt lat="44.21486" lon="6.21998">
        <ele>1116.71</ele>
        <time>2017-04-09T13:30:18Z</time>
      </trkpt>
      <trkpt lat="44.215" lon="6.21968">
        <ele>1115.75</ele>
        <time>2017-04-09T13:30:40Z</time>
      </trkpt>
      <trkpt lat="44.2151" lon="6.21946">
        <ele>1114.31</ele>
        <time>2017-04-09T13:30:58Z</time>
      </trkpt>
      <trkpt lat="44.21515" lon="6.21942">
        <ele>1113.82</ele>
        <time>2017-04-09T13:31:03Z</time>
      </trkpt>
      <trkpt lat="44.21524" lon="6.21928">
        <ele>1113.34</ele>
        <time>2017-04-09T13:31:15Z</time>
      </trkpt>
      <trkpt lat="44.21521" lon="6.21901">
        <ele>1113.34</ele>
        <time>2017-04-09T13:31:31Z</time>
      </trkpt>
      <trkpt lat="44.21515" lon="6.21875">
        <ele>1113.34</ele>
        <time>2017-04-09T13:31:47Z</time>
      </trkpt>
      <trkpt lat="44.21514" lon="6.2184">
        <ele>1113.34</ele>
        <time>2017-04-09T13:32:08Z</time>
      </trkpt>
      <trkpt lat="44.21514" lon="6.21835">
        <ele>1114.79</ele>
        <time>2017-04-09T13:32:11Z</time>
      </trkpt>
      <trkpt lat="44.21514" lon="6.2183">
        <ele>1113.34</ele>
        <time>2017-04-09T13:32:14Z</time>
      </trkpt>
      <trkpt lat="44.21515" lon="6.21802">
        <ele>1114.31</ele>
        <time>2017-04-09T13:32:31Z</time>
      </trkpt>
      <trkpt lat="44.21516" lon="6.21769">
        <ele>1115.27</ele>
        <time>2017-04-09T13:32:52Z</time>
      </trkpt>
      <trkpt lat="44.21521" lon="6.21745">
        <ele>1116.23</ele>
        <time>2017-04-09T13:33:08Z</time>
      </trkpt>
      <trkpt lat="44.21521" lon="6.21742">
        <ele>1116.23</ele>
        <time>2017-04-09T13:33:10Z</time>
      </trkpt>
      <trkpt lat="44.21529" lon="6.21722">
        <ele>1116.71</ele>
        <time>2017-04-09T13:33:25Z</time>
      </trkpt>
      <trkpt lat="44.21532" lon="6.21711">
        <ele>1117.67</ele>
        <time>2017-04-09T13:33:32Z</time>
      </trkpt>
      <trkpt lat="44.2154" lon="6.21685">
        <ele>1117.67</ele>
        <time>2017-04-09T13:33:49Z</time>
      </trkpt>
      <trkpt lat="44.21537" lon="6.21663">
        <ele>1118.63</ele>
        <time>2017-04-09T13:34:04Z</time>
      </trkpt>
      <trkpt lat="44.21531" lon="6.21636">
        <ele>1119.59</ele>
        <time>2017-04-09T13:34:21Z</time>
      </trkpt>
      <trkpt lat="44.21535" lon="6.21613">
        <ele>1120.07</ele>
        <time>2017-04-09T13:34:36Z</time>
      </trkpt>
      <trkpt lat="44.21543" lon="6.21594">
        <ele>1120.55</ele>
        <time>2017-04-09T13:34:50Z</time>
      </trkpt>
      <trkpt lat="44.21545" lon="6.21591">
        <ele>1120.55</ele>
        <time>2017-04-09T13:34:53Z</time>
      </trkpt>
      <trkpt lat="44.21555" lon="6.21575">
        <ele>1121.03</ele>
        <time>2017-04-09T13:35:06Z</time>
      </trkpt>
      <trkpt lat="44.21559" lon="6.21567">
        <ele>1121.52</ele>
        <time>2017-04-09T13:35:12Z</time>
      </trkpt>
      <trkpt lat="44.21561" lon="6.21565">
        <ele>1121.52</ele>
        <time>2017-04-09T13:35:14Z</time>
      </trkpt>
      <trkpt lat="44.21572" lon="6.21544">
        <ele>1122</ele>
        <time>2017-04-09T13:35:31Z</time>
      </trkpt>
      <trkpt lat="44.21581" lon="6.21523">
        <ele>1122.96</ele>
        <time>2017-04-09T13:35:48Z</time>
      </trkpt>
      <trkpt lat="44.21587" lon="6.21494">
        <ele>1123.44</ele>
        <time>2017-04-09T13:36:05Z</time>
      </trkpt>
      <trkpt lat="44.21591" lon="6.2147">
        <ele>1124.88</ele>
        <time>2017-04-09T13:36:21Z</time>
      </trkpt>
      <trkpt lat="44.21602" lon="6.2145">
        <ele>1126.32</ele>
        <time>2017-04-09T13:36:38Z</time>
      </trkpt>
      <trkpt lat="44.21611" lon="6.21433">
        <ele>1127.28</ele>
        <time>2017-04-09T13:36:52Z</time>
      </trkpt>
      <trkpt lat="44.21608" lon="6.21406">
        <ele>1127.28</ele>
        <time>2017-04-09T13:37:12Z</time>
      </trkpt>
      <trkpt lat="44.21607" lon="6.21403">
        <ele>1127.28</ele>
        <time>2017-04-09T13:37:14Z</time>
      </trkpt>
      <trkpt lat="44.21602" lon="6.214">
        <ele>1128.24</ele>
        <time>2017-04-09T13:37:19Z</time>
      </trkpt>
      <trkpt lat="44.21595" lon="6.21399">
        <ele>1128.24</ele>
        <time>2017-04-09T13:37:25Z</time>
      </trkpt>
      <trkpt lat="44.21577" lon="6.21405">
        <ele>1128.24</ele>
        <time>2017-04-09T13:37:42Z</time>
      </trkpt>
      <trkpt lat="44.21573" lon="6.21404">
        <ele>1128.24</ele>
        <time>2017-04-09T13:37:51Z</time>
      </trkpt>
      <trkpt lat="44.21569" lon="6.214">
        <ele>1128.24</ele>
        <time>2017-04-09T13:38:10Z</time>
      </trkpt>
      <trkpt lat="44.21563" lon="6.214">
        <ele>1128.24</ele>
        <time>2017-04-09T13:38:25Z</time>
      </trkpt>
      <trkpt lat="44.21561" lon="6.214">
        <ele>1128.24</ele>
        <time>2017-04-09T13:38:29Z</time>
      </trkpt>
      <trkpt lat="44.21558" lon="6.21396">
        <ele>1126.8</ele>
        <time>2017-04-09T13:38:33Z</time>
      </trkpt>
      <trkpt lat="44.21544" lon="6.21387">
        <ele>1125.84</ele>
        <time>2017-04-09T13:38:49Z</time>
      </trkpt>
      <trkpt lat="44.21529" lon="6.21384">
        <ele>1124.4</ele>
        <time>2017-04-09T13:39:03Z</time>
      </trkpt>
      <trkpt lat="44.21507" lon="6.21396">
        <ele>1122.96</ele>
        <time>2017-04-09T13:39:24Z</time>
      </trkpt>
      <trkpt lat="44.21485" lon="6.21394">
        <ele>1120.55</ele>
        <time>2017-04-09T13:39:44Z</time>
      </trkpt>
      <trkpt lat="44.2146" lon="6.21385">
        <ele>1119.11</ele>
        <time>2017-04-09T13:40:07Z</time>
      </trkpt>
      <trkpt lat="44.21436" lon="6.21385">
        <ele>1117.19</ele>
        <time>2017-04-09T13:40:28Z</time>
      </trkpt>
      <trkpt lat="44.21415" lon="6.21391">
        <ele>1116.23</ele>
        <time>2017-04-09T13:40:50Z</time>
      </trkpt>
      <trkpt lat="44.21392" lon="6.21395">
        <ele>1114.31</ele>
        <time>2017-04-09T13:41:09Z</time>
      </trkpt>
      <trkpt lat="44.21366" lon="6.21378">
        <ele>1113.34</ele>
        <time>2017-04-09T13:41:33Z</time>
      </trkpt>
      <trkpt lat="44.21359" lon="6.21346">
        <ele>1111.9</ele>
        <time>2017-04-09T13:41:52Z</time>
      </trkpt>
      <trkpt lat="44.2134" lon="6.21317">
        <ele>1109.98</ele>
        <time>2017-04-09T13:42:15Z</time>
      </trkpt>
      <trkpt lat="44.21325" lon="6.21299">
        <ele>1108.54</ele>
        <time>2017-04-09T13:42:34Z</time>
      </trkpt>
      <trkpt lat="44.21301" lon="6.21295">
        <ele>1106.61</ele>
        <time>2017-04-09T13:42:54Z</time>
      </trkpt>
      <trkpt lat="44.21282" lon="6.2129">
        <ele>1104.21</ele>
        <time>2017-04-09T13:43:13Z</time>
      </trkpt>
      <trkpt lat="44.21271" lon="6.21287">
        <ele>1103.25</ele>
        <time>2017-04-09T13:43:30Z</time>
      </trkpt>
      <trkpt lat="44.21262" lon="6.21285">
        <ele>1102.29</ele>
        <time>2017-04-09T13:43:55Z</time>
      </trkpt>
      <trkpt lat="44.21258" lon="6.21284">
        <ele>1102.77</ele>
        <time>2017-04-09T13:44:09Z</time>
      </trkpt>
      <trkpt lat="44.21255" lon="6.21284">
        <ele>1102.77</ele>
        <time>2017-04-09T13:44:36Z</time>
      </trkpt>
      <trkpt lat="44.21257" lon="6.21283">
        <ele>1103.25</ele>
        <time>2017-04-09T13:44:56Z</time>
      </trkpt>
      <trkpt lat="44.21255" lon="6.21282">
        <ele>1102.77</ele>
        <time>2017-04-09T13:45:21Z</time>
      </trkpt>
      <trkpt lat="44.21254" lon="6.21282">
        <ele>1102.77</ele>
        <time>2017-04-09T13:45:35Z</time>
      </trkpt>
      <trkpt lat="44.21255" lon="6.21282">
        <ele>1102.77</ele>
        <time>2017-04-09T13:45:45Z</time>
      </trkpt>
    </trkseg>
  </trk>
</gpx>